Provisional Data: Conodoguinet Creek near Schlusser, PA


Please select a monitoring station.
Please select start date.
Please select start date.

Toggle Unit: C/F Toggle Unit: C/F
Sample Time Temperature (C) Temperature (F) Specific Conductivity (mS/cm) pH   Turbidity (NTU+) DO (mg/L)
10/20/2020 12:00:00 AM 12.26 54.068 0.512 7.62 46.26 9.5
10/20/2020 12:15:00 AM 12.26 54.068 0.513 7.62 46.24 9.47
10/20/2020 12:30:00 AM 12.26 54.068 0.513 7.62 46.14 9.48
10/20/2020 12:45:00 AM 12.26 54.068 0.514 7.61 47.24 9.44
10/20/2020 1:00:00 AM 12.27 54.086 0.515 7.61 46.59 9.44
10/20/2020 1:15:00 AM 12.27 54.086 0.515 7.6 46.61 9.45
10/20/2020 1:30:00 AM 12.27 54.086 0.515 7.61 46.64 9.41
10/20/2020 1:45:00 AM 12.27 54.086 0.516 7.6 46.5 9.43
10/20/2020 2:00:00 AM 12.27 54.086 0.517 7.6 47.12 9.44
10/20/2020 2:15:00 AM 12.27 54.086 0.517 7.59 46.76 9.42
10/20/2020 2:30:00 AM 12.27 54.086 0.516 7.58 46.79 9.4
10/20/2020 2:45:00 AM 12.28 54.104 0.517 7.58 46.46 9.41
10/20/2020 3:00:00 AM 12.28 54.104 0.517 7.58 47.18 9.4
10/20/2020 3:15:00 AM 12.28 54.104 0.518 7.57 46.7 9.4
10/20/2020 3:30:00 AM 12.27 54.086 0.517 7.57 45.41 9.4
10/20/2020 3:45:00 AM 12.24 54.032 0.517 7.57 45.56 9.4
10/20/2020 4:00:00 AM 12.22 53.996 0.518 7.57 45.55 9.38
10/20/2020 4:15:00 AM 12.2 53.96 0.517 7.56 45.75 9.38
10/20/2020 4:30:00 AM 12.18 53.924 0.518 7.56 45.61 9.34
10/20/2020 4:45:00 AM 12.16 53.888 0.518 7.56 45.97 9.34
10/20/2020 5:00:00 AM 12.14 53.852 0.518 7.56 46.14 9.35
10/20/2020 5:15:00 AM 12.11 53.798 0.518 7.55 46.17 9.35
10/20/2020 5:30:00 AM 12.1 53.78 0.52 7.54 46.11 9.33
10/20/2020 5:45:00 AM 12.09 53.762 0.518 7.54 45.32 9.32
10/20/2020 6:00:00 AM 12.08 53.744 0.52 7.54 46.05 9.3
10/20/2020 6:15:00 AM 12.07 53.726 0.518 7.54 46.83 9.29
10/20/2020 6:30:00 AM 12.07 53.726 0.518 7.53 46.77 9.26
10/20/2020 6:45:00 AM 12.06 53.708 0.519 7.54 46.92 9.28
10/20/2020 7:00:00 AM 12.05 53.69 0.518 7.53 47.23 9.25
10/20/2020 7:15:00 AM 12.05 53.69 0.52 7.53 46.81 9.26
10/20/2020 7:30:00 AM 12.04 53.672 0.519 7.53 46.91 9.26
10/20/2020 7:45:00 AM 12.05 53.69 0.52 7.52 46.82 9.29
10/20/2020 8:00:00 AM 12.07 53.726 0.52 7.52 46.39 9.32
10/20/2020 8:15:00 AM 12.08 53.744 0.52 7.52 46.42 9.35
10/20/2020 8:30:00 AM 12.1 53.78 0.52 7.52 46.55 9.42
10/20/2020 8:45:00 AM 12.11 53.798 0.52 7.52 46.16 9.51
10/20/2020 9:00:00 AM 12.16 53.888 0.521 7.52 46.34 9.67
10/20/2020 9:15:00 AM 12.28 54.104 0.519 7.55 46.35 9.89
10/20/2020 9:30:00 AM 12.39 54.302 0.52 7.57 46.08 10.13
10/20/2020 9:45:00 AM 12.5 54.5 0.519 7.59 46.23 10.4
10/20/2020 10:00:00 AM 12.54 54.572 0.519 7.6 45.93 10.57
10/20/2020 10:15:00 AM 12.57 54.626 0.518 7.62 45.94 10.73
10/20/2020 10:30:00 AM 12.73 54.914 0.519 7.64 45.62 11
10/20/2020 10:45:00 AM 12.88 55.184 0.519 7.67 45.48 11.25
10/20/2020 11:00:00 AM 12.96 55.328 0.519 7.69 45.57 11.45
10/20/2020 11:15:00 AM 13.09 55.562 0.519 7.71 45.4 11.69
10/20/2020 11:30:00 AM 13.28 55.904 0.517 7.73 44.91 11.93
10/20/2020 11:45:00 AM 13.48 56.264 0.516 7.77 44.57 12.13
10/20/2020 12:00:00 PM 13.7 56.66 0.517 7.79 44.48 12.3
10/20/2020 12:15:00 PM 14.01 57.218 0.517 7.83 44.52 12.51
10/20/2020 12:30:00 PM 14.23 57.614 0.517 7.84 43.56 12.69
10/20/2020 12:45:00 PM 14.38 57.884 0.517 7.85 43.36 12.78
10/20/2020 1:00:00 PM 14.63 58.334 0.516 7.87 42.86 12.87
10/20/2020 1:15:00 PM 14.79 58.622 0.516 7.87 42.86 12.93
10/20/2020 1:30:00 PM 14.99 58.982 0.515 7.88 42.75 13.01
10/20/2020 1:45:00 PM 15.23 59.414 0.517 7.9 42.26 13.1
10/20/2020 2:00:00 PM 15.41 59.738 0.516 7.9 42.36 13.15
10/20/2020 2:15:00 PM 15.4 59.72 0.515 7.9 42.06 13.18
10/20/2020 2:30:00 PM 15.39 59.702 0.516 7.9 41.88 13.11
10/20/2020 2:45:00 PM 15.36 59.648 0.516 7.89 41.66 13.1
10/20/2020 3:00:00 PM 15.3 59.54 0.515 7.87 41.7 13
10/20/2020 3:15:00 PM 15.25 59.45 0.515 7.86 41.84 12.88
10/20/2020 3:30:00 PM 15.14 59.252 0.516 7.85 41.9 12.79
10/20/2020 3:45:00 PM 15.11 59.198 0.516 7.83 42.33 12.74
10/20/2020 4:00:00 PM 15.08 59.144 0.516 7.84 42.17 12.66
10/20/2020 4:15:00 PM 14.99 58.982 0.516 7.82 41.21 12.58
10/20/2020 4:30:00 PM 14.87 58.766 0.516 7.82 41.25 12.41
10/20/2020 4:45:00 PM 14.83 58.694 0.516 7.81 41.45 12.3
10/20/2020 5:00:00 PM 14.69 58.442 0.518 7.81 41.52 12.11
10/20/2020 5:15:00 PM 14.69 58.442 0.517 7.8 41.92 11.97
10/20/2020 5:30:00 PM 14.64 58.352 0.518 7.78 41.72 11.89
10/20/2020 5:45:00 PM 14.52 58.136 0.519 7.78 41.97 11.63
10/20/2020 6:00:00 PM 14.42 57.956 0.519 7.76 42.09 11.4
10/20/2020 6:15:00 PM 14.31 57.758 0.52 7.74 42.1 11.17
10/20/2020 6:30:00 PM 14.21 57.578 0.517 7.73 42.31 10.93
10/20/2020 6:45:00 PM 14.11 57.398 0.522 7.71 42.53 10.6
10/20/2020 7:00:00 PM 14 57.2 0.522 7.69 42.71 10.26
10/20/2020 7:15:00 PM 13.9 57.02 0.524 7.66 42.93 10.16
10/20/2020 7:30:00 PM 13.86 56.948 0.524 7.63 43.33 9.9
10/20/2020 7:45:00 PM 13.79 56.822 0.524 7.6 43.24 9.72
10/20/2020 8:00:00 PM 13.73 56.714 0.525 7.6 43.11 9.52
10/20/2020 8:15:00 PM 13.69 56.642 0.525 7.58 43.37 9.42
10/20/2020 8:30:00 PM 13.66 56.588 0.527 7.57 43.5 9.24
10/20/2020 8:45:00 PM 13.62 56.516 0.526 7.56 43.78 9.18
10/20/2020 9:00:00 PM 13.61 56.498 0.526 7.54 43.62 8.99
10/20/2020 9:15:00 PM 13.58 56.444 0.528 7.52 43.76 8.91
10/20/2020 9:30:00 PM 13.56 56.408 0.528 7.51 43.75 8.95
10/20/2020 9:45:00 PM 13.55 56.39 0.528 7.5 43.96 8.82
10/20/2020 10:00:00 PM 13.52 56.336 0.529 7.49 44.02 8.81
10/20/2020 10:15:00 PM 13.51 56.318 0.529 7.48 43.93 8.83
10/20/2020 10:30:00 PM 13.49 56.282 0.53 7.48 43.9 8.83
10/20/2020 10:45:00 PM 13.48 56.264 0.53 7.47 44.21 8.77
10/20/2020 11:00:00 PM 13.47 56.246 0.529 7.46 44.25 8.76
10/20/2020 11:15:00 PM 13.47 56.246 0.53 7.46 44.27 8.78
10/20/2020 11:30:00 PM 13.46 56.228 0.53 7.46 44.13 8.75
10/20/2020 11:45:00 PM 13.44 56.192 0.53 7.46 44.18 8.6
10/21/2020 12:00:00 AM 13.42 56.156 0.531 7.45 44.25 8.72
10/21/2020 12:15:00 AM 13.4 56.12 0.531 7.45 44.27 8.7
10/21/2020 12:30:00 AM 13.38 56.084 0.531 7.45 44.2 8.69
10/21/2020 12:45:00 AM 13.36 56.048 0.531 7.44 44.07 8.42
10/21/2020 1:00:00 AM 13.34 56.012 0.531 7.43 44.5 8.53
10/21/2020 1:15:00 AM 13.33 55.994 0.531 7.43 44.46 8.68
10/21/2020 1:30:00 AM 13.32 55.976 0.532 7.44 44.57 8.68
10/21/2020 1:45:00 AM 13.31 55.958 0.531 7.44 44.31 8.66
10/21/2020 2:00:00 AM 13.3 55.94 0.532 7.44 44.31 8.68
10/21/2020 2:15:00 AM 13.29 55.922 0.533 7.44 44.25 8.62
10/21/2020 2:30:00 AM 13.29 55.922 0.532 7.43 44.15 8.5
10/21/2020 2:45:00 AM 13.28 55.904 0.533 7.43 44.18 8.52
10/21/2020 3:00:00 AM 13.27 55.886 0.533 7.43 44.18 8.61
10/21/2020 3:15:00 AM 13.27 55.886 0.533 7.42 44.19 8.66
10/21/2020 3:30:00 AM 13.29 55.922 0.532 7.43 44.29 8.6
10/21/2020 3:45:00 AM 13.3 55.94 0.533 7.43 44.35 8.68
10/21/2020 4:00:00 AM 13.29 55.922 0.533 7.43 44.28 8.71
10/21/2020 4:15:00 AM 13.27 55.886 0.532 7.43 44.55 8.76
10/21/2020 4:30:00 AM 13.25 55.85 0.532 7.43 44.71 8.6
10/21/2020 4:45:00 AM 13.24 55.832 0.533 7.42 44.79 8.66
10/21/2020 5:00:00 AM 13.23 55.814 0.533 7.43 44.9 8.77
10/21/2020 5:15:00 AM 13.23 55.814 0.532 7.44 44.79 8.78
10/21/2020 5:30:00 AM 13.21 55.778 0.532 7.44 44.73 8.68
10/21/2020 5:45:00 AM 13.21 55.778 0.532 7.44 44.89 8.73
10/21/2020 6:00:00 AM 13.19 55.742 0.533 7.43 44.94 8.74
10/21/2020 6:15:00 AM 13.23 55.814 0.53 7.44 45.95 8.73
10/21/2020 6:30:00 AM 13.19 55.742 0.532 7.44 45.52 8.71
10/21/2020 6:45:00 AM 13.19 55.742 0.531 7.44 45.81 8.67
10/21/2020 7:00:00 AM 13.2 55.76 0.532 7.44 45.42 8.71
10/21/2020 7:15:00 AM 13.17 55.706 0.533 7.44 45.41 8.75
10/21/2020 7:30:00 AM 13.15 55.67 0.532 7.43 45.44 8.69
10/21/2020 7:45:00 AM 13.14 55.652 0.532 7.43 45.58 8.7
10/21/2020 8:00:00 AM 13.14 55.652 0.533 7.43 45.77 8.76
10/21/2020 8:15:00 AM 13.13 55.634 0.532 7.44 45.54 8.84
10/21/2020 8:30:00 AM 13.14 55.652 0.531 7.44 45.53 8.95
10/21/2020 8:45:00 AM 13.16 55.688 0.531 7.44 45.47 9.08
10/21/2020 9:00:00 AM 13.17 55.706 0.531 7.45 45.42 9.18
10/21/2020 9:15:00 AM 13.2 55.76 0.531 7.47 45.4 9.35
10/21/2020 9:30:00 AM 13.26 55.868 0.531 7.48 45.27 9.49
10/21/2020 9:45:00 AM 13.34 56.012 0.531 7.5 44.9 9.76
10/21/2020 10:00:00 AM 13.42 56.156 0.532 7.52 44.94 9.93
10/21/2020 10:15:00 AM 13.47 56.246 0.53 7.56 44.75 10.17
10/21/2020 10:30:00 AM 13.58 56.444 0.53 7.59 44.48 10.36
10/21/2020 10:45:00 AM 13.71 56.678 0.53 7.62 44.35 10.6
10/21/2020 11:00:00 AM 13.87 56.966 0.529 7.65 44.2 10.9
10/21/2020 11:15:00 AM 14.02 57.236 0.528 7.67 43.96 11.03
10/21/2020 11:30:00 AM 14.18 57.524 0.528 7.7 43.69 11.3
10/21/2020 11:45:00 AM 14.41 57.938 0.528 7.73 43.46 11.59
10/21/2020 12:00:00 PM 14.64 58.352 0.527 7.75 43.34 11.75
10/21/2020 12:15:00 PM 14.86 58.748 0.526 7.78 42.81 11.96
10/21/2020 12:30:00 PM 15.01 59.018 0.527 7.79 40.99 11.99
10/21/2020 12:45:00 PM 15.14 59.252 0.525 7.81 42.08 12.11
10/21/2020 1:00:00 PM 15.28 59.504 0.525 7.82 46.51 12.36
10/21/2020 1:15:00 PM 15.47 59.846 0.524 7.84 46.6 12.42
10/21/2020 1:30:00 PM 15.73 60.314 0.524 7.86 45.89 12.58
10/21/2020 1:45:00 PM 15.95 60.71 0.524 7.87 45.61 11.37
10/21/2020 2:00:00 PM 16.19 61.142 0.524 7.89 44.59 12.75
10/21/2020 2:15:00 PM 16.5 61.7 0.522 7.9 42.99 12.83
10/21/2020 2:30:00 PM 16.68 62.024 0.524 7.9 53.42 12.75
10/21/2020 2:45:00 PM 16.97 62.546 0.522 7.93 44.26 12.87
10/21/2020 3:00:00 PM 17.2 62.96 0.521 7.94 42.31 12.71
10/21/2020 3:15:00 PM 17.35 63.23 0.521 7.94 45.26 12.39
10/21/2020 3:30:00 PM 17.56 63.608 0.521 7.95 43.21 12.91
10/21/2020 3:45:00 PM 17.68 63.824 0.521 7.95 42.29 12.89
10/21/2020 4:00:00 PM 17.64 63.752 0.522 7.95 42.42 12.73
10/21/2020 4:15:00 PM 17.61 63.698 0.521 7.93 44.73 12.63
10/21/2020 4:30:00 PM 17.53 63.554 0.521 7.91 44.52 12.35
10/21/2020 4:45:00 PM 17.39 63.302 0.521 7.86 44.12 12.16
10/21/2020 5:00:00 PM 17.25 63.05 0.523 7.85 43.98 11.92
10/21/2020 5:15:00 PM 17.07 62.726 0.523 7.81 43.38 11.66
10/21/2020 5:30:00 PM 16.88 62.384 0.525 7.8 43.74 11.41
10/21/2020 5:45:00 PM 16.75 62.15 0.526 7.78 43.54 11.13
10/21/2020 6:00:00 PM 16.55 61.79 0.526 7.76 43.55 10.9
10/21/2020 6:15:00 PM 16.39 61.502 0.527 7.75 43.65 10.64
10/21/2020 6:30:00 PM 16.2 61.16 0.528 7.73 43.63 10.31
10/21/2020 6:45:00 PM 16.06 60.908 0.529 7.71 50.39 10.07
10/21/2020 7:00:00 PM 15.87 60.566 0.53 7.68 50.59 9.72
10/21/2020 7:15:00 PM 15.74 60.332 0.53 7.66 51.32 9.58
10/21/2020 7:30:00 PM 15.66 60.188 0.53 7.64 47.31 9.37
10/21/2020 7:45:00 PM 15.58 60.044 0.529 7.62 46.4 9.19
10/21/2020 8:00:00 PM 15.52 59.936 0.53 7.6 46.04 9.04
10/21/2020 8:15:00 PM 15.43 59.774 0.531 7.59 45.88 8.92
10/21/2020 8:30:00 PM 15.37 59.666 0.532 7.57 45.63 8.81
10/21/2020 8:45:00 PM 15.31 59.558 0.533 7.56 44.72 8.69
10/21/2020 9:00:00 PM 15.24 59.432 0.534 7.55 44.47 8.64
10/21/2020 9:15:00 PM 15.22 59.396 0.533 7.53 44.38 8.61
10/21/2020 9:30:00 PM 15.18 59.324 0.533 7.54 44.15 8.55
10/21/2020 9:45:00 PM 15.15 59.27 0.533 7.53 43.61 8.53
10/21/2020 10:00:00 PM 15.12 59.216 0.533 7.53 43.46 8.51
10/21/2020 10:15:00 PM 15.09 59.162 0.534 7.52 43.2 8.46
10/21/2020 10:30:00 PM 15.07 59.126 0.534 7.51 43.19 8.44
10/21/2020 10:45:00 PM 15.06 59.108 0.534 7.52 42.63 8.43
10/21/2020 11:00:00 PM 15.04 59.072 0.534 7.52 42.45 8.36
10/21/2020 11:15:00 PM 15.04 59.072 0.534 7.52 42.21 8.35
10/21/2020 11:30:00 PM 15.01 59.018 0.534 7.51 42.45 8.35
10/21/2020 11:45:00 PM 14.98 58.964 0.535 7.51 42.31 8.33
10/22/2020 12:00:00 AM 14.95 58.91 0.536 7.5 42.43 8.38
10/22/2020 12:15:00 AM 14.92 58.856 0.537 7.5 41.76 8.37
10/22/2020 12:30:00 AM 14.91 58.838 0.537 7.5 41.55 8.35
10/22/2020 12:45:00 AM 14.91 58.838 0.537 7.5 41.46 8.31
10/22/2020 1:00:00 AM 14.9 58.82 0.537 7.51 41.7 8.33
10/22/2020 1:15:00 AM 14.9 58.82 0.532 7.5 42.01 8.36
10/22/2020 1:30:00 AM 14.9 58.82 0.537 7.5 41.92 8.32
10/22/2020 1:45:00 AM 14.91 58.838 0.538 7.5 41.74 8.34
10/22/2020 2:00:00 AM 14.9 58.82 0.538 7.5 41.59 8.34
10/22/2020 2:15:00 AM 14.9 58.82 0.537 7.51 41.55 8.34
10/22/2020 2:30:00 AM 14.9 58.82 0.539 7.51 40.6 8.32
10/22/2020 2:45:00 AM 14.88 58.784 0.538 7.51 40.11 8.28
10/22/2020 3:00:00 AM 14.87 58.766 0.539 7.5 39.62 8.3
10/22/2020 3:15:00 AM 14.84 58.712 0.539 7.51 39.63 8.34
10/22/2020 3:30:00 AM 14.82 58.676 0.539 7.5 39.35 8.31
10/22/2020 3:45:00 AM 14.81 58.658 0.539 7.51 38.93 8.27
10/22/2020 4:00:00 AM 14.82 58.676 0.54 7.5 39.15 8.25
10/22/2020 4:15:00 AM 14.82 58.676 0.54 7.5 39.23 8.32
10/22/2020 4:30:00 AM 14.82 58.676 0.539 7.51 39.31 8.31
10/22/2020 4:45:00 AM 14.82 58.676 0.54 7.5 39.23 8.31
10/22/2020 5:00:00 AM 14.82 58.676 0.54 7.5 39.2 8.34
10/22/2020 5:15:00 AM 14.82 58.676 0.54 7.5 39.65 8.3
10/22/2020 5:30:00 AM 14.82 58.676 0.54 7.5 38.83 8.33
10/22/2020 5:45:00 AM 14.83 58.694 0.54 7.5 39.4 8.32
10/22/2020 6:00:00 AM 14.84 58.712 0.54 7.51 38.73 8.33
10/22/2020 6:15:00 AM 14.85 58.73 0.54 7.5 38.78 8.31
10/22/2020 6:30:00 AM 14.87 58.766 0.541 7.5 38.73 8.32
10/22/2020 6:45:00 AM 14.88 58.784 0.54 7.5 39.84 8.32
10/22/2020 7:00:00 AM 14.89 58.802 0.539 7.5 36.16 8.31
10/22/2020 7:15:00 AM 14.9 58.82 0.54 7.49 36.12 8.31
10/22/2020 7:30:00 AM 14.91 58.838 0.54 7.5 35.69 8.31
10/22/2020 7:45:00 AM 14.92 58.856 0.54 7.5 35.42 8.33
10/22/2020 8:00:00 AM 14.93 58.874 0.54 7.5 34.57 8.37
10/22/2020 8:15:00 AM 14.95 58.91 0.539 7.5 34.17 8.39
10/22/2020 8:30:00 AM 14.97 58.946 0.54 7.5 33.94 8.46
10/22/2020 8:45:00 AM 14.99 58.982 0.538 7.51 34.51 8.53
10/22/2020 9:00:00 AM 15.03 59.054 0.539 7.52 34.58 8.66
10/22/2020 9:15:00 AM 15.07 59.126 0.538 7.53 33.88 8.78
10/22/2020 9:30:00 AM 15.12 59.216 0.539 7.54 33.83 8.97
10/22/2020 9:45:00 AM 15.19 59.342 0.538 7.56 33.88 9.16
10/22/2020 10:00:00 AM 15.25 59.45 0.538 7.58 33.62 9.36
10/22/2020 10:15:00 AM 15.32 59.576 0.538 7.59 33.19 9.55
10/22/2020 10:30:00 AM 15.38 59.684 0.538 7.6 33.04 9.73
10/22/2020 10:45:00 AM 15.45 59.81 0.539 7.62 32.97 9.93
10/22/2020 11:00:00 AM 15.52 59.936 0.538 7.64 33.01 10.17
10/22/2020 11:15:00 AM 15.6 60.08 0.537 7.66 32.88 10.36
10/22/2020 11:30:00 AM 15.69 60.242 0.537 7.69 32.82 10.51
10/22/2020 11:45:00 AM 15.79 60.422 0.535 7.71 32.8 10.43
10/22/2020 12:00:00 PM 15.91 60.638 0.536 7.74 32.86 10.95
10/22/2020 12:15:00 PM 16.01 60.818 0.535 7.76 32.61 11.11
10/22/2020 12:30:00 PM 16.1 60.98 0.534 7.77 32.39 11.28
10/22/2020 12:45:00 PM 16.18 61.124 0.534 7.79 32.51 11.4
10/22/2020 1:00:00 PM 16.27 61.286 0.534 7.8 32.32 11.43
10/22/2020 1:15:00 PM 16.41 61.538 0.533 7.82 32.13 11.64
10/22/2020 1:30:00 PM 16.58 61.844 0.534 7.84 32.01 11.84
10/22/2020 1:45:00 PM 16.67 62.006 0.53 7.85 31.7 11.88
10/22/2020 2:00:00 PM 16.96 62.528 0.533 7.87 31.62 12.06
10/22/2020 2:15:00 PM 17.28 63.104 0.53 7.9 30.8 12.13
10/22/2020 2:30:00 PM 17.63 63.734 0.53 7.92 30.83 12.2
10/22/2020 2:45:00 PM 18.03 64.454 0.529 7.95 30.57 12.36
10/22/2020 3:00:00 PM 18.32 64.976 0.529 7.97 30.22 12.52
10/22/2020 3:15:00 PM 18.59 65.462 0.529 7.98 29.96 12.59
10/22/2020 3:30:00 PM 18.77 65.786 0.529 7.98 29.78 12.49
10/22/2020 3:45:00 PM 18.88 65.984 0.529 7.98 29.51 12.45
10/22/2020 4:00:00 PM 18.89 66.002 0.529 7.97 29.64 12.43
10/22/2020 4:15:00 PM 18.84 65.912 0.531 7.95 29.6 12.31
10/22/2020 4:30:00 PM 18.74 65.732 0.531 7.93 29.55 12.18
10/22/2020 4:45:00 PM 18.57 65.426 0.53 7.91 29.49 11.92
10/22/2020 5:00:00 PM 18.39 65.102 0.532 7.89 29.74 11.68
10/22/2020 5:15:00 PM 18.2 64.76 0.531 7.87 29.83 11.42
10/22/2020 5:30:00 PM 18.01 64.418 0.532 7.84 30.03 11.14
10/22/2020 5:45:00 PM 17.79 64.022 0.534 7.82 30.13 10.83
10/22/2020 6:00:00 PM 17.61 63.698 0.534 7.79 30.41 10.54
10/22/2020 6:15:00 PM 17.39 63.302 0.536 7.76 30.49 10.25
10/22/2020 6:30:00 PM 17.2 62.96 0.537 7.74 34.62 9.97
10/22/2020 6:45:00 PM 17.05 62.69 0.537 7.71 34.12 9.65
10/22/2020 7:00:00 PM 16.88 62.384 0.538 7.68 34.02 9.4
10/22/2020 7:15:00 PM 16.79 62.222 0.539 7.67 34.39 9.16
10/22/2020 7:30:00 PM 16.64 61.952 0.539 7.64 34.72 8.98
10/22/2020 7:45:00 PM 16.51 61.718 0.539 7.62 35.1 8.8
10/22/2020 8:00:00 PM 16.4 61.52 0.537 7.61 34.81 8.66
10/22/2020 8:15:00 PM 16.28 61.304 0.54 7.59 34.87 8.55
10/22/2020 8:30:00 PM 16.2 61.16 0.539 7.58 35.03 8.45
10/22/2020 8:45:00 PM 16.12 61.016 0.539 7.57 34.63 8.18
10/22/2020 9:00:00 PM 16.06 60.908 0.541 7.56 35.2 8.28
10/22/2020 9:15:00 PM 16.01 60.818 0.542 7.55 46.64 7.99
10/22/2020 9:30:00 PM 15.96 60.728 0.542 7.54 45.75 7.85
10/22/2020 9:45:00 PM 15.92 60.656 0.543 7.54 45.16 8.14
10/22/2020 10:00:00 PM 15.88 60.584 0.542 7.53 44.86 8.14
10/22/2020 10:15:00 PM 15.85 60.53 0.542 7.53 44.49 8.05
10/22/2020 10:30:00 PM 15.83 60.494 0.542 7.52 43.92 8.11
10/22/2020 10:45:00 PM 15.8 60.44 0.542 7.52 43.62 8.13
10/22/2020 11:00:00 PM 15.78 60.404 0.542 7.51 43.39 8.07
10/22/2020 11:15:00 PM 15.76 60.368 0.54 7.52 43.55 8.06
10/22/2020 11:30:00 PM 15.74 60.332 0.542 7.51 43.44 8.05
10/22/2020 11:45:00 PM 15.72 60.296 0.542 7.51 43.12 8
10/23/2020 12:00:00 AM 15.7 60.26 0.544 7.5 42.91 7.99
10/23/2020 12:15:00 AM 15.67 60.206 0.543 7.5 43.04 8.01
10/23/2020 12:30:00 AM 15.66 60.188 0.54 7.5 42.5 7.94
10/23/2020 12:45:00 AM 15.65 60.17 0.544 7.5 41.55 7.97
10/23/2020 1:00:00 AM 15.63 60.134 0.542 7.5 41.5 7.99
10/23/2020 1:15:00 AM 15.63 60.134 0.541 7.5 41.62 7.99
10/23/2020 1:30:00 AM 15.62 60.116 0.541 7.51 41.36 8.03
10/23/2020 1:45:00 AM 15.61 60.098 0.541 7.5 41.42 7.99
10/23/2020 2:00:00 AM 15.59 60.062 0.542 7.51 42.33 7.99
10/23/2020 2:15:00 AM 15.59 60.062 0.544 7.5 42.25 7.99
10/23/2020 2:30:00 AM 15.59 60.062 0.543 7.51 42.44 7.95
10/23/2020 2:45:00 AM 15.62 60.116 0.543 7.5 42.79 7.96
10/23/2020 3:00:00 AM 15.63 60.134 0.543 7.5 42.68 7.94
10/23/2020 3:15:00 AM 15.64 60.152 0.543 7.51 42.81 7.92
10/23/2020 3:30:00 AM 15.67 60.206 0.543 7.52 42.19 7.94
10/23/2020 3:45:00 AM 15.7 60.26 0.545 7.51 42.22 7.94
10/23/2020 4:00:00 AM 15.73 60.314 0.542 7.51 42.02 7.92
10/23/2020 4:15:00 AM 15.77 60.386 0.545 7.54 42.01 7.92
10/23/2020 4:30:00 AM 15.78 60.404 0.548 7.54 41.57 7.9
10/23/2020 4:45:00 AM 15.81 60.458 0.547 7.54 41.52 7.91
10/23/2020 5:00:00 AM 15.84 60.512 0.547 7.55 40.95 7.9
10/23/2020 5:15:00 AM 15.87 60.566 0.547 7.55 40.39 7.92
10/23/2020 5:30:00 AM 15.89 60.602 0.545 7.56 40.54 7.92
10/23/2020 5:45:00 AM 15.91 60.638 0.542 7.56 40.36 7.93
10/23/2020 6:00:00 AM 15.92 60.656 0.545 7.56 40.29 7.89
10/23/2020 6:15:00 AM 15.94 60.692 0.545 7.56 42.32 7.89
10/23/2020 6:30:00 AM 15.95 60.71 0.545 7.57 40.36 7.89
10/23/2020 6:45:00 AM 15.95 60.71 0.548 7.57 40.48 7.87
10/23/2020 7:00:00 AM 15.96 60.728 0.547 7.57 40.26 7.87
10/23/2020 7:15:00 AM 15.97 60.746 0.546 7.58 40.18 7.87
10/23/2020 7:30:00 AM 15.97 60.746 0.546 7.57 39.95 7.88
10/23/2020 7:45:00 AM 15.98 60.764 0.547 7.56 40.03 7.85
10/23/2020 8:00:00 AM 15.99 60.782 0.546 7.56 40.06 7.85
10/23/2020 8:15:00 AM 16 60.8 0.546 7.56 39.9 7.89
10/23/2020 8:30:00 AM 16.02 60.836 0.546 7.56 40.21 7.95
10/23/2020 8:45:00 AM 16.04 60.872 0.546 7.56 40.14 7.96
10/23/2020 9:00:00 AM 16.08 60.944 0.547 7.57 39.89 8.06
10/23/2020 9:15:00 AM 16.12 61.016 0.547 7.59 39.9 8.21
10/23/2020 9:30:00 AM 16.14 61.052 0.547 7.6 39.55 8.4
10/23/2020 9:45:00 AM 16.17 61.106 0.547 7.61 39.59 8.51
10/23/2020 10:00:00 AM 16.2 61.16 0.545 7.61 39.24 8.63
10/23/2020 10:15:00 AM 16.24 61.232 0.545 7.61 39.02 8.81
10/23/2020 10:30:00 AM 16.32 61.376 0.545 7.62 38.99 9.07
10/23/2020 10:45:00 AM 16.41 61.538 0.545 7.64 38.89 9.23
10/23/2020 11:00:00 AM 16.53 61.754 0.544 7.66 38.58 9.6
10/23/2020 11:15:00 AM 16.62 61.916 0.544 7.69 38.48 9.9
10/23/2020 11:30:00 AM 16.72 62.096 0.543 7.71 38.2 10.2
10/23/2020 11:45:00 AM 16.79 62.222 0.542 7.72 37.54 10.25
10/23/2020 12:00:00 PM 16.88 62.384 0.542 7.74 37.41 10.63
10/23/2020 12:15:00 PM 16.98 62.564 0.539 7.75 37.55 10.66
10/23/2020 12:30:00 PM 17.23 63.014 0.54 7.77 36.49 10.95
10/23/2020 12:45:00 PM 17.57 63.626 0.539 7.8 36.38 11.3
10/23/2020 1:00:00 PM 17.85 64.13 0.539 7.82 35.97 11.62
10/23/2020 1:15:00 PM 18.12 64.616 0.537 7.84 35.47 11.89
10/23/2020 1:30:00 PM 18.32 64.976 0.539 7.86 34.9 11.94
10/23/2020 1:45:00 PM 18.58 65.444 0.536 7.87 34.4 12.16
10/23/2020 2:00:00 PM 18.88 65.984 0.535 7.89 33.95 12.31
10/23/2020 2:15:00 PM 19.12 66.416 0.536 7.91 33.89 12.39
10/23/2020 2:30:00 PM 19.36 66.848 0.535 7.92 33.85 12.42
10/23/2020 2:45:00 PM 19.41 66.938 0.535 7.92 33.65 12.25
10/23/2020 3:00:00 PM 19.45 67.01 0.534 7.93 33.4 12.35
10/23/2020 3:15:00 PM 19.5 67.1 0.534 7.93 33.28 12.19
10/23/2020 3:30:00 PM 19.45 67.01 0.534 7.93 33.31 12.12
10/23/2020 3:45:00 PM 19.4 66.92 0.534 7.91 33.6 12.08
10/23/2020 4:00:00 PM 19.3 66.74 0.533 7.91 33.96 11.9
10/23/2020 4:15:00 PM 19.16 66.488 0.534 7.89 34.14 11.4
10/23/2020 4:30:00 PM 19.08 66.344 0.534 7.88 34.35 11.67
10/23/2020 4:45:00 PM 18.93 66.074 0.535 7.87 33.77 11.43
10/23/2020 5:00:00 PM 18.82 65.876 0.534 7.86 33.65 11.27
10/23/2020 5:15:00 PM 18.67 65.606 0.535 7.83 33.76 11
10/23/2020 5:30:00 PM 18.47 65.246 0.536 7.81 34.37 10.69
10/23/2020 5:45:00 PM 18.38 65.084 0.535 7.8 34.52 10.46
10/23/2020 6:00:00 PM 18.24 64.832 0.537 7.79 34.69 9.99
10/23/2020 6:15:00 PM 18.05 64.49 0.537 7.77 34.88 9.79
10/23/2020 6:30:00 PM 17.91 64.238 0.538 7.74 34.95 9.41
10/23/2020 6:45:00 PM 17.77 63.986 0.538 7.73 35.09 9.2
10/23/2020 7:00:00 PM 17.68 63.824 0.538 7.71 35.16 8.96
10/23/2020 7:15:00 PM 17.57 63.626 0.539 7.69 35.31 8.72
10/23/2020 7:30:00 PM 17.47 63.446 0.54 7.68 35.29 8.44
10/23/2020 7:45:00 PM 17.37 63.266 0.541 7.67 35.58 8.27
10/23/2020 8:00:00 PM 17.26 63.068 0.542 7.65 35.93 8.13
10/23/2020 8:15:00 PM 17.2 62.96 0.543 7.64 36.41 7.92
10/23/2020 8:30:00 PM 17.11 62.798 0.542 7.63 36.8 7.81
10/23/2020 8:45:00 PM 17.05 62.69 0.544 7.62 36.46 7.82
10/23/2020 9:00:00 PM 16.99 62.582 0.543 7.62 36.77 7.72
10/23/2020 9:15:00 PM 16.93 62.474 0.542 7.62 36.94 7.7
10/23/2020 9:30:00 PM 16.88 62.384 0.545 7.62 36.96 7.65
10/23/2020 9:45:00 PM 16.84 62.312 0.544 7.62 36.83 7.61
10/23/2020 10:00:00 PM 16.8 62.24 0.542 7.61 36.67 7.6
10/23/2020 10:15:00 PM 16.76 62.168 0.542 7.62 37.06 7.62
10/23/2020 10:30:00 PM 16.72 62.096 0.545 7.62 37.36 7.57
10/23/2020 10:45:00 PM 16.68 62.024 0.544 7.61 37.2 7.6
10/23/2020 11:00:00 PM 16.65 61.97 0.546 7.62 37.26 7.57
10/23/2020 11:15:00 PM 16.62 61.916 0.544 7.61 37.28 7.6
10/23/2020 11:30:00 PM 16.6 61.88 0.544 7.62 37.48 7.59
10/23/2020 11:45:00 PM 16.57 61.826 0.545 7.62 37.82 7.58
10/24/2020 12:00:00 AM 16.53 61.754 0.545 7.61 37.88 7.57
10/24/2020 12:15:00 AM 16.51 61.718 0.545 7.61 37.98 7.56
10/24/2020 12:30:00 AM 16.48 61.664 0.545 7.61 38 7.56
10/24/2020 12:45:00 AM 16.45 61.61 0.544 7.6 37.74 7.53
10/24/2020 1:00:00 AM 16.43 61.574 0.546 7.6 37.94 7.53
10/24/2020 1:15:00 AM 16.4 61.52 0.546 7.6 37.85 7.55
10/24/2020 1:30:00 AM 16.38 61.484 0.545 7.6 37.62 7.53
10/24/2020 1:45:00 AM 16.35 61.43 0.545 7.59 37.44 7.53
10/24/2020 2:00:00 AM 16.33 61.394 0.545 7.59 37.2 7.54
10/24/2020 2:15:00 AM 16.31 61.358 0.544 7.6 37.45 7.53
10/24/2020 2:30:00 AM 16.29 61.322 0.545 7.6 37.85 7.53
10/24/2020 2:45:00 AM 16.28 61.304 0.546 7.6 37.93 7.52
10/24/2020 3:00:00 AM 16.26 61.268 0.546 7.61 37.67 7.53
10/24/2020 3:15:00 AM 16.23 61.214 0.546 7.6 38.12 7.51
10/24/2020 3:30:00 AM 16.22 61.196 0.543 7.6 38.3 7.49
10/24/2020 3:45:00 AM 16.22 61.196 0.544 7.6 37.86 7.46
10/24/2020 4:00:00 AM 16.21 61.178 0.543 7.61 38.15 7.53
10/24/2020 4:15:00 AM 16.19 61.142 0.542 7.62 38.13 7.45
10/24/2020 4:30:00 AM 16.18 61.124 0.545 7.61 38.23 7.48
10/24/2020 4:45:00 AM 16.17 61.106 0.539 7.61 38.35 7.49
10/24/2020 5:00:00 AM 16.17 61.106 0.543 7.61 38.45 7.46
10/24/2020 5:15:00 AM 16.14 61.052 0.544 7.61 38.36 7.46
10/24/2020 5:30:00 AM 16.12 61.016 0.545 7.61 38.41 7.49
10/24/2020 5:45:00 AM 16.12 61.016 0.545 7.61 38.34 7.52
10/24/2020 6:00:00 AM 16.12 61.016 0.543 7.61 38.36 7.48
10/24/2020 6:15:00 AM 16.12 61.016 0.543 7.61 38.53 7.52
10/24/2020 6:30:00 AM 16.12 61.016 0.542 7.61 38.33 7.47
10/24/2020 6:45:00 AM 16.12 61.016 0.542 7.61 38.38 7.47
10/24/2020 7:00:00 AM 16.12 61.016 0.544 7.6 38.85 7.46
10/24/2020 7:15:00 AM 16.13 61.034 0.544 7.61 38.83 7.5
10/24/2020 7:30:00 AM 16.12 61.016 0.543 7.63 38.81 7.41
10/24/2020 7:45:00 AM 16.13 61.034 0.545 7.63 38.56 7.49
10/24/2020 8:00:00 AM 16.14 61.052 0.544 7.62 38.39 7.51
10/24/2020 8:15:00 AM 16.15 61.07 0.545 7.63 38.53 7.55
10/24/2020 8:30:00 AM 16.17 61.106 0.543 7.64 38.53 7.58
10/24/2020 8:45:00 AM 16.2 61.16 0.544 7.64 38.62 7.63
10/24/2020 9:00:00 AM 16.23 61.214 0.543 7.64 38.45 7.7
10/24/2020 9:15:00 AM 16.3 61.34 0.543 7.64 38.56 7.88
10/24/2020 9:30:00 AM 16.35 61.43 0.543 7.65 38.47 8.07
10/24/2020 9:45:00 AM 16.46 61.628 0.543 7.67 38.52 8.27
10/24/2020 10:00:00 AM 16.5 61.7 0.543 7.68 38.58 8.44
10/24/2020 10:15:00 AM 16.55 61.79 0.541 7.68 38.2 8.56
10/24/2020 10:30:00 AM 16.59 61.862 0.543 7.7 38.34 8.64
10/24/2020 10:45:00 AM 16.66 61.988 0.543 7.71 38.13 8.81
10/24/2020 11:00:00 AM 16.73 62.114 0.542 7.74 37.73 8.97
10/24/2020 11:15:00 AM 16.82 62.276 0.541 7.76 37.75 9.18
10/24/2020 11:30:00 AM 16.87 62.366 0.542 7.78 37.35 9.33
10/24/2020 11:45:00 AM 16.91 62.438 0.541 7.79 37.08 9.5
10/24/2020 12:00:00 PM 16.93 62.474 0.54 7.81 37.18 9.59
10/24/2020 12:15:00 PM 17.01 62.618 0.541 7.82 37.21 9.83
10/24/2020 12:30:00 PM 17.13 62.834 0.54 7.84 37.41 10.06
10/24/2020 12:45:00 PM 17.31 63.158 0.539 7.86 37.3 10.33
10/24/2020 1:00:00 PM 17.36 63.248 0.539 7.88 36.95 10.5
10/24/2020 1:15:00 PM 17.41 63.338 0.538 7.88 36.81 10.62
10/24/2020 1:30:00 PM 17.59 63.662 0.537 7.9 36.75 10.88
10/24/2020 1:45:00 PM 17.6 63.68 0.536 7.91 36.76 10.88
10/24/2020 2:00:00 PM 17.58 63.644 0.536 7.91 36.94 10.87
10/24/2020 2:15:00 PM 17.61 63.698 0.536 7.93 37.03 10.97
10/24/2020 2:30:00 PM 17.64 63.752 0.535 7.93 37.05 11.18
10/24/2020 2:45:00 PM 17.67 63.806 0.534 7.95 37.54 11.32
10/24/2020 3:00:00 PM 17.69 63.842 0.535 7.95 37.28 11.39
10/24/2020 3:15:00 PM 17.82 64.076 0.534 7.97 37.12 11.51
10/24/2020 3:30:00 PM 17.98 64.364 0.534 7.99 36.81 11.61
10/24/2020 3:45:00 PM 17.99 64.382 0.533 8 36.94 11.6
10/24/2020 4:00:00 PM 17.98 64.364 0.533 7.99 37.18 11.64
10/24/2020 4:15:00 PM 17.95 64.31 0.532 8 37.37 11.61
10/24/2020 4:30:00 PM 17.92 64.256 0.532 8 37.26 11.57
10/24/2020 4:45:00 PM 17.79 64.022 0.531 8 37.06 11.46
10/24/2020 5:00:00 PM 17.7 63.86 0.533 7.99 37.14 11.3
10/24/2020 5:15:00 PM 17.57 63.626 0.532 7.99 37.51 11.08
10/24/2020 5:30:00 PM 17.44 63.392 0.532 7.98 37.51 10.81
10/24/2020 5:45:00 PM 17.29 63.122 0.533 7.97 36.87 10.52
10/24/2020 6:00:00 PM 17.12 62.816 0.534 7.96 37.76 10.2
10/24/2020 6:15:00 PM 16.96 62.528 0.533 7.94 37.96 9.86
10/24/2020 6:30:00 PM 16.81 62.258 0.534 7.92 38.15 9.49
10/24/2020 6:45:00 PM 16.68 62.024 0.534 7.91 38.24 9.21
10/24/2020 7:00:00 PM 16.55 61.79 0.536 7.88 38.57 8.96
10/24/2020 7:15:00 PM 16.43 61.574 0.536 7.86 38.52 8.7
10/24/2020 7:30:00 PM 16.34 61.412 0.536 7.85 38.61 8.49
10/24/2020 7:45:00 PM 16.26 61.268 0.537 7.84 38.66 8.3
10/24/2020 8:00:00 PM 16.18 61.124 0.538 7.82 38.98 8.14
10/24/2020 8:15:00 PM 16.09 60.962 0.538 7.81 39.49 8.02
10/24/2020 8:30:00 PM 16.03 60.854 0.538 7.8 38.93 7.93
10/24/2020 8:45:00 PM 15.97 60.746 0.538 7.79 39.36 7.83
10/24/2020 9:00:00 PM 15.91 60.638 0.539 7.78 40.05 7.8
10/24/2020 9:15:00 PM 15.86 60.548 0.537 7.78 40.24 7.77
10/24/2020 9:30:00 PM 15.8 60.44 0.54 7.78 41.01 7.75
10/24/2020 9:45:00 PM 15.72 60.296 0.541 7.78 41.13 7.72
10/24/2020 10:00:00 PM 15.65 60.17 0.538 7.77 41.12 7.72
10/24/2020 10:15:00 PM 15.58 60.044 0.539 7.77 41.3 7.71
10/24/2020 10:30:00 PM 15.5 59.9 0.535 7.77 41.29 7.69
10/24/2020 10:45:00 PM 15.46 59.828 0.523 7.76 41.16 7.67
10/24/2020 11:00:00 PM 15.42 59.756 0.539 7.77 40.94 7.66
10/24/2020 11:15:00 PM 15.34 59.612 0.541 7.77 40.72 7.66
10/24/2020 11:30:00 PM 15.27 59.486 0.542 7.78 40.19 7.66
10/24/2020 11:45:00 PM 15.2 59.36 0.542 7.78 38.1 7.67
10/25/2020 12:00:00 AM 15.19 59.342 0.539 7.78 38.36 7.71
10/25/2020 12:15:00 AM 15.15 59.27 0.54 7.78 38.54 7.68
10/25/2020 12:30:00 AM 15.1 59.18 0.541 7.79 38.3 7.7
10/25/2020 12:45:00 AM 15.08 59.144 0.539 7.8 38.19 7.7
10/25/2020 1:00:00 AM 15.04 59.072 0.54 7.8 38.2 7.71
10/25/2020 1:15:00 AM 15.01 59.018 0.539 7.8 38.02 7.71
10/25/2020 1:30:00 AM 14.98 58.964 0.542 7.8 37.45 7.7
10/25/2020 1:45:00 AM 14.96 58.928 0.542 7.8 37.6 7.71
10/25/2020 2:00:00 AM 14.91 58.838 0.541 7.81 37.48 7.73
10/25/2020 2:15:00 AM 14.94 58.892 0.543 7.82 37.59 7.71
10/25/2020 2:30:00 AM 14.88 58.784 0.541 7.82 37.42 7.75
10/25/2020 2:45:00 AM 14.82 58.676 0.541 7.83 37.35 7.77
10/25/2020 3:00:00 AM 14.78 58.604 0.541 7.83 36.35 7.77
10/25/2020 3:15:00 AM 14.78 58.604 0.542 7.84 36.01 7.77
10/25/2020 3:30:00 AM 14.78 58.604 0.543 7.84 35.94 7.79
10/25/2020 3:45:00 AM 14.71 58.478 0.544 7.84 35.97 7.78
10/25/2020 4:00:00 AM 14.72 58.496 0.544 7.84 36 7.82
10/25/2020 4:15:00 AM 14.69 58.442 0.543 7.84 36.03 7.77
10/25/2020 4:30:00 AM 14.64 58.352 0.543 7.85 37.16 7.78
10/25/2020 4:45:00 AM 14.6 58.28 0.543 7.84 36.98 7.77
10/25/2020 5:00:00 AM 14.57 58.226 0.544 7.84 36.77 7.8
10/25/2020 5:15:00 AM 14.54 58.172 0.544 7.84 36.55 7.8
10/25/2020 5:30:00 AM 14.55 58.19 0.544 7.84 36.61 7.83
10/25/2020 5:45:00 AM 14.54 58.172 0.544 7.85 36.17 7.82
10/25/2020 6:00:00 AM 14.44 57.992 0.545 7.85 35.84 7.79
10/25/2020 6:15:00 AM 14.48 58.064 0.545 7.85 35.34 7.81
10/25/2020 6:30:00 AM 14.43 57.974 0.545 7.86 35.36 7.82
10/25/2020 6:45:00 AM 14.42 57.956 0.545 7.85 35.3 7.82
10/25/2020 7:00:00 AM 14.4 57.92 0.545 7.85 34.93 7.81
10/25/2020 7:15:00 AM 14.35 57.83 0.545 7.85 34.87 7.8
10/25/2020 7:30:00 AM 14.33 57.794 0.545 7.85 34.64 7.81
10/25/2020 7:45:00 AM 14.33 57.794 0.545 7.86 34.85 7.82
10/25/2020 8:00:00 AM 14.35 57.83 0.545 7.86 34.86 7.88
10/25/2020 8:15:00 AM 14.34 57.812 0.545 7.87 34.95 7.91
10/25/2020 8:30:00 AM 14.37 57.866 0.545 7.88 34.89 7.95
10/25/2020 8:45:00 AM 14.33 57.794 0.545 7.88 35.13 8.03
10/25/2020 9:00:00 AM 14.36 57.848 0.545 7.88 34.91 8.14
10/25/2020 9:15:00 AM 14.39 57.902 0.545 7.89 34.65 8.26
10/25/2020 9:30:00 AM 14.37 57.866 0.544 7.9 34.57 8.35
10/25/2020 9:45:00 AM 14.41 57.938 0.544 7.92 34.73 8.5
10/25/2020 10:00:00 AM 14.46 58.028 0.544 7.94 34.51 8.76
10/25/2020 10:15:00 AM 14.49 58.082 0.543 7.96 34.41 9.01
10/25/2020 10:30:00 AM 14.51 58.118 0.543 7.98 34.43 9.25
10/25/2020 10:45:00 AM 14.6 58.28 0.543 8 34.33 9.49
10/25/2020 11:00:00 AM 14.64 58.352 0.541 8.03 33.91 9.76
10/25/2020 11:15:00 AM 14.67 58.406 0.541 8.05 33.92 9.99
10/25/2020 11:30:00 AM 14.74 58.532 0.537 8.06 31.88 10.17
10/25/2020 11:45:00 AM 14.82 58.676 0.538 8.08 31.95 10.44
10/25/2020 12:00:00 PM 14.9 58.82 0.54 8.11 32 10.71
10/25/2020 12:15:00 PM 14.94 58.892 0.539 8.13 31.56 10.93
10/25/2020 12:30:00 PM 14.99 58.982 0.538 8.13 31.44 11.13
10/25/2020 12:45:00 PM 15.03 59.054 0.539 8.15 31.36 11.24
10/25/2020 1:00:00 PM 15.03 59.054 0.54 8.16 31.14 11.32
10/25/2020 1:15:00 PM 14.99 58.982 0.538 8.17 31.09 11.33
10/25/2020 1:30:00 PM 15.01 59.018 0.537 8.17 31.24 11.39
10/25/2020 1:45:00 PM 15.05 59.09 0.537 8.19 31.22 11.49
10/25/2020 2:00:00 PM 15.06 59.108 0.537 8.2 31.2 11.6
10/25/2020 2:15:00 PM 15.05 59.09 0.536 8.21 31.22 11.67
10/25/2020 2:30:00 PM 15.07 59.126 0.534 8.22 31.05 11.78
10/25/2020 2:45:00 PM 15.03 59.054 0.537 8.22 30.82 11.77
10/25/2020 3:00:00 PM 14.98 58.964 0.535 8.22 30.97 11.61
10/25/2020 3:15:00 PM 14.94 58.892 0.535 8.22 31.06 11.58
10/25/2020 3:30:00 PM 14.88 58.784 0.535 8.22 31.15 11.48
10/25/2020 3:45:00 PM 14.83 58.694 0.535 8.2 30.98 11.33
10/25/2020 4:00:00 PM 14.78 58.604 0.535 8.2 31.11 11.26
10/25/2020 4:15:00 PM 14.75 58.55 0.536 8.2 31.25 11.17
10/25/2020 4:30:00 PM 14.7 58.46 0.538 8.2 31.45 11.02
10/25/2020 4:45:00 PM 14.62 58.316 0.538 8.19 31.41 10.8
10/25/2020 5:00:00 PM 14.57 58.226 0.537 8.18 31.9 10.5
10/25/2020 5:15:00 PM 14.52 58.136 0.538 8.17 32.23 10.36
10/25/2020 5:30:00 PM 14.46 58.028 0.535 8.15 32.42 10.15
10/25/2020 5:45:00 PM 14.41 57.938 0.54 8.14 32.4 9.92
10/25/2020 6:00:00 PM 14.35 57.83 0.539 8.12 32.67 9.69
10/25/2020 6:15:00 PM 14.28 57.704 0.54 8.11 32.95 9.51
10/25/2020 6:30:00 PM 14.23 57.614 0.538 8.1 33.2 9.33
10/25/2020 6:45:00 PM 14.18 57.524 0.542 8.08 33.07 9.12
10/25/2020 7:00:00 PM 14.14 57.452 0.542 8.06 33.37 8.92
10/25/2020 7:15:00 PM 14.09 57.362 0.542 8.05 33.4 8.8
10/25/2020 7:30:00 PM 14.05 57.29 0.543 8.04 33.56 8.69
10/25/2020 7:45:00 PM 14.02 57.236 0.543 8.03 33.44 8.57
10/25/2020 8:00:00 PM 13.98 57.164 0.543 8.02 34.28 8.49
10/25/2020 8:15:00 PM 13.96 57.128 0.543 8.02 33.72 8.42
10/25/2020 8:30:00 PM 13.92 57.056 0.543 8.01 33.4 8.37
10/25/2020 8:45:00 PM 13.9 57.02 0.543 8.01 33.5 8.29
10/25/2020 9:00:00 PM 13.86 56.948 0.539 8.01 32.07 8.25
10/25/2020 9:15:00 PM 13.81 56.858 0.543 8 32.9 8.21
10/25/2020 9:30:00 PM 13.8 56.84 0.544 8 32.62 8.19
10/25/2020 9:45:00 PM 13.81 56.858 0.544 8 32.68 8.21
10/25/2020 10:00:00 PM 13.78 56.804 0.544 7.99 32.72 8.19
10/25/2020 10:15:00 PM 13.75 56.75 0.544 7.99 32.15 8.19
10/25/2020 10:30:00 PM 13.75 56.75 0.544 7.99 32.34 8.18
10/25/2020 10:45:00 PM 13.74 56.732 0.544 7.99 32.49 8.18
10/25/2020 11:00:00 PM 13.72 56.696 0.544 7.99 32.2 8.17
10/25/2020 11:15:00 PM 13.7 56.66 0.544 7.99 32.34 8.15
10/25/2020 11:30:00 PM 13.69 56.642 0.544 8 32.08 8.18
10/25/2020 11:45:00 PM 13.68 56.624 0.544 8 31.67 8.19
10/26/2020 12:00:00 AM 13.66 56.588 0.544 7.99 31.94 8.18
10/26/2020 12:15:00 AM 13.64 56.552 0.544 7.99 32.15 8.19
10/26/2020 12:30:00 AM 13.64 56.552 0.545 7.99 31.6 8.19
10/26/2020 12:45:00 AM 13.64 56.552 0.546 8 31.61 8.2
10/26/2020 1:00:00 AM 13.61 56.498 0.546 8 31.69 8.19
10/26/2020 1:15:00 AM 13.59 56.462 0.545 8 31.89 8.2
10/26/2020 1:30:00 AM 13.57 56.426 0.546 8 31.61 8.18
10/26/2020 1:45:00 AM 13.57 56.426 0.543 8.01 31.51 8.2
10/26/2020 2:00:00 AM 13.54 56.372 0.544 8.01 31.54 8.22
10/26/2020 2:15:00 AM 13.53 56.354 0.545 8.01 31.53 8.21
10/26/2020 2:30:00 AM 13.51 56.318 0.542 8.01 31.45 8.19
10/26/2020 2:45:00 AM 13.49 56.282 0.545 8.01 31.15 8.22
10/26/2020 3:00:00 AM 13.47 56.246 0.542 8.02 30.79 8.26
10/26/2020 3:15:00 AM 13.45 56.21 0.546 8.02 30.66 8.22
10/26/2020 3:30:00 AM 13.46 56.228 0.547 8.02 30.56 8.26
10/26/2020 3:45:00 AM 13.44 56.192 0.546 8.02 30.53 8.26
10/26/2020 4:00:00 AM 13.41 56.138 0.536 8.02 30.45 8.25
10/26/2020 4:15:00 AM 13.39 56.102 0.545 8.01 30.32 8.27
10/26/2020 4:30:00 AM 13.37 56.066 0.547 8.01 30.23 8.24
10/26/2020 4:45:00 AM 13.35 56.03 0.547 8.01 30.15 8.26
10/26/2020 5:00:00 AM 13.33 55.994 0.539 8.01 29.74 8.27
10/26/2020 5:15:00 AM 13.31 55.958 0.548 8 29.5 8.25
10/26/2020 5:30:00 AM 13.28 55.904 0.546 8 29.56 8.25
10/26/2020 5:45:00 AM 13.27 55.886 0.547 8 29.75 8.26
10/26/2020 6:00:00 AM 13.24 55.832 0.547 8 29.85 8.26
10/26/2020 6:15:00 AM 13.23 55.814 0.546 7.99 30.23 8.26
10/26/2020 6:30:00 AM 13.21 55.778 0.547 7.99 30.3 8.26
10/26/2020 6:45:00 AM 13.18 55.724 0.548 7.99 30.14 8.24
10/26/2020 7:00:00 AM 13.16 55.688 0.55 7.98 30.15 8.24
10/26/2020 7:15:00 AM 13.13 55.634 0.545 7.98 29.67 8.23
10/26/2020 7:30:00 AM 13.12 55.616 0.544 7.98 29.24 8.25
10/26/2020 7:45:00 AM 13.09 55.562 0.547 7.98 29.15 8.27
10/26/2020 8:00:00 AM 13.07 55.526 0.55 7.98 28.68 8.28
10/26/2020 8:15:00 AM 13.05 55.49 0.55 7.98 28.81 8.28
10/26/2020 8:30:00 AM 13.05 55.49 0.551 7.98 29.02 8.34
10/26/2020 8:45:00 AM 13.03 55.454 0.551 7.99 28.81 8.37
10/26/2020 9:00:00 AM 13.04 55.472 0.55 7.99 28.61 8.45
10/26/2020 9:15:00 AM 13.01 55.418 0.551 7.99 28.27 8.54
10/26/2020 9:30:00 AM 13.03 55.454 0.551 8 29.06 8.61
10/26/2020 9:45:00 AM 13.05 55.49 0.551 8.01 29.2 8.9
10/26/2020 10:00:00 AM 13.09 55.562 0.55 8.03 28.98 9.16
10/26/2020 10:15:00 AM 13.12 55.616 0.551 8.04 28.6 9.39
10/26/2020 10:30:00 AM 13.17 55.706 0.55 8.05 28.98 9.62
10/26/2020 10:45:00 AM 13.21 55.778 0.55 8.07 28.91 9.9
10/26/2020 11:00:00 AM 13.22 55.796 0.549 8.09 28.87 10.01
10/26/2020 11:15:00 AM 13.24 55.832 0.549 8.09 28.86 10.16
10/26/2020 11:30:00 AM 13.27 55.886 0.549 8.11 28.79 10.38
10/26/2020 11:45:00 AM 13.32 55.976 0.548 8.12 28.38 10.62
10/26/2020 12:00:00 PM 13.35 56.03 0.548 8.14 28.49 10.8
10/26/2020 12:15:00 PM 13.36 56.048 0.548 8.16 28.27 10.91
10/26/2020 12:30:00 PM 13.41 56.138 0.548 8.17 28.32 11.07
10/26/2020 12:45:00 PM 13.52 56.336 0.546 8.19 28.26 11.32
10/26/2020 1:00:00 PM 13.55 56.39 0.547 8.2 27.88 11.45
10/26/2020 1:15:00 PM 13.55 56.39 0.547 8.21 27.96 11.51
10/26/2020 1:30:00 PM 13.53 56.354 0.547 8.2 28.01 11.46
10/26/2020 1:45:00 PM 13.51 56.318 0.547 8.19 28.06 11.44
10/26/2020 2:00:00 PM 13.5 56.3 0.547 8.18 28.14 11.48
10/26/2020 2:15:00 PM 13.5 56.3 0.547 8.19 28 11.48
10/26/2020 2:30:00 PM 13.49 56.282 0.547 8.19 28.16 11.49
10/26/2020 2:45:00 PM 13.49 56.282 0.547 8.2 28.44 11.51
10/26/2020 3:00:00 PM 13.48 56.264 0.547 8.19 28.17 11.51
10/26/2020 3:15:00 PM 13.45 56.21 0.548 8.19 28.26 11.36
10/26/2020 3:30:00 PM 13.41 56.138 0.547 8.19 28.43 11.2
10/26/2020 3:45:00 PM 13.39 56.102 0.548 8.18 28.52 11.14
10/26/2020 4:00:00 PM 13.39 56.102 0.547 8.18 28.46 11.22
10/26/2020 4:15:00 PM 13.39 56.102 0.547 8.18 28.89 11.18
10/26/2020 4:30:00 PM 13.36 56.048 0.548 8.17 28.76 11.05
10/26/2020 4:45:00 PM 13.34 56.012 0.548 8.17 28.98 11.08
10/26/2020 5:00:00 PM 13.34 56.012 0.548 8.17 28.89 11.03
10/26/2020 5:15:00 PM 13.3 55.94 0.549 8.16 29.1 10.92
10/26/2020 5:30:00 PM 13.26 55.868 0.549 8.15 29.19 10.74
10/26/2020 5:45:00 PM 13.23 55.814 0.55 8.15 28.92 10.55
10/26/2020 6:00:00 PM 13.19 55.742 0.549 8.13 29.06 10.41
10/26/2020 6:15:00 PM 13.16 55.688 0.548 8.11 28.89 10.19
10/26/2020 6:30:00 PM 13.12 55.616 0.551 8.1 29.12 10
10/26/2020 6:45:00 PM 13.08 55.544 0.552 8.09 28.97 9.79
10/26/2020 7:00:00 PM 13.05 55.49 0.552 8.07 29.24 9.62
10/26/2020 7:15:00 PM 13.02 55.436 0.552 8.06 29.48 9.45
10/26/2020 7:30:00 PM 12.99 55.382 0.553 8.04 29.54 9.32
10/26/2020 7:45:00 PM 12.96 55.328 0.553 8.02 29.28 9.2
10/26/2020 8:00:00 PM 12.94 55.292 0.551 8.02 30.65 9.09
10/26/2020 8:15:00 PM 12.92 55.256 0.553 8.01 29.86 8.99
10/26/2020 8:30:00 PM 12.89 55.202 0.553 8 29.6 8.92
10/26/2020 8:45:00 PM 12.88 55.184 0.554 7.99 29.61 8.84
10/26/2020 9:00:00 PM 12.86 55.148 0.553 7.98 29.6 8.82
10/26/2020 9:15:00 PM 12.84 55.112 0.553 7.97 29.55 8.78
10/26/2020 9:30:00 PM 12.83 55.094 0.554 7.97 29.62 8.75
10/26/2020 9:45:00 PM 12.82 55.076 0.554 7.97 29.62 8.73
10/26/2020 10:00:00 PM 12.81 55.058 0.554 7.96 29.48 8.73
10/26/2020 10:15:00 PM 12.8 55.04 0.554 7.96 29.49 8.71
10/26/2020 10:30:00 PM 12.79 55.022 0.554 7.95 29.67 8.7
10/26/2020 10:45:00 PM 12.78 55.004 0.554 7.95 29.78 8.68
10/26/2020 11:00:00 PM 12.78 55.004 0.554 7.95 29.82 8.7
10/26/2020 11:15:00 PM 12.77 54.986 0.554 7.94 29.79 8.68
10/26/2020 11:30:00 PM 12.76 54.968 0.554 7.95 29.86 8.7
10/26/2020 11:45:00 PM 12.76 54.968 0.554 7.94 29.8 8.68
10/27/2020 12:00:00 AM 12.75 54.95 0.554 7.93 30.22 8.68
10/27/2020 12:15:00 AM 12.75 54.95 0.554 7.93 29.65 8.66
10/27/2020 12:30:00 AM 12.74 54.932 0.554 7.93 29.4 8.68
10/27/2020 12:45:00 AM 12.73 54.914 0.554 7.93 29.35 8.68
10/27/2020 1:00:00 AM 12.72 54.896 0.554 7.93 29.21 8.61
10/27/2020 1:15:00 AM 12.71 54.878 0.554 7.93 29.31 8.7
10/27/2020 1:30:00 AM 12.7 54.86 0.554 7.93 29.44 8.68
10/27/2020 1:45:00 AM 12.69 54.842 0.554 7.93 29.45 8.67
10/27/2020 2:00:00 AM 12.69 54.842 0.554 7.93 29.57 8.69
10/27/2020 2:15:00 AM 12.68 54.824 0.554 7.92 29.94 8.7
10/27/2020 2:30:00 AM 12.67 54.806 0.554 7.92 29.82 8.7
10/27/2020 2:45:00 AM 12.66 54.788 0.555 7.92 29.78 8.74
10/27/2020 3:00:00 AM 12.66 54.788 0.555 7.92 29.66 8.72
10/27/2020 3:15:00 AM 12.64 54.752 0.555 7.92 29.32 8.73
10/27/2020 3:30:00 AM 12.64 54.752 0.555 7.92 29.49 8.73
10/27/2020 3:45:00 AM 12.64 54.752 0.555 7.92 29.56 8.71
10/27/2020 4:00:00 AM 12.63 54.734 0.555 7.92 29.9 8.74
10/27/2020 4:15:00 AM 12.63 54.734 0.555 7.92 29.85 8.74
10/27/2020 4:30:00 AM 12.62 54.716 0.555 7.92 29.85 8.72
10/27/2020 4:45:00 AM 12.61 54.698 0.556 7.92 30.03 8.72
10/27/2020 5:00:00 AM 12.59 54.662 0.556 7.92 29.89 8.73
10/27/2020 5:15:00 AM 12.57 54.626 0.555 7.91 29.88 8.74
10/27/2020 5:30:00 AM 12.56 54.608 0.555 7.91 29.92 8.75
10/27/2020 5:45:00 AM 12.55 54.59 0.555 7.91 29.83 8.75
10/27/2020 6:00:00 AM 12.53 54.554 0.556 7.91 29.64 8.73
10/27/2020 6:15:00 AM 12.52 54.536 0.556 7.9 21.19 8.75
10/27/2020 6:30:00 AM 12.51 54.518 0.556 7.9 29.5 8.75
10/27/2020 6:45:00 AM 12.49 54.482 0.556 7.9 45.46 8.75
10/27/2020 7:00:00 AM 12.47 54.446 0.556 7.89 47.19 8.73
10/27/2020 7:15:00 AM 12.43 54.374 0.556 7.89 98.14 8.74
10/27/2020 7:30:00 AM 12.39 54.302 0.556 7.88 128.9 8.74
10/27/2020 7:45:00 AM 12.36 54.248 0.556 7.88 134.9 8.75
10/27/2020 8:00:00 AM 12.35 54.23 0.556 7.88 174.8 8.78
10/27/2020 8:15:00 AM 12.36 54.248 0.556 7.87 179.3 8.86
10/27/2020 8:30:00 AM 12.36 54.248 0.556 7.88 178.8 8.93
10/27/2020 8:45:00 AM 12.38 54.284 0.556 7.9 178.2 9.11
10/27/2020 9:00:00 AM 12.41 54.338 0.556 7.9 177.4 9.31
10/27/2020 9:15:00 AM 12.46 54.428 0.555 7.92 177.2 9.57
10/27/2020 9:30:00 AM 12.47 54.446 0.555 7.92 172.3 9.76
10/27/2020 9:45:00 AM 12.49 54.482 0.555 7.94 169.7 9.87
10/27/2020 10:00:00 AM 12.56 54.608 0.554 7.96 177.8 10.1
10/27/2020 10:15:00 AM 12.62 54.716 0.554 7.98 177 10.34
10/27/2020 10:30:00 AM 12.71 54.878 0.554 7.99 180.2 10.59
10/27/2020 10:45:00 AM 12.82 55.076 0.553 8 179.6 10.88
10/27/2020 11:00:00 AM 12.91 55.238 0.552 8.02 180.4 11.12
10/27/2020 11:15:00 AM 13.04 55.472 0.552 8.04 179.8 11.34
10/27/2020 11:30:00 AM 13.07 55.526 0.552 8.05 179.5 11.54
10/27/2020 11:45:00 AM 13.15 55.67 0.551 8.05 177.9 11.69
10/27/2020 12:00:00 PM 13.27 55.886 0.55 8.07 176.8 11.9
10/27/2020 12:15:00 PM 13.38 56.084 0.55 8.09 177.2 12.07
10/27/2020 12:30:00 PM 13.6 56.48 0.55 8.1 175.9 12.21
10/27/2020 12:45:00 PM 13.86 56.948 0.549 8.13 173.9 12.31
10/27/2020 1:00:00 PM 13.95 57.11 0.548 8.13 179.6 12.51
10/27/2020 1:15:00 PM 13.98 57.164 0.547 8.13 179 12.64
10/27/2020 1:30:00 PM 14.05 57.29 0.548 8.14 178.7 12.68
10/27/2020 1:45:00 PM 14.09 57.362 0.548 8.14 179.3 12.74
10/27/2020 2:00:00 PM 14.12 57.416 0.548 8.15 178.9 12.77
10/27/2020 2:15:00 PM 14.12 57.416 0.548 8.15 178.7 12.82
10/27/2020 2:30:00 PM 14.17 57.506 0.548 8.15 176.6 12.83
10/27/2020 2:45:00 PM 14.22 57.596 0.547 8.15 176 12.84
10/27/2020 3:00:00 PM 14.26 57.668 0.548 8.15 175.5 12.89
10/27/2020 3:15:00 PM 14.21 57.578 0.548 8.15 175.5 12.87
10/27/2020 3:30:00 PM 14.19 57.542 0.548 8.14 174.9 12.92
10/27/2020 3:45:00 PM 14.21 57.578 0.547 8.14 174.9 12.81
10/27/2020 4:00:00 PM 14.21 57.578 0.548 8.14 174.9 12.77
10/27/2020 4:15:00 PM 14.1 57.38 0.548 8.13 175.3 12.62
10/27/2020 4:30:00 PM 14.03 57.254 0.548 8.12 175.5 12.51
10/27/2020 4:45:00 PM 13.97 57.146 0.548 8.12 176.3 12.32
10/27/2020 5:00:00 PM 13.89 57.002 0.549 8.1 176.5 12.06
10/27/2020 5:15:00 PM 13.81 56.858 0.55 8.09 176.7 11.83
10/27/2020 5:30:00 PM 13.74 56.732 0.55 8.08 177.1 11.52
10/27/2020 5:45:00 PM 13.68 56.624 0.551 8.06 178.3 11.19
10/27/2020 6:00:00 PM 13.59 56.462 0.552 8.04 178.3 10.99
10/27/2020 6:15:00 PM 13.53 56.354 0.552 8.02 178.8 10.61
10/27/2020 6:30:00 PM 13.48 56.264 0.553 8.01 178.8 10.38
10/27/2020 6:45:00 PM 13.43 56.174 0.554 7.99 178.9 10.12
10/27/2020 7:00:00 PM 13.37 56.066 0.553 7.97 179.9 9.88
10/27/2020 7:15:00 PM 13.32 55.976 0.555 7.96 179.9 9.69
10/27/2020 7:30:00 PM 13.28 55.904 0.555 7.95 182 9.54
10/27/2020 7:45:00 PM 13.24 55.832 0.555 7.94 183.1 9.39
10/27/2020 8:00:00 PM 13.21 55.778 0.556 7.93 183.1 9.24
10/27/2020 8:15:00 PM 13.19 55.742 0.556 7.92 183.1 9.16
10/27/2020 8:30:00 PM 13.17 55.706 0.556 7.9 183.5 9.08
10/27/2020 8:45:00 PM 13.15 55.67 0.556 7.9 183.7 9.01
10/27/2020 9:00:00 PM 13.13 55.634 0.557 7.89 183.9 8.95
10/27/2020 9:15:00 PM 13.11 55.598 0.557 7.89 184.1 8.9
10/27/2020 9:30:00 PM 13.09 55.562 0.557 7.88 184.3 8.9
10/27/2020 9:45:00 PM 13.08 55.544 0.557 7.88 182.7 8.87
10/27/2020 10:00:00 PM 13.06 55.508 0.557 7.87 182.4 8.81
10/27/2020 10:15:00 PM 13.04 55.472 0.558 7.85 182.2 8.81
10/27/2020 10:30:00 PM 13.03 55.454 0.558 7.85 182.4 8.79
10/27/2020 10:45:00 PM 13.01 55.418 0.558 7.85 182.2 8.78
10/27/2020 11:00:00 PM 13 55.4 0.558 7.85 183.1 8.78
10/27/2020 11:15:00 PM 12.99 55.382 0.56 7.84 185.6 8.75
10/27/2020 11:30:00 PM 12.98 55.364 0.558 7.84 181.5 8.75
10/27/2020 11:45:00 PM 12.97 55.346 0.559 7.83 181.4 8.75
10/28/2020 12:00:00 AM 12.95 55.31 0.559 7.83 181 8.61
10/28/2020 12:15:00 AM 12.94 55.292 0.559 7.82 189.3 8.75
10/28/2020 12:30:00 AM 12.93 55.274 0.559 7.82 189.1 8.73
10/28/2020 12:45:00 AM 12.92 55.256 0.559 7.82 189 8.73
10/28/2020 1:00:00 AM 12.91 55.238 0.559 7.82 191.2 8.73
10/28/2020 1:15:00 AM 12.9 55.22 0.558 7.82 191 8.72
10/28/2020 1:30:00 AM 12.89 55.202 0.558 7.81 191 8.71
10/28/2020 1:45:00 AM 12.87 55.166 0.558 7.81 189.8 8.74
10/28/2020 2:00:00 AM 12.87 55.166 0.56 7.81 189.8 8.72
10/28/2020 2:15:00 AM 12.86 55.148 0.559 7.81 182.8 8.69
10/28/2020 2:30:00 AM 12.85 55.13 0.558 7.8 182.8 8.71
10/28/2020 2:45:00 AM 12.84 55.112 0.558 7.8 182.2 8.72
10/28/2020 3:00:00 AM 12.83 55.094 0.558 7.8 179.7 8.74
10/28/2020 3:15:00 AM 12.82 55.076 0.559 7.8 183.3 8.72
10/28/2020 3:30:00 AM 12.81 55.058 0.559 7.8 184 8.69
10/28/2020 3:45:00 AM 12.8 55.04 0.559 7.79 183.8 8.59
10/28/2020 4:00:00 AM 12.8 55.04 0.558 7.8 183.9 8.72
10/28/2020 4:15:00 AM 12.79 55.022 0.557 7.8 184 8.72
10/28/2020 4:30:00 AM 12.78 55.004 0.557 7.79 183.7 8.72
10/28/2020 4:45:00 AM 12.77 54.986 0.559 7.8 183.6 8.73
10/28/2020 5:00:00 AM 12.77 54.986 0.557 7.79 183.5 8.7
10/28/2020 5:15:00 AM 12.77 54.986 0.557 7.78 183.7 8.69
10/28/2020 5:30:00 AM 12.76 54.968 0.557 7.78 183.2 8.69
10/28/2020 5:45:00 AM 12.76 54.968 0.557 7.78 179.7 8.68
10/28/2020 6:00:00 AM 12.76 54.968 0.558 7.77 179.6 8.67
10/28/2020 6:15:00 AM 12.76 54.968 0.558 7.77 179.4 8.7
10/28/2020 6:30:00 AM 12.75 54.95 0.557 7.78 179.3 8.69
10/28/2020 6:45:00 AM 12.75 54.95 0.559 7.78 180.6 8.67
10/28/2020 7:00:00 AM 12.75 54.95 0.556 7.78 181.3 8.66
10/28/2020 7:15:00 AM 12.75 54.95 0.557 7.78 180.3 8.64
10/28/2020 7:30:00 AM 12.76 54.968 0.556 7.77 179.6 8.66
10/28/2020 7:45:00 AM 12.75 54.95 0.557 7.77 179.4 8.65
10/28/2020 8:00:00 AM 12.76 54.968 0.558 7.78 179.1 8.67
10/28/2020 8:15:00 AM 12.77 54.986 0.557 7.77 178.9 8.7
10/28/2020 8:30:00 AM 12.77 54.986 0.554 7.77 177.5 8.71
10/28/2020 8:45:00 AM 12.78 55.004 0.558 7.77 178 8.73
10/28/2020 9:00:00 AM 12.79 55.022 0.555 7.77 178.2 8.76
10/28/2020 9:15:00 AM 12.8 55.04 0.559 7.77 177.6 8.78
10/28/2020 9:30:00 AM 12.82 55.076 0.558 7.78 177.5 8.86
10/28/2020 9:45:00 AM 12.86 55.148 0.559 7.79 177.2 9.01
10/28/2020 10:00:00 AM 12.89 55.202 0.556 7.79 173 9.18
10/28/2020 10:15:00 AM 12.93 55.274 0.559 7.81 173 9.32
10/28/2020 10:30:00 AM 13 55.4 0.559 7.82 172.7 9.58
10/28/2020 10:45:00 AM 13.06 55.508 0.558 7.84 177.4 9.8
10/28/2020 11:00:00 AM 13.09 55.562 0.557 7.86 177 9.93
10/28/2020 11:15:00 AM 13.1 55.58 0.557 7.87 176.6 9.88
10/28/2020 11:30:00 AM 13.11 55.598 0.557 7.86 176.7 9.91
10/28/2020 11:45:00 AM 13.14 55.652 0.555 7.86 176.1 10.03
10/28/2020 12:00:00 PM 13.19 55.742 0.556 7.88 175.8 10.24
10/28/2020 12:15:00 PM 13.22 55.796 0.557 7.9 175.7 10.43
10/28/2020 12:30:00 PM 13.23 55.814 0.556 7.91 175.6 10.42
10/28/2020 12:45:00 PM 13.25 55.85 0.556 7.91 175.2 10.39
10/28/2020 1:00:00 PM 13.26 55.868 0.556 7.9 175.3 10.43
10/28/2020 1:15:00 PM 13.28 55.904 0.556 7.91 175.3 10.45
10/28/2020 1:30:00 PM 13.28 55.904 0.554 7.9 175.2 10.41
10/28/2020 1:45:00 PM 13.29 55.922 0.556 7.9 175.2 10.43
10/28/2020 2:00:00 PM 13.31 55.958 0.556 7.9 175.1 10.43
10/28/2020 2:15:00 PM 13.33 55.994 0.555 7.9 175 10.54
10/28/2020 2:30:00 PM 13.33 55.994 0.556 7.91 173 10.47
10/28/2020 2:45:00 PM 13.34 56.012 0.554 7.91 176.9 10.37
10/28/2020 3:00:00 PM 13.35 56.03 0.554 7.91 175.9 10.36
10/28/2020 3:15:00 PM 13.35 56.03 0.553 7.92 176.3 10.34
10/28/2020 3:30:00 PM 13.36 56.048 0.554 7.92 176 10.29
10/28/2020 3:45:00 PM 13.37 56.066 0.554 7.92 175.6 10.12
10/28/2020 4:00:00 PM 13.38 56.084 0.552 7.92 175.4 10.13
10/28/2020 4:15:00 PM 13.39 56.102 0.555 7.93 175.3 10.08
10/28/2020 4:30:00 PM 13.4 56.12 0.553 7.93 175 10.07
10/28/2020 4:45:00 PM 13.41 56.138 0.555 7.94 174.9 10.02
10/28/2020 5:00:00 PM 13.42 56.156 0.554 7.93 174.7 9.86
10/28/2020 5:15:00 PM 13.42 56.156 0.553 7.93 174.5 9.99
10/28/2020 5:30:00 PM 13.42 56.156 0.554 7.92 174.3 9.88
10/28/2020 5:45:00 PM 13.42 56.156 0.554 7.92 174.2 9.75
10/28/2020 6:00:00 PM 13.42 56.156 0.554 7.92 174 9.74
10/28/2020 6:15:00 PM 13.42 56.156 0.554 7.91 174.1 9.6
10/28/2020 6:30:00 PM 13.42 56.156 0.554 7.9 173.8 9.46
10/28/2020 6:45:00 PM 13.42 56.156 0.554 7.9 173.2 9.35
10/28/2020 7:00:00 PM 13.41 56.138 0.554 7.9 172.8 9.28
10/28/2020 7:15:00 PM 13.39 56.102 0.555 7.89 172.4 9.24
10/28/2020 7:30:00 PM 13.39 56.102 0.554 7.88 171.7 9.13
10/28/2020 7:45:00 PM 13.39 56.102 0.555 7.87 170.5 9.1
10/28/2020 8:00:00 PM 13.38 56.084 0.554 7.85 169.8 9.03
10/28/2020 8:15:00 PM 13.37 56.066 0.556 7.85 168.9 8.99
10/28/2020 8:30:00 PM 13.36 56.048 0.555 7.84 168.3 8.98
10/28/2020 8:45:00 PM 13.35 56.03 0.556 7.84 168.1 8.93
10/28/2020 9:00:00 PM 13.35 56.03 0.556 7.83 167.8 8.93
10/28/2020 9:15:00 PM 13.34 56.012 0.556 7.81 167.2 8.89
10/28/2020 9:30:00 PM 13.33 55.994 0.556 7.82 167.1 8.87
10/28/2020 9:45:00 PM 13.32 55.976 0.556 7.83 166.9 8.88
10/28/2020 10:00:00 PM 13.31 55.958 0.556 7.82 166.6 8.81
10/28/2020 10:15:00 PM 13.29 55.922 0.556 7.82 165.6 8.79
10/28/2020 10:30:00 PM 13.28 55.904 0.556 7.81 165.9 8.81
10/28/2020 10:45:00 PM 13.27 55.886 0.557 7.8 165.8 8.78
10/28/2020 11:00:00 PM 13.25 55.85 0.557 7.8 165.5 8.83
10/28/2020 11:15:00 PM 13.24 55.832 0.557 7.8 165.6 8.81
10/28/2020 11:30:00 PM 13.23 55.814 0.557 7.8 165.4 8.7
10/28/2020 11:45:00 PM 13.21 55.778 0.557 7.79 165.9 8.77
10/29/2020 12:00:00 AM 13.2 55.76 0.557 7.8 165.5 8.81
10/29/2020 12:15:00 AM 13.18 55.724 0.557 7.79 165.5 8.68
10/29/2020 12:30:00 AM 13.17 55.706 0.557 7.79 164.4 8.73
10/29/2020 12:45:00 AM 13.16 55.688 0.557 7.79 164.6 8.67
10/29/2020 1:00:00 AM 13.15 55.67 0.557 7.79 165.2 8.75
10/29/2020 1:15:00 AM 13.15 55.67 0.557 7.78 164.5 8.75
10/29/2020 1:30:00 AM 13.15 55.67 0.557 7.78 164.3 8.71
10/29/2020 1:45:00 AM 13.15 55.67 0.557 7.78 163.6 8.73
10/29/2020 2:00:00 AM 13.14 55.652 0.558 7.77 163.2 8.71
10/29/2020 2:15:00 AM 13.15 55.67 0.555 7.77 162.5 8.8
10/29/2020 2:30:00 AM 13.14 55.652 0.551 7.77 161.9 8.53
10/29/2020 2:45:00 AM 13.15 55.67 0.554 7.77 162.2 8.69
10/29/2020 3:00:00 AM 13.15 55.67 0.554 7.77 162.4 8.67
10/29/2020 3:15:00 AM 13.15 55.67 0.553 7.77 156.6 8.67
10/29/2020 3:30:00 AM 13.14 55.652 0.558 7.77 156.4 8.69
10/29/2020 3:45:00 AM 13.15 55.67 0.558 7.77 156.3 8.7
10/29/2020 4:00:00 AM 13.15 55.67 0.558 7.77 156.3 8.64
10/29/2020 4:15:00 AM 13.15 55.67 0.558 7.76 156 8.62
10/29/2020 4:30:00 AM 13.15 55.67 0.557 7.76 156 8.62
10/29/2020 4:45:00 AM 13.15 55.67 0.557 7.76 156 8.56
10/29/2020 5:00:00 AM 13.14 55.652 0.556 7.75 155.9 8.51
10/29/2020 5:15:00 AM 13.13 55.634 0.557 7.75 155.7 8.58
10/29/2020 5:30:00 AM 13.13 55.634 0.556 7.75 154.7 8.56
10/29/2020 5:45:00 AM 13.12 55.616 0.555 7.74 155.5 8.65
10/29/2020 6:00:00 AM 13.1 55.58 0.556 7.74 155.9 8.52
10/29/2020 6:15:00 AM 13.09 55.562 0.547 7.73 155.6 8.49
10/29/2020 6:30:00 AM 13.06 55.508 0.554 7.73 155.3 8.54
10/29/2020 6:45:00 AM 13.05 55.49 0.554 7.73 154.6 8.54
10/29/2020 7:00:00 AM 13.02 55.436 0.553 7.73 154.3 8.46
10/29/2020 7:15:00 AM 12.98 55.364 0.552 7.72 154.4 8.53
10/29/2020 7:30:00 AM 12.95 55.31 0.55 7.72 153.9 8.6
10/29/2020 7:45:00 AM 12.93 55.274 0.551 7.71 153.8 8.65
10/29/2020 8:00:00 AM 12.9 55.22 0.551 7.72 153.6 8.65
10/29/2020 8:15:00 AM 12.87 55.166 0.548 7.71 153.5 8.63
10/29/2020 8:30:00 AM 12.83 55.094 0.546 7.71 153.1 8.74
10/29/2020 8:45:00 AM 12.78 55.004 0.545 7.72 153.3 8.77
10/29/2020 9:00:00 AM 12.72 54.896 0.542 7.72 153.5 8.83
10/29/2020 9:15:00 AM 12.66 54.788 0.539 7.71 153 8.94
10/29/2020 9:30:00 AM 12.6 54.68 0.536 7.73 154.1 8.99
10/29/2020 9:45:00 AM 12.54 54.572 0.53 7.73 157.3 9.05
10/29/2020 10:00:00 AM 12.48 54.464 0.526 7.74 157.2 9.14
10/29/2020 10:15:00 AM 12.44 54.392 0.517 7.74 157.4 9.18
10/29/2020 10:30:00 AM 12.41 54.338 0.512 7.75 158 9.19
10/29/2020 10:45:00 AM 12.39 54.302 0.505 7.74 157.4 9.2
10/29/2020 11:00:00 AM 12.37 54.266 0.501 7.74 157.4 9.1
10/29/2020 11:15:00 AM 12.37 54.266 0.499 7.73 153.9 9.24
10/29/2020 11:30:00 AM 12.37 54.266 0.499 7.73 156.3 9.26
10/29/2020 11:45:00 AM 12.4 54.32 0.5 7.73 155.8 9.39
10/29/2020 12:00:00 PM 12.42 54.356 0.503 7.74 155.8 9.42
10/29/2020 12:15:00 PM 12.44 54.392 0.508 7.74 155.8 9.46
10/29/2020 12:30:00 PM 12.46 54.428 0.512 7.75 155.4 9.51
10/29/2020 12:45:00 PM 12.49 54.482 0.515 7.75 155 9.58
10/29/2020 1:00:00 PM 12.51 54.518 0.517 7.76 155.1 9.6
10/29/2020 1:15:00 PM 12.52 54.536 0.518 7.76 155.1 9.64
10/29/2020 1:30:00 PM 12.54 54.572 0.521 7.76 155.1 9.69
10/29/2020 1:45:00 PM 12.57 54.626 0.523 7.76 155.3 9.7
10/29/2020 2:00:00 PM 12.58 54.644 0.524 7.76 155.1 9.73
10/29/2020 2:15:00 PM 12.57 54.626 0.524 7.77 155.4 9.73
10/29/2020 2:30:00 PM 12.56 54.608 0.526 7.77 155.3 9.76
10/29/2020 2:45:00 PM 12.56 54.608 0.527 7.77 155.2 9.77
10/29/2020 3:00:00 PM 12.57 54.626 0.529 7.76 155.2 9.75
10/29/2020 3:15:00 PM 12.59 54.662 0.531 7.76 155.4 9.78
10/29/2020 3:30:00 PM 12.59 54.662 0.532 7.76 154.7 9.75
10/29/2020 3:45:00 PM 12.58 54.644 0.533 7.77 154.5 9.68
10/29/2020 4:00:00 PM 12.58 54.644 0.534 7.76 154.4 9.73
10/29/2020 4:15:00 PM 12.58 54.644 0.535 7.75 154.4 9.67
10/29/2020 4:30:00 PM 12.56 54.608 0.535 7.75 153.6 9.61
10/29/2020 4:45:00 PM 12.55 54.59 0.535 7.75 153.7 9.56
10/29/2020 5:00:00 PM 12.54 54.572 0.536 7.73 153.4 9.46
10/29/2020 5:15:00 PM 12.53 54.554 0.538 7.73 153.6 9.4
10/29/2020 5:30:00 PM 12.5 54.5 0.537 7.72 154.1 9.38
10/29/2020 5:45:00 PM 12.49 54.482 0.538 7.72 154.2 9.31
10/29/2020 6:00:00 PM 12.46 54.428 0.538 7.71 154.2 9.24
10/29/2020 6:15:00 PM 12.43 54.374 0.539 7.71 154.4 9.16
10/29/2020 6:30:00 PM 12.43 54.374 0.538 7.7 154.5 9.06
10/29/2020 6:45:00 PM 12.43 54.374 0.538 7.69 154.8 8.96
10/29/2020 7:00:00 PM 12.42 54.356 0.541 7.68 154.8 8.86
10/29/2020 7:15:00 PM 12.41 54.338 0.541 7.67 156.8 8.83
10/29/2020 7:30:00 PM 12.39 54.302 0.542 7.66 156 8.77
10/29/2020 7:45:00 PM 12.38 54.284 0.542 7.66 156.6 8.75
10/29/2020 8:00:00 PM 12.37 54.266 0.544 7.65 156.9 8.72
10/29/2020 8:15:00 PM 12.37 54.266 0.544 7.65 158.4 8.64
10/29/2020 8:30:00 PM 12.37 54.266 0.544 7.64 158.9 8.62
10/29/2020 8:45:00 PM 12.37 54.266 0.544 7.64 157.7 8.63
10/29/2020 9:00:00 PM 12.36 54.248 0.544 7.63 157.4 8.63
10/29/2020 9:15:00 PM 12.35 54.23 0.543 7.63 157.7 8.64
10/29/2020 9:30:00 PM 12.32 54.176 0.543 7.63 157.2 8.61
10/29/2020 9:45:00 PM 12.32 54.176 0.545 7.62 158.1 8.65
10/29/2020 10:00:00 PM 12.31 54.158 0.546 7.62 158.2 8.6
10/29/2020 10:15:00 PM 12.3 54.14 0.547 7.62 221.3 8.58
10/29/2020 10:30:00 PM 12.28 54.104 0.548 7.6 194.4 8.61
10/29/2020 10:45:00 PM 12.28 54.104 0.548 7.61 183.4 8.64
10/29/2020 11:00:00 PM 12.27 54.086 0.549 7.61 182.1 8.66
10/29/2020 11:15:00 PM 12.27 54.086 0.549 7.61 180.6 8.7
10/29/2020 11:30:00 PM 12.27 54.086 0.549 7.61 180.7 8.75
10/29/2020 11:45:00 PM 12.27 54.086 0.549 7.61 183.7 8.73
10/30/2020 12:00:00 AM 12.25 54.05 0.549 7.61 185.1 8.73
10/30/2020 12:15:00 AM 12.24 54.032 0.549 7.61 186 8.75
10/30/2020 12:30:00 AM 12.23 54.014 0.55 7.61 182.2 8.75
10/30/2020 12:45:00 AM 12.22 53.996 0.552 7.61 174.8 8.82
10/30/2020 1:00:00 AM 12.22 53.996 0.551 7.6 172.4 8.8
10/30/2020 1:15:00 AM 12.2 53.96 0.553 7.6 286.7 8.84
10/30/2020 1:30:00 AM 12.18 53.924 0.553 7.59 161.2 8.85
10/30/2020 1:45:00 AM 12.17 53.906 0.553 7.59 149.5 8.92
10/30/2020 2:00:00 AM 12.16 53.888 0.554 7.59 149.3 8.83
10/30/2020 2:15:00 AM 12.14 53.852 0.553 7.58 146.5 8.92
10/30/2020 2:30:00 AM 12.12 53.816 0.554 7.59 147.4 8.94
10/30/2020 2:45:00 AM 12.1 53.78 0.553 7.59 146.2 8.93
10/30/2020 3:00:00 AM 12.08 53.744 0.553 7.58 146.6 8.98
10/30/2020 3:15:00 AM 12.06 53.708 0.552 7.59 146.3 8.96
10/30/2020 3:30:00 AM 12.03 53.654 0.551 7.58 146 8.99
10/30/2020 3:45:00 AM 12.01 53.618 0.55 7.57 145.3 8.95
10/30/2020 4:00:00 AM 11.98 53.564 0.547 7.58 145.4 8.95
10/30/2020 4:15:00 AM 11.93 53.474 0.545 7.57 145.6 9.05
10/30/2020 4:30:00 AM 11.9 53.42 0.542 7.57 145.3 9.12
10/30/2020 4:45:00 AM 11.87 53.366 0.539 7.57 145 9.13
10/30/2020 5:00:00 AM 11.83 53.294 0.537 7.57 144.9 9.19
10/30/2020 5:15:00 AM 11.79 53.222 0.534 7.57 145.4 9.24
10/30/2020 5:30:00 AM 11.77 53.186 0.531 7.57 144.7 9.25
10/30/2020 5:45:00 AM 11.73 53.114 0.526 7.57 144.4 9.33
10/30/2020 6:00:00 AM 11.7 53.06 0.522 7.57 136 9.32
10/30/2020 6:15:00 AM 11.66 52.988 0.519 7.58 136 9.41
10/30/2020 6:30:00 AM 11.63 52.934 0.516 7.58 135.3 9.44
10/30/2020 6:45:00 AM 11.6 52.88 0.514 7.58 135.4 9.42
10/30/2020 7:00:00 AM 11.57 52.826 0.514 7.59 135.3 9.49
10/30/2020 7:15:00 AM 11.54 52.772 0.514 7.57 135 9.53
10/30/2020 7:30:00 AM 11.51 52.718 0.514 7.58 135 9.53
10/30/2020 7:45:00 AM 11.48 52.664 0.514 7.57 135 9.52
10/30/2020 8:00:00 AM 11.45 52.61 0.514 7.56 134.9 9.5
10/30/2020 8:15:00 AM 11.43 52.574 0.515 7.56 134 9.49
10/30/2020 8:30:00 AM 11.41 52.538 0.515 7.55 134.1 9.3
10/30/2020 8:45:00 AM 11.38 52.484 0.515 7.53 134.4 9.16
10/30/2020 9:00:00 AM 11.36 52.448 0.515 7.54 134.5 9.43
10/30/2020 9:15:00 AM 11.33 52.394 0.514 7.53 134.4 9.35
10/30/2020 9:30:00 AM 11.31 52.358 0.513 7.53 134.2 9.22
10/30/2020 9:45:00 AM 11.29 52.322 0.513 7.53 133.7 9.41
10/30/2020 10:00:00 AM 11.28 52.304 0.513 7.53 133.3 9.52
10/30/2020 10:15:00 AM 11.3 52.34 0.511 7.54 133 9.73
10/30/2020 10:30:00 AM 11.31 52.358 0.51 7.55 133.1 9.75
10/30/2020 10:45:00 AM 11.32 52.376 0.509 7.54 132.3 9.79
10/30/2020 11:00:00 AM 11.31 52.358 0.507 7.54 132.3 9.84
10/30/2020 11:15:00 AM 11.29 52.322 0.506 7.55 132.5 9.83
10/30/2020 11:30:00 AM 11.29 52.322 0.504 7.54 131.9 9.9
10/30/2020 11:45:00 AM 11.31 52.358 0.502 7.55 131.5 9.89
10/30/2020 12:00:00 PM 11.33 52.394 0.5 7.54 130.9 9.92
10/30/2020 12:15:00 PM 11.32 52.376 0.499 7.55 130.1 9.92
10/30/2020 12:30:00 PM 11.32 52.376 0.497 7.55 129.3 9.96
10/30/2020 12:45:00 PM 11.32 52.376 0.496 7.55 128.2 9.95
10/30/2020 1:00:00 PM 11.31 52.358 0.494 7.55 128.3 9.96
10/30/2020 1:15:00 PM 11.3 52.34 0.492 7.54 126.6 9.97
10/30/2020 1:30:00 PM 11.29 52.322 0.49 7.54 126.5 9.99
10/30/2020 1:45:00 PM 11.28 52.304 0.488 7.54 126.7 10
10/30/2020 2:00:00 PM 11.29 52.322 0.487 7.56 126.4 9.98
10/30/2020 2:15:00 PM 11.29 52.322 0.484 7.55 126.1 9.99
10/30/2020 2:30:00 PM 11.31 52.358 0.482 7.55 126.1 10
10/30/2020 2:45:00 PM 11.29 52.322 0.479 7.55 125.6 10.02
10/30/2020 3:00:00 PM 11.29 52.322 0.477 7.55 125.2 10
10/30/2020 3:15:00 PM 11.36 52.448 0.475 7.55 124.9 10.06
10/30/2020 3:30:00 PM 11.4 52.52 0.473 7.55 124.6 10.08
10/30/2020 3:45:00 PM 11.41 52.538 0.471 7.55 124.4 10.1
10/30/2020 4:00:00 PM 11.39 52.502 0.469 7.55 123.9 10.06
10/30/2020 4:15:00 PM 11.35 52.43 0.466 7.53 124 10.02
10/30/2020 4:30:00 PM 11.33 52.394 0.465 7.53 123.8 10.01
10/30/2020 4:45:00 PM 11.29 52.322 0.462 7.53 124 9.96
10/30/2020 5:00:00 PM 11.26 52.268 0.459 7.52 123.3 9.99
10/30/2020 5:15:00 PM 11.24 52.232 0.458 7.53 123 9.95
10/30/2020 5:30:00 PM 11.22 52.196 0.455 7.52 122.7 9.92
10/30/2020 5:45:00 PM 11.21 52.178 0.452 7.51 125 9.9
10/30/2020 6:00:00 PM 11.19 52.142 0.449 7.51 125.4 9.89
10/30/2020 6:15:00 PM 11.18 52.124 0.445 7.51 125.2 9.87
10/30/2020 6:30:00 PM 11.17 52.106 0.443 7.5 122.5 9.84
10/30/2020 6:45:00 PM 11.16 52.088 0.439 7.51 121.8 9.82
10/30/2020 7:00:00 PM 11.15 52.07 0.438 7.49 121.8 9.78
10/30/2020 7:15:00 PM 11.15 52.07 0.436 7.48 120.7 9.8
10/30/2020 7:30:00 PM 11.15 52.07 0.434 7.47 119.5 9.85
10/30/2020 7:45:00 PM 11.14 52.052 0.433 7.47 115.5 9.86
10/30/2020 8:00:00 PM 11.13 52.034 0.431 7.46 115.6 9.84
10/30/2020 8:15:00 PM 11.12 52.016 0.43 7.46 115.4 9.84
10/30/2020 8:30:00 PM 11.11 51.998 0.429 7.45 115.5 9.84
10/30/2020 8:45:00 PM 11.1 51.98 0.428 7.42 115.3 9.85
10/30/2020 9:00:00 PM 11.1 51.98 0.427 7.42 124.3 9.84
10/30/2020 9:15:00 PM 11.1 51.98 0.427 7.41 124.5 9.86
10/30/2020 9:30:00 PM 11.1 51.98 0.426 7.41 125.3 9.86
10/30/2020 9:45:00 PM 11.09 51.962 0.426 7.41 124.6 9.86
10/30/2020 10:00:00 PM 11.09 51.962 0.426 7.4 124.4 9.87
10/30/2020 10:15:00 PM 11.09 51.962 0.425 7.4 123.1 9.86
10/30/2020 10:30:00 PM 11.08 51.944 0.424 7.4 122.9 9.87
10/30/2020 10:45:00 PM 11.06 51.908 0.424 7.39 122.3 9.88
10/30/2020 11:00:00 PM 11.05 51.89 0.423 7.39 122.3 9.89
10/30/2020 11:15:00 PM 11.03 51.854 0.421 7.38 122.3 9.9
10/30/2020 11:30:00 PM 11.02 51.836 0.42 7.38 122.4 9.9
10/30/2020 11:45:00 PM 11 51.8 0.419 7.37 122.4 9.92
10/31/2020 12:00:00 AM 10.97 51.746 0.418 7.37 123.3 9.91
10/31/2020 12:15:00 AM 10.94 51.692 0.417 7.36 122.6 9.9
10/31/2020 12:30:00 AM 10.9 51.62 0.416 7.36 122.6 9.9
10/31/2020 12:45:00 AM 10.87 51.566 0.415 7.38 122.8 9.91
10/31/2020 1:00:00 AM 10.82 51.476 0.414 7.39 123.6 9.9
10/31/2020 1:15:00 AM 10.79 51.422 0.411 7.38 124.1 9.93
10/31/2020 1:30:00 AM 10.75 51.35 0.411 7.37 123.5 9.91
10/31/2020 1:45:00 AM 10.71 51.278 0.409 7.37 123.3 9.9
10/31/2020 2:00:00 AM 10.69 51.242 0.408 7.36 123.4 9.92
10/31/2020 2:15:00 AM 10.65 51.17 0.407 7.37 123.5 9.91
10/31/2020 2:30:00 AM 10.62 51.116 0.407 7.37 123.1 9.91
10/31/2020 2:45:00 AM 10.59 51.062 0.406 7.36 123.2 9.93
10/31/2020 3:00:00 AM 10.57 51.026 0.404 7.37 123.4 9.93
10/31/2020 3:15:00 AM 10.53 50.954 0.402 7.36 122.8 9.91
10/31/2020 3:30:00 AM 10.5 50.9 0.403 7.36 122.9 9.9
10/31/2020 3:45:00 AM 10.47 50.846 0.401 7.35 123.1 9.92
10/31/2020 4:00:00 AM 10.45 50.81 0.4 7.35 122.8 9.96
10/31/2020 4:15:00 AM 10.41 50.738 0.4 7.35 122.8 9.93
10/31/2020 4:30:00 AM 10.38 50.684 0.399 7.35 122.9 9.96
10/31/2020 4:45:00 AM 10.35 50.63 0.398 7.34 122.6 9.94
10/31/2020 5:00:00 AM 10.32 50.576 0.395 7.34 122.3 9.95
10/31/2020 5:15:00 AM 10.29 50.522 0.396 7.34 122.6 9.96
10/31/2020 5:30:00 AM 10.26 50.468 0.396 7.34 128.4 9.97
10/31/2020 5:45:00 AM 10.23 50.414 0.395 7.33 128.8 9.95
10/31/2020 6:00:00 AM 10.21 50.378 0.394 7.32 130 9.96
10/31/2020 6:15:00 AM 10.18 50.324 0.393 7.32 129.2 9.96
10/31/2020 6:30:00 AM 10.16 50.288 0.393 7.32 124.9 9.97
10/31/2020 6:45:00 AM 10.14 50.252 0.392 7.31 125.5 9.97
10/31/2020 7:00:00 AM 10.13 50.234 0.391 7.31 125.6 9.98
10/31/2020 7:15:00 AM 10.11 50.198 0.39 7.3 125.9 9.99
10/31/2020 7:30:00 AM 10.09 50.162 0.389 7.3 125.8 9.99
10/31/2020 7:45:00 AM 10.07 50.126 0.389 7.3 125.9 9.98
10/31/2020 8:00:00 AM 10.05 50.09 0.389 7.29 125.8 9.99
10/31/2020 8:15:00 AM 10.02 50.036 0.387 7.29 125.7 10
10/31/2020 8:30:00 AM 10 50 0.386 7.28 127 10.04
10/31/2020 8:45:00 AM 9.99 49.982 0.385 7.29 126.9 10.05
10/31/2020 9:00:00 AM 9.98 49.964 0.385 7.29 126.9 10.04
10/31/2020 9:15:00 AM 9.97 49.946 0.384 7.29 126.9 10.07
10/31/2020 9:30:00 AM 9.97 49.946 0.383 7.28 127.1 10.11
10/31/2020 9:45:00 AM 9.97 49.946 0.382 7.28 126.7 10.15
10/31/2020 10:00:00 AM 9.98 49.964 0.382 7.29 126 10.2
10/31/2020 10:15:00 AM 9.99 49.982 0.381 7.29 125.8 10.24
10/31/2020 10:30:00 AM 10.01 50.018 0.38 7.3 126 10.28
10/31/2020 10:45:00 AM 10.04 50.072 0.379 7.29 126 10.33
10/31/2020 11:00:00 AM 10.07 50.126 0.378 7.29 125.9 10.37
10/31/2020 11:15:00 AM 10.1 50.18 0.378 7.28 125.6 10.42
10/31/2020 11:30:00 AM 10.14 50.252 0.377 7.28 125.3 10.45
10/31/2020 11:45:00 AM 10.14 50.252 0.377 7.28 124.7 10.47
10/31/2020 12:00:00 PM 10.15 50.27 0.376 7.29 125.2 10.52
10/31/2020 12:15:00 PM 10.17 50.306 0.375 7.29 125 10.52
10/31/2020 12:30:00 PM 10.16 50.288 0.374 7.29 125 10.52
10/31/2020 12:45:00 PM 10.18 50.324 0.373 7.3 138 10.54
10/31/2020 1:00:00 PM 10.2 50.36 0.372 7.31 137.3 10.57
10/31/2020 1:15:00 PM 10.27 50.486 0.371 7.3 133.4 10.57
10/31/2020 1:30:00 PM 10.36 50.648 0.371 7.31 133 10.57
10/31/2020 1:45:00 PM 10.53 50.954 0.37 7.32 132.7 10.61
10/31/2020 2:00:00 PM 10.63 51.134 0.369 7.31 132.9 10.62
10/31/2020 2:15:00 PM 10.67 51.206 0.367 7.33 132.2 10.64
10/31/2020 2:30:00 PM 10.67 51.206 0.368 7.33 132.5 10.6
10/31/2020 2:45:00 PM 10.62 51.116 0.367 7.34 131.4 10.5
10/31/2020 3:00:00 PM 10.58 51.044 0.366 7.35 128.8 10.58
10/31/2020 3:15:00 PM 10.51 50.918 0.365 7.33 129.1 10.56
10/31/2020 3:30:00 PM 10.47 50.846 0.365 7.33 129.7 10.53
10/31/2020 3:45:00 PM 10.42 50.756 0.364 7.32 129.6 10.5
10/31/2020 4:00:00 PM 10.4 50.72 0.363 7.31 129.5 10.48
10/31/2020 4:15:00 PM 10.36 50.648 0.362 7.32 129.4 10.44
10/31/2020 4:30:00 PM 10.32 50.576 0.361 7.31 134.7 10.44
10/31/2020 4:45:00 PM 10.31 50.558 0.361 7.3 133.7 10.39
10/31/2020 5:00:00 PM 10.29 50.522 0.36 7.31 133.1 10.38
10/31/2020 5:15:00 PM 10.25 50.45 0.359 7.3 132.8 10.39
10/31/2020 5:30:00 PM 10.22 50.396 0.359 7.3 132.6 10.38
10/31/2020 5:45:00 PM 10.19 50.342 0.358 7.3 132.1 10.35
10/31/2020 6:00:00 PM 10.17 50.306 0.357 7.29 132 10.31
10/31/2020 6:15:00 PM 10.15 50.27 0.356 7.29 131.6 10.29
10/31/2020 6:30:00 PM 10.13 50.234 0.357 7.28 131.5 10.27
10/31/2020 6:45:00 PM 10.12 50.216 0.357 7.27 131.7 10.23
10/31/2020 7:00:00 PM 10.11 50.198 0.356 7.29 131.8 10.2
10/31/2020 7:15:00 PM 10.1 50.18 0.356 7.28 131.6 10.2
10/31/2020 7:30:00 PM 10.11 50.198 0.355 7.27 132 10.2
10/31/2020 7:45:00 PM 10.1 50.18 0.354 7.28 132 10.21
10/31/2020 8:00:00 PM 10.09 50.162 0.354 7.28 131.6 10.17
10/31/2020 8:15:00 PM 10.08 50.144 0.354 7.29 131.5 10.19
10/31/2020 8:30:00 PM 10.07 50.126 0.353 7.28 130.6 10.22
10/31/2020 8:45:00 PM 10.07 50.126 0.352 7.28 130.3 10.21
10/31/2020 9:00:00 PM 10.06 50.108 0.352 7.28 129 10.25
10/31/2020 9:15:00 PM 10.05 50.09 0.351 7.28 128.8 10.25
10/31/2020 9:30:00 PM 10.06 50.108 0.352 7.29 128.9 10.26
10/31/2020 9:45:00 PM 10.06 50.108 0.351 7.3 128.8 10.26
10/31/2020 10:00:00 PM 10.07 50.126 0.351 7.29 128.7 10.26
10/31/2020 10:15:00 PM 10.06 50.108 0.35 7.29 128.6 10.28
10/31/2020 10:30:00 PM 10.06 50.108 0.345 7.29 128.6 10.29
10/31/2020 10:45:00 PM 10.04 50.072 0.35 7.29 128.7 10.28
10/31/2020 11:00:00 PM 10.03 50.054 0.349 7.29 128.5 10.29
10/31/2020 11:15:00 PM 10.01 50.018 0.349 7.28 128.5 10.31
10/31/2020 11:30:00 PM 9.99 49.982 0.349 7.28 128.5 10.33
10/31/2020 11:45:00 PM 9.97 49.946 0.348 7.28 128.5 10.37
11/1/2020 12:00:00 AM 9.94 49.892 0.348 7.28 127.8 10.35
11/1/2020 12:15:00 AM 9.92 49.856 0.348 7.3 127.7 10.34
11/1/2020 12:30:00 AM 9.89 49.802 0.347 7.29 127.5 10.34
11/1/2020 12:45:00 AM 9.87 49.766 0.347 7.29 127.2 10.36
11/1/2020 1:00:00 AM 9.85 49.73 0.347 7.3 126.9 10.35
11/1/2020 1:15:00 AM 9.84 49.712 0.346 7.3 127 10.37
11/1/2020 1:30:00 AM 9.82 49.676 0.346 7.3 126.8 10.35
11/1/2020 1:45:00 AM 9.83 49.694 0.346 7.3 126.6 10.36
11/1/2020 2:00:00 AM 9.81 49.658 0.346 7.3 126.4 10.35
11/1/2020 2:15:00 AM 9.81 49.658 0.346 7.3 126.6 10.37
11/1/2020 2:30:00 AM 9.8 49.64 0.346 7.29 126.5 10.35
11/1/2020 2:45:00 AM 9.8 49.64 0.345 7.29 126 10.37
11/1/2020 3:00:00 AM 9.79 49.622 0.345 7.25 125.7 10.35
11/1/2020 3:15:00 AM 9.73 49.514 0.346 7.24 125.6 10.35
11/1/2020 3:30:00 AM 9.7 49.46 0.345 7.23 125.8 10.34
11/1/2020 3:45:00 AM 9.68 49.424 0.344 7.24 125.3 10.35
11/1/2020 4:00:00 AM 9.66 49.388 0.344 7.24 124.9 10.34
11/1/2020 4:15:00 AM 9.64 49.352 0.344 7.23 123.5 10.34
11/1/2020 4:30:00 AM 9.61 49.298 0.345 7.23 123.8 10.31
11/1/2020 4:45:00 AM 9.59 49.262 0.345 7.23 122 10.34
11/1/2020 5:00:00 AM 9.56 49.208 0.345 7.24 121.1 10.34
11/1/2020 5:15:00 AM 9.53 49.154 0.346 7.24 120.5 10.35
11/1/2020 5:30:00 AM 9.51 49.118 0.345 7.24 120.5 10.32
11/1/2020 5:45:00 AM 9.48 49.064 0.345 7.23 120 10.32
11/1/2020 6:00:00 AM 9.46 49.028 0.345 7.23 119.9 10.33
11/1/2020 6:15:00 AM 9.44 48.992 0.346 7.23 119.3 10.32
11/1/2020 6:30:00 AM 9.41 48.938 0.346 7.23 119.2 10.3
11/1/2020 6:45:00 AM 9.39 48.902 0.346 7.23 118.9 10.3
11/1/2020 7:00:00 AM 9.38 48.884 0.342 7.23 118.9 10.32
11/1/2020 7:15:00 AM 9.36 48.848 0.346 7.23 118.8 10.32
11/1/2020 7:30:00 AM 9.36 48.848 0.346 7.23 117 10.32
11/1/2020 7:45:00 AM 9.35 48.83 0.347 7.23 117.2 10.32
11/1/2020 8:00:00 AM 9.35 48.83 0.347 7.22 117.5 10.35
11/1/2020 8:15:00 AM 9.35 48.83 0.346 7.22 117.3 10.4
11/1/2020 8:30:00 AM 9.35 48.83 0.347 7.23 117.2 10.41
11/1/2020 8:45:00 AM 9.35 48.83 0.347 7.23 116.9 10.46
11/1/2020 9:00:00 AM 9.38 48.884 0.348 7.24 116.8 10.51
11/1/2020 9:15:00 AM 9.41 48.938 0.348 7.24 116.6 10.56
11/1/2020 9:30:00 AM 9.43 48.974 0.348 7.25 116.3 10.6
11/1/2020 9:45:00 AM 9.41 48.938 0.348 7.24 116.8 10.63
11/1/2020 10:00:00 AM 9.44 48.992 0.348 7.24 116.4 10.68
11/1/2020 10:15:00 AM 9.46 49.028 0.348 7.25 116.9 10.74
11/1/2020 10:30:00 AM 9.45 49.01 0.349 7.25 116.5 10.72
11/1/2020 10:45:00 AM 9.43 48.974 0.349 7.26 117 10.67
11/1/2020 11:00:00 AM 9.4 48.92 0.349 7.24 117.2 10.66
11/1/2020 11:15:00 AM 9.38 48.884 0.349 7.24 117.7 10.59
11/1/2020 11:30:00 AM 9.36 48.848 0.349 7.24 117.9 10.57
11/1/2020 11:45:00 AM 9.33 48.794 0.349 7.24 117.7 10.51
11/1/2020 12:00:00 PM 9.33 48.794 0.35 7.24 117.7 10.49
11/1/2020 12:15:00 PM 9.35 48.83 0.35 7.24 117.4 10.51
11/1/2020 12:30:00 PM 9.43 48.974 0.35 7.24 117.4 10.58
11/1/2020 12:45:00 PM 9.45 49.01 0.35 7.24 117.4 10.54
11/1/2020 1:00:00 PM 9.46 49.028 0.35 7.25 117.5 10.56
11/1/2020 1:15:00 PM 9.47 49.046 0.351 7.25 117.3 10.65
11/1/2020 1:30:00 PM 9.49 49.082 0.351 7.26 119.5 10.68
11/1/2020 1:45:00 PM 9.49 49.082 0.351 7.26 119.3 10.68
11/1/2020 2:00:00 PM 9.48 49.064 0.351 7.25 119.3 10.66
11/1/2020 2:15:00 PM 9.47 49.046 0.352 7.25 119 10.63
11/1/2020 2:30:00 PM 9.45 49.01 0.352 7.24 118.8 10.63
11/1/2020 2:45:00 PM 9.44 48.992 0.352 7.24 118.9 10.6
11/1/2020 3:00:00 PM 9.42 48.956 0.352 7.24 119.3 10.55
11/1/2020 3:15:00 PM 9.42 48.956 0.351 7.24 119.2 10.53
11/1/2020 3:30:00 PM 9.41 48.938 0.352 7.23 118.8 10.47
11/1/2020 3:45:00 PM 9.42 48.956 0.352 7.23 118.5 10.47
11/1/2020 4:00:00 PM 9.41 48.938 0.351 7.22 118.2 10.44
11/1/2020 4:15:00 PM 9.41 48.938 0.352 7.22 117.1 10.41
11/1/2020 4:30:00 PM 9.4 48.92 0.353 7.23 119.4 10.4
11/1/2020 4:45:00 PM 9.4 48.92 0.351 7.23 118.3 10.39
11/1/2020 5:00:00 PM 9.37 48.866 0.352 7.22 118.5 10.39
11/1/2020 5:15:00 PM 9.35 48.83 0.352 7.22 119.6 10.33
11/1/2020 5:30:00 PM 9.31 48.758 0.353 7.22 118.7 10.32
11/1/2020 5:45:00 PM 9.28 48.704 0.354 7.22 118.9 10.3
11/1/2020 6:00:00 PM 9.26 48.668 0.355 7.21 118.8 10.27
11/1/2020 6:15:00 PM 9.23 48.614 0.355 7.21 119.2 10.3
11/1/2020 6:30:00 PM 9.21 48.578 0.355 7.21 119.3 10.26
11/1/2020 6:45:00 PM 9.19 48.542 0.355 7.21 119 10.27
11/1/2020 7:00:00 PM 9.16 48.488 0.356 7.22 119.2 10.25
11/1/2020 7:15:00 PM 9.13 48.434 0.356 7.21 119.2 10.25
11/1/2020 7:30:00 PM 9.11 48.398 0.356 7.2 118.9 10.27
11/1/2020 7:45:00 PM 9.09 48.362 0.356 7.21 119.3 10.3
11/1/2020 8:00:00 PM 9.06 48.308 0.357 7.2 119 10.31
11/1/2020 8:15:00 PM 9.04 48.272 0.357 7.2 119.1 10.28
11/1/2020 8:30:00 PM 9.02 48.236 0.358 7.21 118.6 10.3
11/1/2020 8:45:00 PM 9.01 48.218 0.358 7.22 118.6 10.31
11/1/2020 9:00:00 PM 8.97 48.146 0.358 7.22 119 10.33
11/1/2020 9:15:00 PM 8.96 48.128 0.359 7.22 118.1 10.34
11/1/2020 9:30:00 PM 8.93 48.074 0.357 7.22 118.7 10.33
11/1/2020 9:45:00 PM 8.92 48.056 0.359 7.2 118.7 10.36
11/1/2020 10:00:00 PM 8.9 48.02 0.359 7.19 118.8 10.38
11/1/2020 10:15:00 PM 8.88 47.984 0.359 7.19 118.7 10.37
11/1/2020 10:30:00 PM 8.86 47.948 0.356 7.19 118.6 10.36
11/1/2020 10:45:00 PM 8.84 47.912 0.358 7.19 118.8 10.42
11/1/2020 11:00:00 PM 8.8 47.84 0.357 7.19 118.7 10.42
11/1/2020 11:15:00 PM 8.79 47.822 0.357 7.18 118.8 10.41
11/1/2020 11:30:00 PM 8.77 47.786 0.357 7.19 119 10.42
11/1/2020 11:45:00 PM 8.72 47.696 0.357 7.19 119 10.41
11/2/2020 12:00:00 AM 8.69 47.642 0.357 7.2 118.9 10.42
11/2/2020 12:15:00 AM 8.67 47.606 0.358 7.19 118.9 10.46
11/2/2020 12:30:00 AM 8.63 47.534 0.359 7.19 119 10.43
11/2/2020 12:45:00 AM 8.62 47.516 0.359 7.2 118.8 10.49
11/2/2020 1:00:00 AM 8.59 47.462 0.359 7.2 118.8 10.48
11/2/2020 1:15:00 AM 8.55 47.39 0.358 7.21 118.9 10.47
11/2/2020 1:30:00 AM 8.51 47.318 0.358 7.21 118.9 10.49
11/2/2020 1:45:00 AM 8.49 47.282 0.359 7.22 118.9 10.5
11/2/2020 2:00:00 AM 8.46 47.228 0.362 7.22 119.2 10.5
11/2/2020 2:15:00 AM 8.43 47.174 0.362 7.23 119.2 10.51
11/2/2020 2:30:00 AM 8.39 47.102 0.363 7.21 119.2 10.51
11/2/2020 2:45:00 AM 8.38 47.084 0.363 7.22 120.4 10.5
11/2/2020 3:00:00 AM 8.37 47.066 0.364 7.22 120.5 10.49
11/2/2020 3:15:00 AM 8.39 47.102 0.363 7.23 120.4 10.53
11/2/2020 3:30:00 AM 8.38 47.084 0.364 7.23 120.4 10.51
11/2/2020 3:45:00 AM 8.36 47.048 0.364 7.23 120.6 10.52
11/2/2020 4:00:00 AM 8.33 46.994 0.364 7.22 120.8 10.53
11/2/2020 4:15:00 AM 8.31 46.958 0.364 7.23 120 10.56
11/2/2020 4:30:00 AM 8.27 46.886 0.364 7.22 120 10.55
11/2/2020 4:45:00 AM 8.22 46.796 0.363 7.22 120.3 10.53
11/2/2020 5:00:00 AM 8.17 46.706 0.361 7.21 120.4 10.51
11/2/2020 5:15:00 AM 8.13 46.634 0.361 7.22 120.4 10.55
11/2/2020 5:30:00 AM 8.11 46.598 0.362 7.23 120.1 10.58
11/2/2020 5:45:00 AM 8.07 46.526 0.361 7.22 120.5 10.57
11/2/2020 6:00:00 AM 8.05 46.49 0.364 7.2 120.5 10.57
11/2/2020 6:15:00 AM 8.03 46.454 0.366 7.2 120.7 10.58
11/2/2020 6:30:00 AM 8.01 46.418 0.367 7.2 120.8 10.56
11/2/2020 6:45:00 AM 8 46.4 0.366 7.2 120.9 10.59
11/2/2020 7:00:00 AM 7.97 46.346 0.365 7.21 120.6 10.6
11/2/2020 7:15:00 AM 7.95 46.31 0.367 7.21 120.7 10.61
11/2/2020 7:30:00 AM 7.91 46.238 0.366 7.22 121.2 10.6
11/2/2020 7:45:00 AM 7.88 46.184 0.368 7.21 121.3 10.64
11/2/2020 8:00:00 AM 7.84 46.112 0.367 7.21 121.3 10.69
11/2/2020 8:15:00 AM 7.82 46.076 0.368 7.22 120.7 10.76
11/2/2020 8:30:00 AM 7.79 46.022 0.369 7.22 120.9 10.8
11/2/2020 8:45:00 AM 7.76 45.968 0.368 7.23 120.7 10.89
11/2/2020 9:00:00 AM 7.73 45.914 0.369 7.23 120.9 10.95
11/2/2020 9:15:00 AM 7.71 45.878 0.369 7.23 120.8 11.04
11/2/2020 9:30:00 AM 7.7 45.86 0.37 7.25 121.1 11.1
11/2/2020 9:45:00 AM 7.68 45.824 0.37 7.25 121.1 11.17
11/2/2020 10:00:00 AM 7.71 45.878 0.37 7.26 121.1 11.24
11/2/2020 10:15:00 AM 7.76 45.968 0.371 7.27 120.9 11.31
11/2/2020 10:30:00 AM 7.83 46.094 0.372 7.29 121 11.37
11/2/2020 10:45:00 AM 7.9 46.22 0.372 7.3 120.5 11.39
11/2/2020 11:00:00 AM 8 46.4 0.372 7.31 120.2 11.45
11/2/2020 11:15:00 AM 8.04 46.472 0.372 7.32 120.4 11.49
11/2/2020 11:30:00 AM 8.09 46.562 0.372 7.33 120.4 11.5
11/2/2020 11:45:00 AM 8.12 46.616 0.372 7.34 120.5 11.56
11/2/2020 12:00:00 PM 8.15 46.67 0.372 7.34 120.4 11.59
11/2/2020 12:15:00 PM 8.18 46.724 0.372 7.35 120.2 11.59
11/2/2020 12:30:00 PM 8.22 46.796 0.372 7.35 120.1 11.62
11/2/2020 12:45:00 PM 8.2 46.76 0.372 7.34 120.2 11.66
11/2/2020 1:00:00 PM 8.26 46.868 0.371 7.35 120 11.63
11/2/2020 1:15:00 PM 8.18 46.724 0.371 7.34 118.7 11.64
11/2/2020 1:30:00 PM 8.15 46.67 0.371 7.35 118.8 11.66
11/2/2020 1:45:00 PM 8.22 46.796 0.371 7.36 118.7 11.7
11/2/2020 2:00:00 PM 8.26 46.868 0.371 7.37 118.6 11.69
11/2/2020 2:15:00 PM 8.34 47.012 0.371 7.38 118.5 11.72
11/2/2020 2:30:00 PM 8.41 47.138 0.372 7.39 118.6 11.75
11/2/2020 2:45:00 PM 8.41 47.138 0.372 7.39 118.6 11.76
11/2/2020 3:00:00 PM 8.39 47.102 0.372 7.39 119 11.75
11/2/2020 3:15:00 PM 8.31 46.958 0.372 7.38 118.9 11.73
11/2/2020 3:30:00 PM 8.21 46.778 0.373 7.37 118.9 11.71
11/2/2020 3:45:00 PM 8.09 46.562 0.373 7.37 119.3 11.67
11/2/2020 4:00:00 PM 7.97 46.346 0.372 7.36 119.1 11.61
11/2/2020 4:15:00 PM 7.85 46.13 0.371 7.34 119.5 11.59
11/2/2020 4:30:00 PM 7.74 45.932 0.371 7.34 119.3 11.53
11/2/2020 4:45:00 PM 7.66 45.788 0.371 7.33 119.9 11.47
11/2/2020 5:00:00 PM 7.57 45.626 0.371 7.32 120 11.41
11/2/2020 5:15:00 PM 7.48 45.464 0.374 7.32 120.5 11.32
11/2/2020 5:30:00 PM 7.42 45.356 0.374 7.31 119.6 11.25
11/2/2020 5:45:00 PM 7.37 45.266 0.375 7.31 119.5 11.21
11/2/2020 6:00:00 PM 7.33 45.194 0.375 7.3 119.8 11.16
11/2/2020 6:15:00 PM 7.29 45.122 0.374 7.29 119.6 11.14
11/2/2020 6:30:00 PM 7.26 45.068 0.375 7.28 119.8 11.08
11/2/2020 6:45:00 PM 7.22 44.996 0.374 7.27 119.4 11.1
11/2/2020 7:00:00 PM 7.19 44.942 0.374 7.27 119.5 11.08
11/2/2020 7:15:00 PM 7.16 44.888 0.374 7.27 119.2 11.09
11/2/2020 7:30:00 PM 7.12 44.816 0.373 7.26 119.3 11.1
11/2/2020 7:45:00 PM 7.09 44.762 0.37 7.26 118.6 11.11
11/2/2020 8:00:00 PM 7.07 44.726 0.371 7.26 118.5 11.11
11/2/2020 8:15:00 PM 7.05 44.69 0.374 7.26 118.4 11.1
11/2/2020 8:30:00 PM 7.02 44.636 0.375 7.26 118.4 11.12
11/2/2020 8:45:00 PM 7 44.6 0.375 7.26 118.5 11.13
11/2/2020 9:00:00 PM 6.97 44.546 0.375 7.25 119 11.15
11/2/2020 9:15:00 PM 6.94 44.492 0.375 7.25 118.5 11.16
11/2/2020 9:30:00 PM 6.92 44.456 0.375 7.25 118.5 11.16
11/2/2020 9:45:00 PM 6.9 44.42 0.376 7.25 118.3 11.17
11/2/2020 10:00:00 PM 6.87 44.366 0.377 7.24 119.2 11.19
11/2/2020 10:15:00 PM 6.85 44.33 0.377 7.25 119.4 11.2
11/2/2020 10:30:00 PM 6.83 44.294 0.378 7.25 119.6 11.19
11/2/2020 10:45:00 PM 6.82 44.276 0.378 7.25 119.8 11.22
11/2/2020 11:00:00 PM 6.81 44.258 0.378 7.25 119.8 11.24
11/2/2020 11:15:00 PM 6.8 44.24 0.378 7.25 119.8 11.23
11/2/2020 11:30:00 PM 6.79 44.222 0.378 7.25 119.7 11.2
11/2/2020 11:45:00 PM 6.79 44.222 0.378 7.26 119.8 11.23
11/3/2020 12:00:00 AM 6.79 44.222 0.378 7.26 119.4 11.26
11/3/2020 12:15:00 AM 6.79 44.222 0.379 7.26 119.4 11.28
11/3/2020 12:30:00 AM 6.79 44.222 0.379 7.27 119.1 11.29
11/3/2020 12:45:00 AM 6.8 44.24 0.38 7.27 118.6 11.29
11/3/2020 1:00:00 AM 6.8 44.24 0.379 7.27 118.8 11.31
11/3/2020 1:15:00 AM 6.79 44.222 0.379 7.28 118.7 11.31
11/3/2020 1:30:00 AM 6.78 44.204 0.38 7.28 118.9 11.32
11/3/2020 1:45:00 AM 6.77 44.186 0.38 7.28 118.8 11.34
11/3/2020 2:00:00 AM 6.76 44.168 0.38 7.28 118.5 11.34
11/3/2020 2:15:00 AM 6.75 44.15 0.379 7.29 118.5 11.34
11/3/2020 2:30:00 AM 6.75 44.15 0.379 7.29 118.4 11.35
11/3/2020 2:45:00 AM 6.75 44.15 0.381 7.3 118.2 11.36
11/3/2020 3:00:00 AM 6.75 44.15 0.38 7.29 118.3 11.36
11/3/2020 3:15:00 AM 6.75 44.15 0.38 7.3 118.1 11.38
11/3/2020 3:30:00 AM 6.75 44.15 0.38 7.31 118.1 11.38
11/3/2020 3:45:00 AM 6.74 44.132 0.381 7.3 118.2 11.39
11/3/2020 4:00:00 AM 6.74 44.132 0.381 7.31 118.1 11.38
11/3/2020 4:15:00 AM 6.74 44.132 0.382 7.31 118 11.38
11/3/2020 4:30:00 AM 6.75 44.15 0.381 7.32 117.9 11.38
11/3/2020 4:45:00 AM 6.74 44.132 0.378 7.32 117.9 11.39
11/3/2020 5:00:00 AM 6.73 44.114 0.382 7.31 118.1 11.39
11/3/2020 5:15:00 AM 6.71 44.078 0.382 7.31 118.3 11.39
11/3/2020 5:30:00 AM 6.68 44.024 0.383 7.31 118.3 11.4
11/3/2020 5:45:00 AM 6.66 43.988 0.383 7.31 118.6 11.41
11/3/2020 6:00:00 AM 6.63 43.934 0.384 7.31 118.3 11.42
11/3/2020 6:15:00 AM 6.6 43.88 0.382 7.31 118.2 11.4
11/3/2020 6:30:00 AM 6.58 43.844 0.382 7.31 118.2 11.41
11/3/2020 6:45:00 AM 6.56 43.808 0.379 7.32 118.4 11.42
11/3/2020 7:00:00 AM 6.56 43.808 0.383 7.32 118.6 11.42
11/3/2020 7:15:00 AM 6.55 43.79 0.381 7.31 118.4 11.44
11/3/2020 7:30:00 AM 6.55 43.79 0.383 7.32 118.3 11.48
11/3/2020 7:45:00 AM 6.55 43.79 0.383 7.31 118.2 11.5
11/3/2020 8:00:00 AM 6.56 43.808 0.38 7.32 118.6 11.5
11/3/2020 8:15:00 AM 6.58 43.844 0.379 7.32 118.3 11.59
11/3/2020 8:30:00 AM 6.58 43.844 0.384 7.32 118.3 11.65
11/3/2020 8:45:00 AM 6.6 43.88 0.374 7.32 118.2 11.73
11/3/2020 9:00:00 AM 6.63 43.934 0.367 7.32 118.4 11.8
11/3/2020 9:15:00 AM 6.65 43.97 0.38 7.33 117.9 11.86
11/3/2020 9:30:00 AM 6.68 44.024 0.38 7.34 117.7 11.93
11/3/2020 9:45:00 AM 6.72 44.096 0.378 7.35 117.6 11.97
11/3/2020 10:00:00 AM 6.76 44.168 0.378 7.35 117.5 12.02
11/3/2020 10:15:00 AM 6.84 44.312 0.379 7.36 116.8 12.07
11/3/2020 10:30:00 AM 6.94 44.492 0.379 7.37 116.6 12.14
11/3/2020 10:45:00 AM 7.06 44.708 0.335 7.39 116.3 12.16
11/3/2020 11:00:00 AM 7.2 44.96 0.33 7.4 115.8 12.2
11/3/2020 11:15:00 AM 7.35 45.23 0.347 7.41 115.5 12.26
11/3/2020 11:30:00 AM 7.52 45.536 0.333 7.43 115.3 12.3
11/3/2020 11:45:00 AM 7.69 45.842 0.345 7.44 114.7 12.32
11/3/2020 12:00:00 PM 7.85 46.13 0.365 7.45 114.1 12.35
11/3/2020 12:15:00 PM 8.01 46.418 0.344 7.46 113.6 12.36
11/3/2020 12:30:00 PM 8.16 46.688 0.371 7.46 113.3 12.37
11/3/2020 12:45:00 PM 8.27 46.886 0.383 7.47 113.2 12.35
11/3/2020 1:00:00 PM 8.39 47.102 0.386 7.47 112.7 12.39
11/3/2020 1:15:00 PM 8.48 47.264 0.345 7.48 112.3 12.38
11/3/2020 1:30:00 PM 8.56 47.408 0.343 7.47 112.1 12.39
11/3/2020 1:45:00 PM 8.59 47.462 0.367 7.46 111.7 12.38
11/3/2020 2:00:00 PM 8.65 47.57 0.333 7.46 111.5 12.36
11/3/2020 2:15:00 PM 8.66 47.588 0.34 7.46 111.5 12.34
11/3/2020 2:30:00 PM 8.64 47.552 0.33 7.45 111.5 12.33
11/3/2020 2:45:00 PM 8.57 47.426 0.33 7.44 112.4 12.31
11/3/2020 3:00:00 PM 8.49 47.282 0.333 7.43 112.2 12.27
11/3/2020 3:15:00 PM 8.33 46.994 0.361 7.42 112.5 12.23
11/3/2020 3:30:00 PM 8.24 46.832 0.386 7.41 112.9 12.16
11/3/2020 3:45:00 PM 8.12 46.616 0.374 7.4 113.2 12.12
11/3/2020 4:00:00 PM 7.99 46.382 0.391 7.38 113.1 12.05
11/3/2020 4:15:00 PM 7.86 46.148 0.385 7.39 113.6 11.95
11/3/2020 4:30:00 PM 7.75 45.95 0.34 7.37 114 11.89
11/3/2020 4:45:00 PM 7.65 45.77 0.341 7.36 113.9 11.8
11/3/2020 5:00:00 PM 7.54 45.572 0.348 7.35 114.6 11.73
11/3/2020 5:15:00 PM 7.46 45.428 0.33 7.34 114 11.62
11/3/2020 5:30:00 PM 7.4 45.32 0.394 7.33 114.4 11.54
11/3/2020 5:45:00 PM 7.33 45.194 0.395 7.31 114.8 11.45
11/3/2020 6:00:00 PM 7.26 45.068 0.387 7.3 114.5 11.41
11/3/2020 6:15:00 PM 7.22 44.996 0.396 7.3 114.9 11.34
11/3/2020 6:30:00 PM 7.17 44.906 0.396 7.29 114.7 11.3
11/3/2020 6:45:00 PM 7.14 44.852 0.356 7.28 114.8 11.28
11/3/2020 7:00:00 PM 7.1 44.78 0.397 7.27 114.8 11.24
11/3/2020 7:15:00 PM 7.08 44.744 0.384 7.27 115.3 11.25
11/3/2020 7:30:00 PM 7.04 44.672 0.397 7.26 115.4 11.24
11/3/2020 7:45:00 PM 7.02 44.636 0.377 7.26 115.5 11.24
11/3/2020 8:00:00 PM 7 44.6 0.398 7.26 115 11.23
11/3/2020 8:15:00 PM 6.97 44.546 0.397 7.26 115.3 11.25
11/3/2020 8:30:00 PM 6.95 44.51 0.398 7.26 115.2 11.24
11/3/2020 8:45:00 PM 6.94 44.492 0.399 7.26 115.4 11.26
11/3/2020 9:00:00 PM 6.92 44.456 0.399 7.26 115.4 11.25
11/3/2020 9:15:00 PM 6.91 44.438 0.399 7.25 115.9 11.27
11/3/2020 9:30:00 PM 6.9 44.42 0.4 7.24 116 11.25
11/3/2020 9:45:00 PM 6.88 44.384 0.395 7.25 116.2 11.28
11/3/2020 10:00:00 PM 6.86 44.348 0.392 7.25 116.2 11.3
11/3/2020 10:15:00 PM 6.84 44.312 0.401 7.25 116.4 11.28
11/3/2020 10:30:00 PM 6.83 44.294 0.393 7.25 116.1 11.3
11/3/2020 10:45:00 PM 6.81 44.258 0.402 7.25 116.2 11.3
11/3/2020 11:00:00 PM 6.81 44.258 0.4 7.25 116.3 11.31
11/3/2020 11:15:00 PM 6.79 44.222 0.401 7.25 116 11.3
11/3/2020 11:30:00 PM 6.78 44.204 0.402 7.25 116.2 11.31
11/3/2020 11:45:00 PM 6.77 44.186 0.402 7.25 116 11.33
11/4/2020 12:00:00 AM 6.76 44.168 0.402 7.26 116.2 11.35
11/4/2020 12:15:00 AM 6.75 44.15 0.402 7.26 115.6 11.36
11/4/2020 12:30:00 AM 6.75 44.15 0.402 7.26 116.1 11.36
11/4/2020 12:45:00 AM 6.74 44.132 0.402 7.26 116.2 11.39
11/4/2020 1:00:00 AM 6.73 44.114 0.403 7.25 116.1 11.39
11/4/2020 1:15:00 AM 6.72 44.096 0.404 7.25 116.2 11.4
11/4/2020 1:30:00 AM 6.73 44.114 0.405 7.26 116.1 11.41
11/4/2020 1:45:00 AM 6.73 44.114 0.405 7.25 116 11.42
11/4/2020 2:00:00 AM 6.74 44.132 0.405 7.26 115.6 11.4
11/4/2020 2:15:00 AM 6.76 44.168 0.406 7.26 115.2 11.4
11/4/2020 2:30:00 AM 6.77 44.186 0.406 7.26 114.6 11.42
11/4/2020 2:45:00 AM 6.78 44.204 0.406 7.27 113.2 11.43
11/4/2020 3:00:00 AM 6.79 44.222 0.406 7.27 113.3 11.44
11/4/2020 3:15:00 AM 6.8 44.24 0.406 7.27 114.1 11.46
11/4/2020 3:30:00 AM 6.81 44.258 0.407 7.28 113.9 11.45
11/4/2020 3:45:00 AM 6.83 44.294 0.407 7.27 114.1 11.46
11/4/2020 4:00:00 AM 6.84 44.312 0.406 7.28 113.9 11.46
11/4/2020 4:15:00 AM 6.85 44.33 0.407 7.28 113.9 11.46
11/4/2020 4:30:00 AM 6.85 44.33 0.407 7.27 113.4 11.47
11/4/2020 4:45:00 AM 6.87 44.366 0.407 7.29 113.6 11.49
11/4/2020 5:00:00 AM 6.88 44.384 0.407 7.28 113.4 11.48
11/4/2020 5:15:00 AM 6.88 44.384 0.407 7.28 113.4 11.47
11/4/2020 5:30:00 AM 6.88 44.384 0.406 7.29 113.6 11.46
11/4/2020 5:45:00 AM 6.9 44.42 0.368 7.28 113.3 11.47
11/4/2020 6:00:00 AM 6.89 44.402 0.383 7.28 113.4 11.48
11/4/2020 6:15:00 AM 6.89 44.402 0.385 7.29 113.4 11.48
11/4/2020 6:30:00 AM 6.88 44.384 0.407 7.29 112.8 11.47
11/4/2020 6:45:00 AM 6.87 44.366 0.407 7.3 113.3 11.48
11/4/2020 7:00:00 AM 6.87 44.366 0.407 7.29 113.1 11.5
11/4/2020 7:15:00 AM 6.86 44.348 0.407 7.29 113.3 11.52
11/4/2020 7:30:00 AM 6.86 44.348 0.407 7.29 113.2 11.55
11/4/2020 7:45:00 AM 6.86 44.348 0.407 7.3 113.5 11.6
11/4/2020 8:00:00 AM 6.88 44.384 0.407 7.31 113.2 11.61
11/4/2020 8:15:00 AM 6.91 44.438 0.407 7.31 113 11.66
11/4/2020 8:30:00 AM 6.95 44.51 0.407 7.32 112.9 11.73
11/4/2020 8:45:00 AM 6.99 44.582 0.407 7.32 112.9 11.77
11/4/2020 9:00:00 AM 7.05 44.69 0.407 7.33 112.9 11.81
11/4/2020 9:15:00 AM 7.1 44.78 0.407 7.34 112.6 11.87
11/4/2020 9:30:00 AM 7.16 44.888 0.407 7.35 112.5 11.96
11/4/2020 9:45:00 AM 7.23 45.014 0.407 7.36 112.2 12.05
11/4/2020 10:00:00 AM 7.31 45.158 0.407 7.37 112.2 12.14
11/4/2020 10:15:00 AM 7.42 45.356 0.407 7.39 111.9 12.21
11/4/2020 10:30:00 AM 7.56 45.608 0.407 7.41 111.5 12.25
11/4/2020 10:45:00 AM 7.72 45.896 0.407 7.42 110.8 12.31
11/4/2020 11:00:00 AM 7.9 46.22 0.407 7.44 110.2 12.38
11/4/2020 11:15:00 AM 8.09 46.562 0.407 7.45 109.1 12.47
11/4/2020 11:30:00 AM 8.3 46.94 0.407 7.46 107.9 12.51
11/4/2020 11:45:00 AM 8.5 47.3 0.407 7.48 106.2 12.53
11/4/2020 12:00:00 PM 8.71 47.678 0.379 7.49 105.6 12.61
11/4/2020 12:15:00 PM 8.9 48.02 0.402 7.52 105.1 12.63
11/4/2020 12:30:00 PM 9.1 48.38 0.406 7.52 103.8 12.64
11/4/2020 12:45:00 PM 9.28 48.704 0.406 7.51 102.6 12.65
11/4/2020 1:00:00 PM 9.37 48.866 0.406 7.52 102.8 12.66
11/4/2020 1:15:00 PM 9.52 49.136 0.404 7.52 101.4 12.64
11/4/2020 1:30:00 PM 9.64 49.352 0.405 7.51 100.8 12.64
11/4/2020 1:45:00 PM 9.7 49.46 0.407 7.52 101 12.61
11/4/2020 2:00:00 PM 9.73 49.514 0.38 7.51 100.3 12.59
11/4/2020 2:15:00 PM 9.75 49.55 0.385 7.5 100.6 12.57
11/4/2020 2:30:00 PM 9.69 49.442 0.409 7.49 100.5 12.53
11/4/2020 2:45:00 PM 9.68 49.424 0.409 7.48 100.4 12.48
11/4/2020 3:00:00 PM 9.61 49.298 0.409 7.47 100.9 12.45
11/4/2020 3:15:00 PM 9.5 49.1 0.409 7.45 100.8 12.36
11/4/2020 3:30:00 PM 9.29 48.722 0.41 7.44 100.9 12.28
11/4/2020 3:45:00 PM 9.17 48.506 0.41 7.43 101.2 12.17
11/4/2020 4:00:00 PM 9.07 48.326 0.373 7.4 101.6 12.06
11/4/2020 4:15:00 PM 8.93 48.074 0.409 7.37 101.6 11.97
11/4/2020 4:30:00 PM 8.78 47.804 0.41 7.36 101.9 11.86
11/4/2020 4:45:00 PM 8.68 47.624 0.409 7.33 102.2 11.75
11/4/2020 5:00:00 PM 8.57 47.426 0.36 7.31 103.5 11.64
11/4/2020 5:15:00 PM 8.43 47.174 0.347 7.29 103.7 11.52
11/4/2020 5:30:00 PM 8.36 47.048 0.412 7.27 103.9 11.41
11/4/2020 5:45:00 PM 8.24 46.832 0.413 7.26 104.1 11.29
11/4/2020 6:00:00 PM 8.16 46.688 0.413 7.24 104.4 11.24
11/4/2020 6:15:00 PM 8.1 46.58 0.414 7.24 104.5 11.18
11/4/2020 6:30:00 PM 8.03 46.454 0.414 7.22 104.6 11.1
11/4/2020 6:45:00 PM 7.97 46.346 0.414 7.21 104.5 11.08
11/4/2020 7:00:00 PM 7.89 46.202 0.415 7.2 104.7 11.04
11/4/2020 7:15:00 PM 7.83 46.094 0.415 7.19 104.7 11.02
11/4/2020 7:30:00 PM 7.77 45.986 0.415 7.19 105 11.03
11/4/2020 7:45:00 PM 7.71 45.878 0.416 7.18 105.4 11.02
11/4/2020 8:00:00 PM 7.65 45.77 0.416 7.18 105.6 11.03
11/4/2020 8:15:00 PM 7.6 45.68 0.416 7.17 105.7 11.03
11/4/2020 8:30:00 PM 7.56 45.608 0.416 7.17 105.7 11.02
11/4/2020 8:45:00 PM 7.53 45.554 0.417 7.17 106 11.03
11/4/2020 9:00:00 PM 7.5 45.5 0.417 7.16 105.9 11.04
11/4/2020 9:15:00 PM 7.47 45.446 0.417 7.16 105.8 11.03
11/4/2020 9:30:00 PM 7.45 45.41 0.417 7.15 106 11.03
11/4/2020 9:45:00 PM 7.43 45.374 0.418 7.15 106.4 11.03
11/4/2020 10:00:00 PM 7.41 45.338 0.418 7.15 105.9 11.06
11/4/2020 10:15:00 PM 7.4 45.32 0.418 7.15 110.5 11.04
11/4/2020 10:30:00 PM 7.38 45.284 0.418 7.15 110.6 11.06
11/4/2020 10:45:00 PM 7.36 45.248 0.418 7.15 110.3 11.08
11/4/2020 11:00:00 PM 7.34 45.212 0.419 7.14 110.4 11.07
11/4/2020 11:15:00 PM 7.33 45.194 0.419 7.13 109.8 11.08
11/4/2020 11:30:00 PM 7.31 45.158 0.419 7.12 109.8 11.09
11/4/2020 11:45:00 PM 7.29 45.122 0.419 7.12 109.7 11.08
11/5/2020 12:00:00 AM 7.28 45.104 0.419 7.12 109.5 11.11
11/5/2020 12:15:00 AM 7.26 45.068 0.419 7.13 109.6 11.11
11/5/2020 12:30:00 AM 7.24 45.032 0.419 7.13 109.9 11.1
11/5/2020 12:45:00 AM 7.23 45.014 0.42 7.13 110 11.13
11/5/2020 1:00:00 AM 7.22 44.996 0.42 7.12 110.5 11.14
11/5/2020 1:15:00 AM 7.22 44.996 0.42 7.12 110.6 11.12
11/5/2020 1:30:00 AM 7.2 44.96 0.4 7.12 110.3 11.15
11/5/2020 1:45:00 AM 7.19 44.942 0.417 7.11 110.9 11.17
11/5/2020 2:00:00 AM 7.18 44.924 0.42 7.11 111 11.15
11/5/2020 2:15:00 AM 7.17 44.906 0.421 7.1 111.4 11.15
11/5/2020 2:30:00 AM 7.16 44.888 0.421 7.09 111.7 11.17
11/5/2020 2:45:00 AM 7.17 44.906 0.421 7.1 111.4 11.16
11/5/2020 3:00:00 AM 7.15 44.87 0.421 7.1 111.8 11.18
11/5/2020 3:15:00 AM 7.15 44.87 0.421 7.1 112 11.18
11/5/2020 3:30:00 AM 7.16 44.888 0.421 7.09 112.8 11.2
11/5/2020 3:45:00 AM 7.18 44.924 0.421 7.08 112.4 11.19
11/5/2020 4:00:00 AM 7.17 44.906 0.421 7.09 112.3 11.19
11/5/2020 4:15:00 AM 7.18 44.924 0.422 7.09 112.4 11.21
11/5/2020 4:30:00 AM 7.18 44.924 0.422 7.1 111.9 11.22
11/5/2020 4:45:00 AM 7.2 44.96 0.422 7.11 113.9 11.22
11/5/2020 5:00:00 AM 7.2 44.96 0.421 7.09 113.5 11.22
11/5/2020 5:15:00 AM 7.23 45.014 0.421 7.11 113.7 11.23
11/5/2020 5:30:00 AM 7.23 45.014 0.422 7.11 113.7 11.23
11/5/2020 5:45:00 AM 7.25 45.05 0.422 7.1 113.7 11.22
11/5/2020 6:00:00 AM 7.26 45.068 0.422 7.11 113.2 11.23
11/5/2020 6:15:00 AM 7.28 45.104 0.422 7.1 113.6 11.24
11/5/2020 6:30:00 AM 7.3 45.14 0.422 7.11 113.8 11.23
11/5/2020 6:45:00 AM 7.3 45.14 0.423 7.12 113.3 11.26
11/5/2020 7:00:00 AM 7.33 45.194 0.423 7.12 114.3 11.26
11/5/2020 7:15:00 AM 7.36 45.248 0.423 7.13 113.7 11.29
11/5/2020 7:30:00 AM 7.38 45.284 0.423 7.12 113.6 11.31
11/5/2020 7:45:00 AM 7.41 45.338 0.424 7.13 113.8 11.34
11/5/2020 8:00:00 AM 7.45 45.41 0.424 7.14 114 11.41
11/5/2020 8:15:00 AM 7.52 45.536 0.424 7.15 113.6 11.49
11/5/2020 8:30:00 AM 7.59 45.662 0.424 7.17 113.6 11.56
11/5/2020 8:45:00 AM 7.66 45.788 0.425 7.18 113.3 11.66
11/5/2020 9:00:00 AM 7.74 45.932 0.424 7.2 113.3 11.74
11/5/2020 9:15:00 AM 7.82 46.076 0.424 7.21 113 11.85
11/5/2020 9:30:00 AM 7.91 46.238 0.425 7.23 112.7 11.94
11/5/2020 9:45:00 AM 8.01 46.418 0.424 7.23 112.6 12.03
11/5/2020 10:00:00 AM 8.1 46.58 0.425 7.25 112.6 12.12
11/5/2020 10:15:00 AM 8.21 46.778 0.425 7.28 112.1 12.23
11/5/2020 10:30:00 AM 8.34 47.012 0.425 7.29 111.8 12.3
11/5/2020 10:45:00 AM 8.52 47.336 0.425 7.31 111.4 12.39
11/5/2020 11:00:00 AM 8.72 47.696 0.425 7.35 111.2 12.49
11/5/2020 11:15:00 AM 8.87 47.966 0.425 7.36 110.9 12.54
11/5/2020 11:30:00 AM 9.1 48.38 0.424 7.39 110.8 12.62
11/5/2020 11:45:00 AM 9.31 48.758 0.424 7.4 110.3 12.69
11/5/2020 12:00:00 PM 9.53 49.154 0.424 7.43 109.9 12.75
11/5/2020 12:15:00 PM 9.69 49.442 0.424 7.44 109.9 12.79
11/5/2020 12:30:00 PM 9.85 49.73 0.422 7.44 110.1 12.82
11/5/2020 12:45:00 PM 9.97 49.946 0.424 7.45 110.4 12.86
11/5/2020 1:00:00 PM 10.08 50.144 0.423 7.45 110.2 12.88
11/5/2020 1:15:00 PM 10.18 50.324 0.423 7.45 109.5 12.86
11/5/2020 1:30:00 PM 10.3 50.54 0.422 7.45 108.8 12.88
11/5/2020 1:45:00 PM 10.36 50.648 0.422 7.44 186.9 12.86
11/5/2020 2:00:00 PM 10.41 50.738 0.422 7.41 191.7 12.83
11/5/2020 2:15:00 PM 10.34 50.612 0.422 7.4 191 12.8
11/5/2020 2:30:00 PM 10.33 50.594 0.423 7.39 191 12.8
11/5/2020 2:45:00 PM -100000 -179968 -100000 -100000 -100000 -100000
11/5/2020 3:00:00 PM -100000 -179968 -100000 -100000 -100000 -100000
11/5/2020 3:15:00 PM -100000 -179968 -100000 -100000 -100000 -100000
11/5/2020 3:30:00 PM -100000 -179968 -100000 -100000 -100000 -100000
11/5/2020 3:45:00 PM 9.95 49.91 0.424 5.05 1.66 12.52
11/5/2020 4:00:00 PM 9.83 49.694 0.424 6.83 1.68 12.7
11/5/2020 4:15:00 PM 9.76 49.568 0.424 7 1.7 12.59
11/5/2020 4:30:00 PM 9.65 49.37 0.424 7.11 2.94 12.47
11/5/2020 4:45:00 PM 9.51 49.118 0.425 7.17 1.4 12.29
11/5/2020 5:00:00 PM 9.41 48.938 0.425 7.22 1.42 12.12
11/5/2020 5:15:00 PM 9.33 48.794 0.426 7.14 1.62 11.95
11/5/2020 5:30:00 PM 9.21 48.578 0.426 7.1 2.17 11.77
11/5/2020 5:45:00 PM 9.13 48.434 0.426 7.07 1.95 11.62
11/5/2020 6:00:00 PM 9.03 48.254 0.427 7.09 1.8 11.49
11/5/2020 6:15:00 PM 8.96 48.128 0.427 7.1 2.11 11.37
11/5/2020 6:30:00 PM 8.88 47.984 0.428 7.09 2.7 11.27
11/5/2020 6:45:00 PM 8.82 47.876 0.429 7.08 2.27 11.19
11/5/2020 7:00:00 PM 8.76 47.768 0.429 7.07 2.58 11.13
11/5/2020 7:15:00 PM 8.71 47.678 0.43 7.05 3.15 11.1
11/5/2020 7:30:00 PM 8.67 47.606 0.43 7.09 2.38 11.07
11/5/2020 7:45:00 PM 8.63 47.534 0.431 7.12 2.94 11.04
11/5/2020 8:00:00 PM 8.59 47.462 0.431 7.13 2.41 11.04
11/5/2020 8:15:00 PM 8.55 47.39 0.431 7.14 2.7 11.02
11/5/2020 8:30:00 PM 8.53 47.354 0.431 7.14 2.42 11.04
11/5/2020 8:45:00 PM 8.5 47.3 0.431 7.18 3.33 11.03
11/5/2020 9:00:00 PM 8.48 47.264 0.432 7.19 3.01 11.03
11/5/2020 9:15:00 PM 8.46 47.228 0.432 7.2 5.62 11.04
11/5/2020 9:30:00 PM 8.43 47.174 0.432 7.2 3.24 11.04
11/5/2020 9:45:00 PM 8.41 47.138 0.432 7.19 2.57 11.03
11/5/2020 10:00:00 PM 8.38 47.084 0.432 7.19 2.26 11.03
11/5/2020 10:15:00 PM 8.36 47.048 0.432 7.2 2.5 11.05
11/5/2020 10:30:00 PM 8.34 47.012 0.432 7.18 2.39 11.03
11/5/2020 10:45:00 PM 8.32 46.976 0.432 7.18 2.39 11.06
11/5/2020 11:00:00 PM 8.3 46.94 0.432 7.18 2.39 11.04
11/5/2020 11:15:00 PM 8.29 46.922 0.433 7.22 2.42 11.06
11/5/2020 11:30:00 PM 8.28 46.904 0.433 7.23 2.31 11.07
11/5/2020 11:45:00 PM 8.26 46.868 0.433 7.23 2.09 11.05
11/6/2020 12:00:00 AM 8.25 46.85 0.433 7.23 2.56 11.07
11/6/2020 12:15:00 AM 8.24 46.832 0.433 7.23 2.27 11.07
11/6/2020 12:30:00 AM 8.23 46.814 0.434 7.23 2.09 11.06
11/6/2020 12:45:00 AM 8.22 46.796 0.434 7.25 2.67 11.08
11/6/2020 1:00:00 AM 8.22 46.796 0.434 7.25 2.73 11.07
11/6/2020 1:15:00 AM 8.22 46.796 0.434 7.23 2.31 11.08
11/6/2020 1:30:00 AM 8.22 46.796 0.435 7.23 2.83 11.08
11/6/2020 1:45:00 AM 8.22 46.796 0.435 7.22 2.11 11.08
11/6/2020 2:00:00 AM 8.23 46.814 0.435 7.23 3.06 11.08
11/6/2020 2:15:00 AM 8.22 46.796 0.436 7.23 3.35 11.08
11/6/2020 2:30:00 AM 8.22 46.796 0.436 7.23 2.46 11.09
11/6/2020 2:45:00 AM 8.22 46.796 0.436 7.24 2.5 11.11
11/6/2020 3:00:00 AM 8.23 46.814 0.436 7.21 2.92 11.08
11/6/2020 3:15:00 AM 8.22 46.796 0.436 7.24 2.16 11.11
11/6/2020 3:30:00 AM 8.23 46.814 0.436 7.18 3.01 11.1
11/6/2020 3:45:00 AM 8.21 46.778 0.437 7.18 2.21 11.12
11/6/2020 4:00:00 AM 8.21 46.778 0.437 7.19 2.53 11.13
11/6/2020 4:15:00 AM 8.21 46.778 0.437 7.2 2.45 11.13
11/6/2020 4:30:00 AM 8.21 46.778 0.437 7.2 2.24 11.13
11/6/2020 4:45:00 AM 8.2 46.76 0.437 7.21 2.17 11.14
11/6/2020 5:00:00 AM 8.21 46.778 0.437 7.19 2.15 11.15
11/6/2020 5:15:00 AM 8.22 46.796 0.437 7.22 2.01 11.14
11/6/2020 5:30:00 AM 8.21 46.778 0.437 7.24 2.54 11.15
11/6/2020 5:45:00 AM 8.22 46.796 0.437 7.25 2.95 11.17
11/6/2020 6:00:00 AM 8.23 46.814 0.437 7.24 2.3 11.18
11/6/2020 6:15:00 AM 8.22 46.796 0.437 7.23 2.16 11.19
11/6/2020 6:30:00 AM 8.22 46.796 0.437 7.24 1.95 11.21
11/6/2020 6:45:00 AM 8.22 46.796 0.437 7.24 2.44 11.2
11/6/2020 7:00:00 AM 8.21 46.778 0.437 7.25 1.73 11.16
11/6/2020 7:15:00 AM 8.23 46.814 0.437 7.27 1.49 11.26
11/6/2020 7:30:00 AM 8.23 46.814 0.437 7.27 1.46 11.29
11/6/2020 7:45:00 AM 8.24 46.832 0.437 7.25 1.81 11.32
11/6/2020 8:00:00 AM 8.28 46.904 0.438 7.27 1.58 11.41
11/6/2020 8:15:00 AM 8.32 46.976 0.437 7.3 1.31 11.53
11/6/2020 8:30:00 AM 8.39 47.102 0.437 7.3 1.47 11.62
11/6/2020 8:45:00 AM 8.46 47.228 0.437 7.31 1.48 11.73
11/6/2020 9:00:00 AM 8.54 47.372 0.437 7.34 1.44 11.86
11/6/2020 9:15:00 AM 8.63 47.534 0.437 7.34 1.46 12.01
11/6/2020 9:30:00 AM 8.71 47.678 0.437 7.38 1.44 12.13
11/6/2020 9:45:00 AM 8.83 47.894 0.437 7.39 1.75 12.26
11/6/2020 10:00:00 AM 8.95 48.11 0.437 7.42 1.66 12.4
11/6/2020 10:15:00 AM 9.09 48.362 0.437 7.45 1.48 12.53
11/6/2020 10:30:00 AM 9.28 48.704 0.438 7.48 1.52 12.66
11/6/2020 10:45:00 AM 9.47 49.046 0.437 7.51 1.45 12.82
11/6/2020 11:00:00 AM 9.72 49.496 0.438 7.53 1.54 12.93
11/6/2020 11:15:00 AM 9.95 49.91 0.438 7.56 1.55 13.05
11/6/2020 11:30:00 AM 10.21 50.378 0.438 7.58 1.6 13.15
11/6/2020 11:45:00 AM 10.47 50.846 0.438 7.62 1.47 13.25
11/6/2020 12:00:00 PM 10.73 51.314 0.438 7.64 1.4 13.32
11/6/2020 12:15:00 PM 10.98 51.764 0.437 7.65 1.59 13.42
11/6/2020 12:30:00 PM 11.21 52.178 0.437 7.67 1.32 13.45
11/6/2020 12:45:00 PM 11.39 52.502 0.437 7.68 1.46 13.47
11/6/2020 1:00:00 PM 11.59 52.862 0.436 7.7 1.42 13.49
11/6/2020 1:15:00 PM 11.69 53.042 0.436 7.7 1.63 13.51
11/6/2020 1:30:00 PM 11.83 53.294 0.436 7.7 1.31 13.5
11/6/2020 1:45:00 PM 11.97 53.546 0.436 7.72 1.57 13.47
11/6/2020 2:00:00 PM 12.03 53.654 0.435 7.7 1.38 13.45
11/6/2020 2:15:00 PM 11.97 53.546 0.435 7.71 1.46 13.47
11/6/2020 2:30:00 PM 12.02 53.636 0.435 7.71 1.36 13.36
11/6/2020 2:45:00 PM 12 53.6 0.435 7.7 1.73 13.31
11/6/2020 3:00:00 PM 11.94 53.492 0.435 7.71 1.91 13.23
11/6/2020 3:15:00 PM 11.79 53.222 0.435 7.66 2.01 13.11
11/6/2020 3:30:00 PM 11.69 53.042 0.435 7.66 2.29 12.9
11/6/2020 3:45:00 PM 11.48 52.664 0.436 7.66 2.5 12.79
11/6/2020 4:00:00 PM 11.37 52.466 0.437 7.63 2.61 12.59
11/6/2020 4:15:00 PM 11.18 52.124 0.437 7.61 1.86 12.4
11/6/2020 4:30:00 PM 11.02 51.836 0.438 7.58 1.76 12.24
11/6/2020 4:45:00 PM 10.93 51.674 0.438 7.57 1.96 12.01
11/6/2020 5:00:00 PM 10.8 51.44 0.439 7.57 2.01 11.78
11/6/2020 5:15:00 PM 10.66 51.188 0.439 7.55 1.61 11.59
11/6/2020 5:30:00 PM 10.52 50.936 0.44 7.52 1.71 11.39
11/6/2020 5:45:00 PM 10.44 50.792 0.441 7.49 1.85 11.24
11/6/2020 6:00:00 PM 10.32 50.576 0.441 7.47 1.79 11.08
11/6/2020 6:15:00 PM 10.2 50.36 0.442 8.06 2.11 10.97
11/6/2020 6:30:00 PM 10.13 50.234 0.442 8.07 2.97 10.85
11/6/2020 6:45:00 PM 10.02 50.036 0.443 8.06 2.7 10.8
11/6/2020 7:00:00 PM 9.96 49.928 0.444 8.06 2.78 10.71
11/6/2020 7:15:00 PM 9.88 49.784 0.444 8.04 3.99 10.65
11/6/2020 7:30:00 PM 9.83 49.694 0.445 7.76 3.18 10.61
11/6/2020 7:45:00 PM 9.77 49.586 0.445 7.69 5.01 10.6
11/6/2020 8:00:00 PM 9.71 49.478 0.446 7.65 3.92 10.58
11/6/2020 8:15:00 PM 9.66 49.388 0.447 7.63 4.17 10.57
11/6/2020 8:30:00 PM 9.61 49.298 0.448 7.61 3.87 10.57
11/6/2020 8:45:00 PM 9.56 49.208 0.448 7.59 5.77 10.55
11/6/2020 9:00:00 PM 9.51 49.118 0.449 7.59 3.05 10.56
11/6/2020 9:15:00 PM 9.46 49.028 0.449 7.58 3.55 10.56
11/6/2020 9:30:00 PM 9.42 48.956 0.449 7.57 3.44 10.58
11/6/2020 9:45:00 PM 9.38 48.884 0.449 7.55 3.47 10.57
11/6/2020 10:00:00 PM 9.33 48.794 0.449 7.56 3.71 10.59
11/6/2020 10:15:00 PM 9.3 48.74 0.448 7.56 2.88 10.57
11/6/2020 10:30:00 PM 9.27 48.686 0.448 7.61 3.38 10.58
11/6/2020 10:45:00 PM 9.24 48.632 0.448 7.61 3.65 10.58
11/6/2020 11:00:00 PM 9.21 48.578 0.448 7.6 3.58 10.61
11/6/2020 11:15:00 PM 9.18 48.524 0.449 7.58 2.82 10.58
11/6/2020 11:30:00 PM 9.15 48.47 0.449 7.57 3.06 10.59
11/6/2020 11:45:00 PM 9.13 48.434 0.449 7.58 3.88 10.57
11/7/2020 12:00:00 AM 9.11 48.398 0.449 7.58 3.17 10.57
11/7/2020 12:15:00 AM 9.08 48.344 0.449 7.59 3.08 10.59
11/7/2020 12:30:00 AM 9.08 48.344 0.449 7.58 2.66 10.6
11/7/2020 12:45:00 AM 9.06 48.308 0.45 7.57 2.36 10.61
11/7/2020 1:00:00 AM 9.03 48.254 0.45 7.57 4.87 10.6
11/7/2020 1:15:00 AM 9.02 48.236 0.45 7.57 2.42 10.6
11/7/2020 1:30:00 AM 9.02 48.236 0.451 7.58 2.25 10.61
11/7/2020 1:45:00 AM 8.99 48.182 0.451 7.58 2.05 10.62
11/7/2020 2:00:00 AM 8.97 48.146 0.451 7.57 2.36 10.6
11/7/2020 2:15:00 AM 8.96 48.128 0.451 7.58 3.31 10.61
11/7/2020 2:30:00 AM 8.93 48.074 0.452 7.57 2.24 10.6
11/7/2020 2:45:00 AM 8.93 48.074 0.452 7.56 2.35 10.6
11/7/2020 3:00:00 AM 8.91 48.038 0.452 7.56 2.1 10.6
11/7/2020 3:15:00 AM 8.92 48.056 0.452 7.57 2.76 10.61
11/7/2020 3:30:00 AM 8.91 48.038 0.452 7.58 1.83 10.61
11/7/2020 3:45:00 AM 8.87 47.966 0.453 7.58 2.01 10.62
11/7/2020 4:00:00 AM 8.86 47.948 0.453 7.56 2.51 10.62
11/7/2020 4:15:00 AM 8.85 47.93 0.453 7.57 1.99 10.63
11/7/2020 4:30:00 AM 8.84 47.912 0.453 7.57 2.35 10.63
11/7/2020 4:45:00 AM 8.83 47.894 0.453 7.57 2.13 10.63
11/7/2020 5:00:00 AM 8.82 47.876 0.454 7.56 2.24 10.63
11/7/2020 5:15:00 AM 8.81 47.858 0.454 7.54 2.52 10.64
11/7/2020 5:30:00 AM 8.78 47.804 0.454 7.56 5.27 10.65
11/7/2020 5:45:00 AM 8.77 47.786 0.454 7.58 1.96 10.67
11/7/2020 6:00:00 AM 8.76 47.768 0.454 7.56 1.84 10.67
11/7/2020 6:15:00 AM 8.75 47.75 0.454 7.56 1.95 10.68
11/7/2020 6:30:00 AM 8.73 47.714 0.454 7.54 1.87 10.7
11/7/2020 6:45:00 AM 8.76 47.768 0.454 7.55 1.75 10.69
11/7/2020 7:00:00 AM 8.76 47.768 0.454 7.56 1.82 10.72
11/7/2020 7:15:00 AM 8.76 47.768 0.454 7.54 1.61 10.76
11/7/2020 7:30:00 AM 8.77 47.786 0.454 7.55 2.16 10.81
11/7/2020 7:45:00 AM 8.8 47.84 0.454 7.56 1.57 10.89
11/7/2020 8:00:00 AM 8.85 47.93 0.454 7.55 1.59 11
11/7/2020 8:15:00 AM 8.9 48.02 0.454 7.56 1.43 11.13
11/7/2020 8:30:00 AM 8.98 48.164 0.454 7.56 1.54 11.25
11/7/2020 8:45:00 AM 9.08 48.344 0.454 7.57 1.27 11.39
11/7/2020 9:00:00 AM 9.19 48.542 0.453 7.62 1.6 11.54
11/7/2020 9:15:00 AM 9.32 48.776 0.453 7.63 1.53 11.72
11/7/2020 9:30:00 AM 9.43 48.974 0.453 7.66 1.34 11.88
11/7/2020 9:45:00 AM 9.57 49.226 0.453 7.68 1.24 12.04
11/7/2020 10:00:00 AM 9.72 49.496 0.453 7.7 1.42 12.21
11/7/2020 10:15:00 AM 9.9 49.82 0.452 7.72 1.21 12.37
11/7/2020 10:30:00 AM 10.09 50.162 0.452 7.75 1.18 12.54
11/7/2020 10:45:00 AM 10.31 50.558 0.452 7.77 1.15 12.7
11/7/2020 11:00:00 AM 10.55 50.99 0.452 7.8 1.21 12.86
11/7/2020 11:15:00 AM 10.81 51.458 0.451 7.81 1.42 13.02
11/7/2020 11:30:00 AM 11.12 52.016 0.451 7.82 1.11 13.14
11/7/2020 11:45:00 AM 11.37 52.466 0.451 7.84 1.27 13.28
11/7/2020 12:00:00 PM 11.65 52.97 0.451 7.86 1.18 13.35
11/7/2020 12:15:00 PM 11.9 53.42 0.451 7.88 1.64 13.47
11/7/2020 12:30:00 PM 12.15 53.87 0.451 7.89 1.3 13.52
11/7/2020 12:45:00 PM 12.36 54.248 0.452 7.9 1.25 13.59
11/7/2020 1:00:00 PM 12.55 54.59 0.452 7.91 1.23 13.6
11/7/2020 1:15:00 PM 12.72 54.896 0.452 7.95 1.23 13.64
11/7/2020 1:30:00 PM 12.84 55.112 0.452 7.96 1.22 13.65
11/7/2020 1:45:00 PM 12.96 55.328 0.451 7.87 1.19 13.63
11/7/2020 2:00:00 PM 13.02 55.436 0.451 7.96 1.17 13.61
11/7/2020 2:15:00 PM 13.02 55.436 0.451 7.95 1.39 13.55
11/7/2020 2:30:00 PM 12.98 55.364 0.451 7.95 2.17 13.52
11/7/2020 2:45:00 PM 13.02 55.436 0.45 7.93 1.55 13.44
11/7/2020 3:00:00 PM 12.84 55.112 0.451 7.93 1.33 13.34
11/7/2020 3:15:00 PM 12.73 54.914 0.451 7.9 1.24 13.2
11/7/2020 3:30:00 PM 12.59 54.662 0.451 7.87 1.14 13.05
11/7/2020 3:45:00 PM 12.44 54.392 0.451 7.86 1.56 12.84
11/7/2020 4:00:00 PM 12.22 53.996 0.452 7.84 1.58 12.61
11/7/2020 4:15:00 PM 12.16 53.888 0.452 7.82 1.72 12.39
11/7/2020 4:30:00 PM 11.96 53.528 0.453 7.82 1.8 12.17
11/7/2020 4:45:00 PM 11.83 53.294 0.454 7.79 1.44 11.91
11/7/2020 5:00:00 PM 11.68 53.024 0.454 7.77 1.33 11.66
11/7/2020 5:15:00 PM 11.51 52.718 0.455 7.75 1.23 11.4
11/7/2020 5:30:00 PM 11.38 52.484 0.456 7.73 1.58 11.15
11/7/2020 5:45:00 PM 11.29 52.322 0.456 7.71 1.57 10.98
11/7/2020 6:00:00 PM 11.17 52.106 0.456 7.68 2.06 10.82
11/7/2020 6:15:00 PM 11.06 51.908 0.457 7.67 1.72 10.68
11/7/2020 6:30:00 PM 10.96 51.728 0.458 7.65 2.05 10.55
11/7/2020 6:45:00 PM 10.85 51.53 0.458 7.64 3.81 10.45
11/7/2020 7:00:00 PM 10.75 51.35 0.458 7.63 2.3 10.38
11/7/2020 7:15:00 PM 10.68 51.224 0.458 7.62 1.99 10.32
11/7/2020 7:30:00 PM 10.6 51.08 0.458 7.61 2.2 10.29
11/7/2020 7:45:00 PM 10.54 50.972 0.459 7.6 2.57 10.26
11/7/2020 8:00:00 PM 10.47 50.846 0.459 7.59 2.78 10.22
11/7/2020 8:15:00 PM 10.41 50.738 0.46 7.59 3.34 10.21
11/7/2020 8:30:00 PM 10.33 50.594 0.461 7.58 3.33 10.2
11/7/2020 8:45:00 PM 10.26 50.468 0.461 7.57 2.37 10.21
11/7/2020 9:00:00 PM 10.19 50.342 0.461 7.56 2.43 10.21
11/7/2020 9:15:00 PM 10.13 50.234 0.461 7.55 2.76 10.2
11/7/2020 9:30:00 PM 10.07 50.126 0.462 7.55 2.88 10.21
11/7/2020 9:45:00 PM 10.02 50.036 0.462 7.53 3.1 10.22
11/7/2020 10:00:00 PM 9.97 49.946 0.462 7.5 4.35 10.24
11/7/2020 10:15:00 PM 9.91 49.838 0.462 7.46 5.32 10.25
11/7/2020 10:30:00 PM 9.87 49.766 0.462 7.48 2.58 10.26
11/7/2020 10:45:00 PM 9.82 49.676 0.462 7.48 3.75 10.26
11/7/2020 11:00:00 PM 9.77 49.586 0.461 7.47 2.1 10.26
11/7/2020 11:15:00 PM 9.74 49.532 0.461 7.48 4.4 10.28
11/7/2020 11:30:00 PM 9.69 49.442 0.461 7.49 2.47 10.27
11/7/2020 11:45:00 PM 9.65 49.37 0.461 7.48 2.54 10.31
11/8/2020 12:00:00 AM 9.62 49.316 0.461 7.49 2.64 10.31
11/8/2020 12:15:00 AM 9.57 49.226 0.461 7.47 2.52 10.3
11/8/2020 12:30:00 AM 9.54 49.172 0.461 7.47 2.1 10.3
11/8/2020 12:45:00 AM 9.51 49.118 0.461 7.48 2.45 10.31
11/8/2020 1:00:00 AM 9.48 49.064 0.461 7.48 2.64 10.31
11/8/2020 1:15:00 AM 9.46 49.028 0.461 7.48 2.03 10.31
11/8/2020 1:30:00 AM 9.42 48.956 0.461 7.49 2.14 10.32
11/8/2020 1:45:00 AM 9.4 48.92 0.461 7.48 2.7 10.32
11/8/2020 2:00:00 AM 9.38 48.884 0.461 7.49 1.96 10.34
11/8/2020 2:15:00 AM 9.36 48.848 0.461 7.47 2.03 10.32
11/8/2020 2:30:00 AM 9.34 48.812 0.461 7.48 2.32 10.33
11/8/2020 2:45:00 AM 9.3 48.74 0.461 7.48 2.12 10.35
11/8/2020 3:00:00 AM 9.26 48.668 0.462 7.48 2.45 10.35
11/8/2020 3:15:00 AM 9.26 48.668 0.461 7.49 2.11 10.34
11/8/2020 3:30:00 AM 9.22 48.596 0.462 7.48 2.23 10.34
11/8/2020 3:45:00 AM 9.19 48.542 0.462 7.48 2.08 10.35
11/8/2020 4:00:00 AM 9.18 48.524 0.462 7.44 1.92 10.36
11/8/2020 4:15:00 AM 9.16 48.488 0.462 7.44 2.28 10.37
11/8/2020 4:30:00 AM 9.16 48.488 0.463 7.44 2.47 10.38
11/8/2020 4:45:00 AM 9.12 48.416 0.463 7.43 2.01 10.38
11/8/2020 5:00:00 AM 9.1 48.38 0.463 7.43 2.32 10.38
11/8/2020 5:15:00 AM 9.08 48.344 0.463 7.42 2.01 10.4
11/8/2020 5:30:00 AM 9.08 48.344 0.464 7.43 2.39 10.44
11/8/2020 5:45:00 AM 9.03 48.254 0.464 7.41 2.13 10.41
11/8/2020 6:00:00 AM 9.02 48.236 0.464 7.41 2.36 10.42
11/8/2020 6:15:00 AM 9.02 48.236 0.464 7.41 2.02 10.43
11/8/2020 6:30:00 AM 8.98 48.164 0.464 7.42 1.88 10.44
11/8/2020 6:45:00 AM 8.97 48.146 0.464 7.42 1.58 10.46
11/8/2020 7:00:00 AM 8.96 48.128 0.464 7.42 1.56 10.48
11/8/2020 7:15:00 AM 8.97 48.146 0.464 7.43 1.51 10.52
11/8/2020 7:30:00 AM 8.97 48.146 0.464 7.42 1.41 10.58
11/8/2020 7:45:00 AM 9 48.2 0.464 7.43 1.46 10.64
11/8/2020 8:00:00 AM 9.04 48.272 0.464 7.43 1.4 10.76
11/8/2020 8:15:00 AM 9.07 48.326 0.464 7.44 1.26 10.9
11/8/2020 8:30:00 AM 9.16 48.488 0.463 7.45 1.37 11.06
11/8/2020 8:45:00 AM 9.24 48.632 0.463 7.46 1.23 11.22
11/8/2020 9:00:00 AM 9.33 48.794 0.463 7.49 1.27 11.38
11/8/2020 9:15:00 AM 9.42 48.956 0.463 7.49 1.29 11.56
11/8/2020 9:30:00 AM 9.51 49.118 0.463 7.51 1.09 11.72
11/8/2020 9:45:00 AM 9.63 49.334 0.463 7.54 1.2 11.89
11/8/2020 10:00:00 AM 9.76 49.568 0.462 7.56 0.96 12.07
11/8/2020 10:15:00 AM 9.93 49.874 0.462 7.57 1.04 12.25
11/8/2020 10:30:00 AM 10.14 50.252 0.462 7.61 1.1 12.46
11/8/2020 10:45:00 AM 10.38 50.684 0.461 7.63 1.06 12.66
11/8/2020 11:00:00 AM 10.64 51.152 0.461 7.66 1.05 12.84
11/8/2020 11:15:00 AM 10.9 51.62 0.46 7.7 1.05 13.04
11/8/2020 11:30:00 AM 11.19 52.142 0.46 7.73 1.12 13.21
11/8/2020 11:45:00 AM 11.51 52.718 0.459 7.76 1.1 13.35
11/8/2020 12:00:00 PM 11.8 53.24 0.459 7.78 1.05 13.51
11/8/2020 12:15:00 PM 12.11 53.798 0.459 7.81 1.02 13.61
11/8/2020 12:30:00 PM 12.36 54.248 0.459 7.83 1.14 13.72
11/8/2020 12:45:00 PM 12.63 54.734 0.458 7.83 1.17 13.81
11/8/2020 1:00:00 PM 12.79 55.022 0.459 7.89 1.47 13.89
11/8/2020 1:15:00 PM 12.99 55.382 0.459 7.9 1.1 13.91
11/8/2020 1:30:00 PM 13.18 55.724 0.459 7.9 1.95 13.91
11/8/2020 1:45:00 PM 13.24 55.832 0.459 7.9 1.21 13.94
11/8/2020 2:00:00 PM 13.35 56.03 0.459 7.9 1.35 13.9
11/8/2020 2:15:00 PM 13.37 56.066 0.459 7.9 1.33 13.91
11/8/2020 2:30:00 PM 13.33 55.994 0.459 7.91 1.42 13.88
11/8/2020 2:45:00 PM 13.36 56.048 0.459 7.9 2.17 13.78
11/8/2020 3:00:00 PM 13.3 55.94 0.458 7.88 1.34 13.61
11/8/2020 3:15:00 PM 13.06 55.508 0.459 7.87 2.1 13.54
11/8/2020 3:30:00 PM 12.99 55.382 0.459 7.85 1.27 13.28
11/8/2020 3:45:00 PM 12.74 54.932 0.46 7.84 1.86 13.11
11/8/2020 4:00:00 PM 12.59 54.662 0.46 7.83 1.58 12.92
11/8/2020 4:15:00 PM 12.33 54.194 0.461 7.8 1.78 12.59
11/8/2020 4:30:00 PM 12.14 53.852 0.462 7.79 2 12.37
11/8/2020 4:45:00 PM 12.02 53.636 0.462 7.77 1.24 12.11
11/8/2020 5:00:00 PM 11.82 53.276 0.463 7.76 1.17 11.86
11/8/2020 5:15:00 PM 11.72 53.096 0.464 7.73 1.42 11.58
11/8/2020 5:30:00 PM 11.52 52.736 0.465 7.72 1.44 11.32
11/8/2020 5:45:00 PM 11.43 52.574 0.465 7.69 1.7 11.11
11/8/2020 6:00:00 PM 11.3 52.34 0.466 7.67 1.58 10.92
11/8/2020 6:15:00 PM 11.22 52.196 0.467 7.66 2.17 10.75
11/8/2020 6:30:00 PM 11.12 52.016 0.467 7.64 1.74 10.62
11/8/2020 6:45:00 PM 11.04 51.872 0.468 7.63 2.11 10.49
11/8/2020 7:00:00 PM 10.97 51.746 0.468 7.61 2.03 10.38
11/8/2020 7:15:00 PM 10.9 51.62 0.468 7.59 2.89 10.31
11/8/2020 7:30:00 PM 10.85 51.53 0.469 7.58 2.34 10.26
11/8/2020 7:45:00 PM 10.81 51.458 0.469 7.58 1.63 10.2
11/8/2020 8:00:00 PM 10.76 51.368 0.469 7.58 2.13 10.17
11/8/2020 8:15:00 PM 10.72 51.296 0.469 7.58 2.07 10.11
11/8/2020 8:30:00 PM 10.69 51.242 0.47 7.57 1.61 10.1
11/8/2020 8:45:00 PM 10.66 51.188 0.47 7.56 1.71 10.07
11/8/2020 9:00:00 PM 10.62 51.116 0.47 7.55 1.73 10.06
11/8/2020 9:15:00 PM 10.59 51.062 0.47 7.54 2.4 10.05
11/8/2020 9:30:00 PM 10.55 50.99 0.471 7.54 2.48 10.05
11/8/2020 9:45:00 PM 10.51 50.918 0.471 7.53 2.53 10.05
11/8/2020 10:00:00 PM 10.47 50.846 0.471 7.53 2.17 10.02
11/8/2020 10:15:00 PM 10.43 50.774 0.472 7.52 1.92 10.05
11/8/2020 10:30:00 PM 10.39 50.702 0.472 7.51 2.2 10.04
11/8/2020 10:45:00 PM 10.33 50.594 0.472 7.51 2.34 10.05
11/8/2020 11:00:00 PM 10.29 50.522 0.472 7.51 2.31 10.04
11/8/2020 11:15:00 PM 10.24 50.432 0.472 7.51 2.32 10.06
11/8/2020 11:30:00 PM 10.19 50.342 0.472 7.5 2.32 10.06
11/8/2020 11:45:00 PM 10.15 50.27 0.472 7.5 2.39 10.09
11/9/2020 12:00:00 AM 10.1 50.18 0.472 7.5 2.59 10.09
11/9/2020 12:15:00 AM 10.06 50.108 0.472 7.49 2.74 10.08
11/9/2020 12:30:00 AM 10.02 50.036 0.472 7.49 1.88 10.14
11/9/2020 12:45:00 AM 9.98 49.964 0.472 7.49 1.83 10.09
11/9/2020 1:00:00 AM 9.94 49.892 0.471 7.49 1.87 10.09
11/9/2020 1:15:00 AM 9.91 49.838 0.471 7.49 1.76 10.12
11/9/2020 1:30:00 AM 9.87 49.766 0.471 7.48 2.05 10.12
11/9/2020 1:45:00 AM 9.83 49.694 0.471 7.48 1.85 10.11
11/9/2020 2:00:00 AM 9.82 49.676 0.471 7.42 2.47 10.17
11/9/2020 2:15:00 AM 9.79 49.622 0.471 7.46 1.73 10.13
11/9/2020 2:30:00 AM 9.76 49.568 0.471 7.48 2.02 10.15
11/9/2020 2:45:00 AM 9.73 49.514 0.47 7.49 2.38 10.14
11/9/2020 3:00:00 AM 9.69 49.442 0.471 7.49 1.6 10.15
11/9/2020 3:15:00 AM 9.66 49.388 0.471 7.49 2.36 10.16
11/9/2020 3:30:00 AM 9.65 49.37 0.471 7.49 1.84 10.17
11/9/2020 3:45:00 AM 9.63 49.334 0.471 7.49 2.67 10.16
11/9/2020 4:00:00 AM 9.6 49.28 0.471 7.49 1.71 10.19
11/9/2020 4:15:00 AM 9.59 49.262 0.471 7.49 2.14 10.19
11/9/2020 4:30:00 AM 9.55 49.19 0.471 7.49 2.66 10.19
11/9/2020 4:45:00 AM 9.54 49.172 0.471 7.49 1.99 10.21
11/9/2020 5:00:00 AM 9.51 49.118 0.471 7.49 2.06 10.2
11/9/2020 5:15:00 AM 9.5 49.1 0.472 7.49 3.01 10.21
11/9/2020 5:30:00 AM 9.48 49.064 0.472 7.48 1.59 10.21
11/9/2020 5:45:00 AM 9.45 49.01 0.472 7.48 1.58 10.2
11/9/2020 6:00:00 AM 9.43 48.974 0.472 7.48 1.76 10.22
11/9/2020 6:15:00 AM 9.41 48.938 0.473 7.48 1.46 10.21
11/9/2020 6:30:00 AM 9.41 48.938 0.473 7.48 1.48 10.24
11/9/2020 6:45:00 AM 9.37 48.866 0.473 7.48 1.36 10.24
11/9/2020 7:00:00 AM 9.38 48.884 0.473 7.49 1.7 10.27
11/9/2020 7:15:00 AM 9.35 48.83 0.473 7.48 1.87 10.28
11/9/2020 7:30:00 AM 9.38 48.884 0.473 7.5 1.45 10.37
11/9/2020 7:45:00 AM 9.38 48.884 0.473 7.5 1.45 10.46
11/9/2020 8:00:00 AM 9.41 48.938 0.473 7.51 1.42 10.57
11/9/2020 8:15:00 AM 9.44 48.992 0.472 7.52 1.25 10.71
11/9/2020 8:30:00 AM 9.5 49.1 0.472 7.53 1.12 10.86
11/9/2020 8:45:00 AM 9.56 49.208 0.472 7.54 1.45 11.03
11/9/2020 9:00:00 AM 9.65 49.37 0.471 7.56 1.02 11.23
11/9/2020 9:15:00 AM 9.74 49.532 0.471 7.57 1.08 11.43
11/9/2020 9:30:00 AM 9.84 49.712 0.471 7.59 1.1 11.62
11/9/2020 9:45:00 AM 9.95 49.91 0.47 7.61 1 11.81
11/9/2020 10:00:00 AM 10.08 50.144 0.47 7.63 1.06 12
11/9/2020 10:15:00 AM 10.24 50.432 0.47 7.66 0.93 12.24
11/9/2020 10:30:00 AM 10.43 50.774 0.469 7.68 1.09 12.48
11/9/2020 10:45:00 AM 10.64 51.152 0.469 7.71 0.87 12.69
11/9/2020 11:00:00 AM 10.91 51.638 0.468 7.74 0.99 12.94
11/9/2020 11:15:00 AM 11.17 52.106 0.467 7.76 0.85 13.13
11/9/2020 11:30:00 AM 11.47 52.646 0.467 7.8 0.82 13.35
11/9/2020 11:45:00 AM 11.78 53.204 0.466 7.82 0.92 13.54
11/9/2020 12:00:00 PM 12.09 53.762 0.466 7.84 0.93 13.68
11/9/2020 12:15:00 PM 12.39 54.302 0.465 7.87 0.89 13.84
11/9/2020 12:30:00 PM 12.64 54.752 0.465 7.89 0.94 13.97
11/9/2020 12:45:00 PM 12.92 55.256 0.464 7.9 0.89 14.03
11/9/2020 1:00:00 PM 13.13 55.634 0.464 7.9 0.93 14.11
11/9/2020 1:15:00 PM 13.33 55.994 0.464 7.91 0.96 14.16
11/9/2020 1:30:00 PM 13.49 56.282 0.463 7.96 0.93 14.22
11/9/2020 1:45:00 PM 13.61 56.498 0.463 7.96 0.84 14.24
11/9/2020 2:00:00 PM 13.69 56.642 0.463 7.97 0.78 14.2
11/9/2020 2:15:00 PM 13.73 56.714 0.463 7.98 1.13 14.21
11/9/2020 2:30:00 PM 13.73 56.714 0.464 7.97 1.23 14.14
11/9/2020 2:45:00 PM 13.7 56.66 0.464 7.97 0.93 14.07
11/9/2020 3:00:00 PM 13.62 56.516 0.464 7.97 0.91 13.97
11/9/2020 3:15:00 PM 13.52 56.336 0.464 7.96 1.01 13.84
11/9/2020 3:30:00 PM 13.29 55.922 0.465 7.95 1.22 13.62
11/9/2020 3:45:00 PM 13.17 55.706 0.465 7.93 1.22 13.41
11/9/2020 4:00:00 PM 13.01 55.418 0.466 7.92 1.97 13.15
11/9/2020 4:15:00 PM 12.82 55.076 0.466 7.91 1.91 12.9
11/9/2020 4:30:00 PM 12.59 54.662 0.467 7.9 2.02 12.61
11/9/2020 4:45:00 PM 12.49 54.482 0.468 7.88 1.16 12.28
11/9/2020 5:00:00 PM 12.34 54.212 0.469 7.86 1 12
11/9/2020 5:15:00 PM 12.19 53.942 0.47 7.83 0.97 11.67
11/9/2020 5:30:00 PM 12.04 53.672 0.47 7.82 1.05 11.39
11/9/2020 5:45:00 PM 11.9 53.42 0.471 7.78 1.31 11.14
11/9/2020 6:00:00 PM 11.8 53.24 0.472 7.77 1.38 10.94
11/9/2020 6:15:00 PM 11.73 53.114 0.472 7.75 1.59 10.71
11/9/2020 6:30:00 PM 11.7 53.06 0.473 7.73 1.53 10.51
11/9/2020 6:45:00 PM 11.69 53.042 0.473 7.71 1.52 10.34
11/9/2020 7:00:00 PM 11.67 53.006 0.474 7.7 2.38 10.2
11/9/2020 7:15:00 PM 11.64 52.952 0.474 7.69 3.01 10.09
11/9/2020 7:30:00 PM 11.59 52.862 0.475 7.68 1.89 10.01
11/9/2020 7:45:00 PM 11.53 52.754 0.475 7.66 1.99 9.97
11/9/2020 8:00:00 PM 11.46 52.628 0.475 7.65 1.96 9.92
11/9/2020 8:15:00 PM 11.38 52.484 0.476 7.65 2.42 9.89
11/9/2020 8:30:00 PM 11.31 52.358 0.476 7.63 3.18 9.87
11/9/2020 8:45:00 PM 11.27 52.286 0.477 7.62 2.19 9.85
11/9/2020 9:00:00 PM 11.23 52.214 0.477 7.62 2.92 9.83
11/9/2020 9:15:00 PM 11.2 52.16 0.478 7.61 2.18 9.82
11/9/2020 9:30:00 PM 11.16 52.088 0.478 7.61 3.63 9.84
11/9/2020 9:45:00 PM 11.12 52.016 0.479 7.61 3.4 9.81
11/9/2020 10:00:00 PM 11.08 51.944 0.479 7.6 2.98 9.81
11/9/2020 10:15:00 PM 11.04 51.872 0.479 7.6 2.97 9.78
11/9/2020 10:30:00 PM 10.99 51.782 0.48 7.6 2.11 9.83
11/9/2020 10:45:00 PM 10.94 51.692 0.48 7.59 3.68 9.83
11/9/2020 11:00:00 PM 10.89 51.602 0.48 7.59 2.35 9.81
11/9/2020 11:15:00 PM 10.84 51.512 0.48 7.59 2.29 9.83
11/9/2020 11:30:00 PM 10.79 51.422 0.479 7.58 4.32 9.83
11/9/2020 11:45:00 PM 10.74 51.332 0.479 7.58 4.26 9.83
11/10/2020 12:00:00 AM 10.7 51.26 0.479 7.57 4 9.88
11/10/2020 12:15:00 AM 10.65 51.17 0.479 7.58 2.94 9.85
11/10/2020 12:30:00 AM 10.61 51.098 0.479 7.57 3.18 9.88
11/10/2020 12:45:00 AM 10.56 51.008 0.479 7.57 3.92 9.88
11/10/2020 1:00:00 AM 10.52 50.936 0.479 7.57 2.92 9.87
11/10/2020 1:15:00 AM 10.48 50.864 0.479 7.57 3.48 9.87
11/10/2020 1:30:00 AM 10.44 50.792 0.479 7.57 3.46 9.89
11/10/2020 1:45:00 AM 10.4 50.72 0.479 7.57 9.85 9.89
11/10/2020 2:00:00 AM 10.36 50.648 0.478 7.56 2.94 9.88
11/10/2020 2:15:00 AM 10.33 50.594 0.478 7.56 2.3 9.89
11/10/2020 2:30:00 AM 10.3 50.54 0.477 7.56 2.09 9.92
11/10/2020 2:45:00 AM 10.26 50.468 0.477 7.56 2.15 9.89
11/10/2020 3:00:00 AM 10.24 50.432 0.477 7.56 2.29 9.88
11/10/2020 3:15:00 AM 10.21 50.378 0.477 7.55 2.18 9.92
11/10/2020 3:30:00 AM 10.17 50.306 0.477 7.55 2.13 9.88
11/10/2020 3:45:00 AM 10.16 50.288 0.477 7.55 3.37 9.9
11/10/2020 4:00:00 AM 10.14 50.252 0.477 7.55 3.62 9.93
11/10/2020 4:15:00 AM 10.1 50.18 0.477 7.55 2.47 9.89
11/10/2020 4:30:00 AM 10.09 50.162 0.477 7.51 1.8 9.92
11/10/2020 4:45:00 AM 10.08 50.144 0.477 7.52 1.58 9.93
11/10/2020 5:00:00 AM 10.04 50.072 0.477 7.54 2.35 9.94
11/10/2020 5:15:00 AM 10.04 50.072 0.477 7.54 2.48 9.94
11/10/2020 5:30:00 AM 10.05 50.09 0.477 7.55 1.94 9.94
11/10/2020 5:45:00 AM 10.06 50.108 0.477 7.55 1.7 9.95
11/10/2020 6:00:00 AM 10.04 50.072 0.478 7.55 2.06 9.93
11/10/2020 6:15:00 AM 10.05 50.09 0.478 7.55 1.69 9.91
11/10/2020 6:30:00 AM 10.05 50.09 0.478 7.56 1.7 9.92
11/10/2020 6:45:00 AM 10.04 50.072 0.478 7.55 1.69 9.9
11/10/2020 7:00:00 AM 10.05 50.09 0.479 7.56 1.35 9.95
11/10/2020 7:15:00 AM 10.06 50.108 0.479 7.56 3.18 9.96
11/10/2020 7:30:00 AM 10.08 50.144 0.479 7.56 1.13 10.01
11/10/2020 7:45:00 AM 10.1 50.18 0.479 7.56 1.24 10.13
11/10/2020 8:00:00 AM 10.13 50.234 0.479 7.57 1.03 10.24
11/10/2020 8:15:00 AM 10.19 50.342 0.479 7.58 1.01 10.43
11/10/2020 8:30:00 AM 10.25 50.45 0.478 7.59 1.22 10.64
11/10/2020 8:45:00 AM 10.33 50.594 0.478 7.61 1.04 10.91
11/10/2020 9:00:00 AM 10.41 50.738 0.477 7.63 0.87 11.18
11/10/2020 9:15:00 AM 10.49 50.882 0.477 7.65 0.96 11.44
11/10/2020 9:30:00 AM 10.58 51.044 0.476 7.67 0.97 11.68
11/10/2020 9:45:00 AM 10.68 51.224 0.476 7.7 1.03 11.9
11/10/2020 10:00:00 AM 10.78 51.404 0.475 7.72 1.04 12.12
11/10/2020 10:15:00 AM 10.92 51.656 0.475 7.74 0.79 12.36
11/10/2020 10:30:00 AM 11.09 51.962 0.474 7.77 1.45 12.57
11/10/2020 10:45:00 AM 11.3 52.34 0.474 7.8 1.38 12.79
11/10/2020 11:00:00 AM 11.55 52.79 0.473 7.84 1.03 13.02
11/10/2020 11:15:00 AM 11.81 53.258 0.472 7.87 0.91 13.22
11/10/2020 11:30:00 AM 12.09 53.762 0.472 7.91 0.87 13.4
11/10/2020 11:45:00 AM 12.39 54.302 0.471 7.94 0.88 13.61
11/10/2020 12:00:00 PM 12.69 54.842 0.471 8 0.9 13.78
11/10/2020 12:15:00 PM 12.98 55.364 0.47 8.03 1.53 13.92
11/10/2020 12:30:00 PM 13.25 55.85 0.47 8.06 0.89 14.06
11/10/2020 12:45:00 PM 13.49 56.282 0.469 8.08 1.14 14.15
11/10/2020 1:00:00 PM 13.73 56.714 0.469 8.1 0.93 14.23
11/10/2020 1:15:00 PM 13.92 57.056 0.468 8.12 0.94 14.28
11/10/2020 1:30:00 PM 13.97 57.146 0.468 8.12 1.83 14.26
11/10/2020 1:45:00 PM 14 57.2 0.469 8.12 1.06 14.2
11/10/2020 2:00:00 PM 14.14 57.452 0.468 8.13 0.96 14.23
11/10/2020 2:15:00 PM 14.26 57.668 0.468 8.13 2.39 14.24
11/10/2020 2:30:00 PM 14.3 57.74 0.468 8.13 0.96 14.16
11/10/2020 2:45:00 PM 14.32 57.776 0.468 8.13 0.95 14.1
11/10/2020 3:00:00 PM 14.24 57.632 0.468 8.12 1.19 14.04
11/10/2020 3:15:00 PM 14.21 57.578 0.468 8.11 3.27 13.84
11/10/2020 3:30:00 PM 14.1 57.38 0.469 8.09 1.47 13.7
11/10/2020 3:45:00 PM 13.98 57.164 0.469 8.08 0.98 13.49
11/10/2020 4:00:00 PM 13.84 56.912 0.47 8.05 0.88 13.02
11/10/2020 4:15:00 PM 13.74 56.732 0.471 8.03 1.37 12.72
11/10/2020 4:30:00 PM 13.66 56.588 0.472 8.02 0.71 12.43
11/10/2020 4:45:00 PM 13.54 56.372 0.473 8 0.96 12.09
11/10/2020 5:00:00 PM 13.47 56.246 0.474 7.96 0.84 11.7
11/10/2020 5:15:00 PM 13.39 56.102 0.475 7.94 0.93 11.38
11/10/2020 5:30:00 PM 13.32 55.976 0.476 7.92 1.13 11
11/10/2020 5:45:00 PM 13.25 55.85 0.476 7.89 1.31 10.72
11/10/2020 6:00:00 PM 13.16 55.688 0.478 7.87 1.75 10.43
11/10/2020 6:15:00 PM 13.1 55.58 0.478 7.84 1.5 10.2
11/10/2020 6:30:00 PM 13.04 55.472 0.479 7.82 3.37 10.02
11/10/2020 6:45:00 PM 12.96 55.328 0.48 7.8 2.48 9.86
11/10/2020 7:00:00 PM 12.88 55.184 0.48 7.78 2.91 9.71
11/10/2020 7:15:00 PM 12.79 55.022 0.481 7.76 2.9 9.61
11/10/2020 7:30:00 PM 12.73 54.914 0.482 7.75 2.79 9.53
11/10/2020 7:45:00 PM 12.63 54.734 0.482 7.73 4.62 9.49
11/10/2020 8:00:00 PM 12.52 54.536 0.482 7.72 3.55 9.48
11/10/2020 8:15:00 PM 12.42 54.356 0.482 7.71 4.32 9.45
11/10/2020 8:30:00 PM 12.31 54.158 0.482 7.7 3.43 9.45
11/10/2020 8:45:00 PM 12.22 53.996 0.482 7.69 3.14 9.45
11/10/2020 9:00:00 PM 12.15 53.87 0.483 7.69 2.97 9.44
11/10/2020 9:15:00 PM 12.08 53.744 0.483 7.68 3.52 9.44
11/10/2020 9:30:00 PM 12.01 53.618 0.483 7.68 3.53 9.44
11/10/2020 9:45:00 PM 11.97 53.546 0.484 7.67 2.92 9.43
11/10/2020 10:00:00 PM 11.92 53.456 0.484 7.67 3.98 9.39
11/10/2020 10:15:00 PM 11.88 53.384 0.484 7.66 3.12 9.42
11/10/2020 10:30:00 PM 11.83 53.294 0.485 7.65 3.72 9.4
11/10/2020 10:45:00 PM 11.79 53.222 0.485 7.65 5.54 9.41
11/10/2020 11:00:00 PM 11.75 53.15 0.485 7.65 4.97 9.42
11/10/2020 11:15:00 PM 11.72 53.096 0.485 7.65 3.67 9.41
11/10/2020 11:30:00 PM 11.69 53.042 0.485 7.64 4.52 9.43
11/10/2020 11:45:00 PM 11.66 52.988 0.485 7.64 2.77 9.4
11/11/2020 12:00:00 AM 11.63 52.934 0.486 7.64 4.28 9.42
11/11/2020 12:15:00 AM 11.6 52.88 0.486 7.63 3.41 9.41
11/11/2020 12:30:00 AM 11.57 52.826 0.486 7.63 4.72 9.41
11/11/2020 12:45:00 AM 11.55 52.79 0.486 7.62 4.32 9.4
11/11/2020 1:00:00 AM 11.52 52.736 0.486 7.62 7.55 9.39
11/11/2020 1:15:00 AM 11.5 52.7 0.486 7.62 4.06 9.4
11/11/2020 1:30:00 AM 11.47 52.646 0.486 7.61 2.45 9.42
11/11/2020 1:45:00 AM 11.46 52.628 0.486 7.61 2.66 9.42
11/11/2020 2:00:00 AM 11.44 52.592 0.486 7.61 5.38 9.42
11/11/2020 2:15:00 AM 11.42 52.556 0.485 7.61 2.53 9.42
11/11/2020 2:30:00 AM 11.41 52.538 0.485 7.61 6.64 9.41
11/11/2020 2:45:00 AM 11.39 52.502 0.485 7.61 3.42 9.43
11/11/2020 3:00:00 AM 11.38 52.484 0.485 7.61 2.91 9.41
11/11/2020 3:15:00 AM 11.36 52.448 0.485 7.6 3.25 9.4
11/11/2020 3:30:00 AM 11.35 52.43 0.485 7.6 2.82 9.41
11/11/2020 3:45:00 AM 11.35 52.43 0.485 7.6 2.08 9.41
11/11/2020 4:00:00 AM 11.34 52.412 0.485 7.59 2.37 9.43
11/11/2020 4:15:00 AM 11.33 52.394 0.485 7.59 3.24 9.42
11/11/2020 4:30:00 AM 11.32 52.376 0.485 7.59 2.04 9.41
11/11/2020 4:45:00 AM 11.31 52.358 0.485 7.59 2.13 9.38
11/11/2020 5:00:00 AM 11.3 52.34 0.485 7.59 2.06 9.39
11/11/2020 5:15:00 AM 11.31 52.358 0.485 7.59 1.97 9.38
11/11/2020 5:30:00 AM 11.32 52.376 0.485 7.58 1.79 9.41
11/11/2020 5:45:00 AM 11.34 52.412 0.485 7.58 2.12 9.38
11/11/2020 6:00:00 AM 11.36 52.448 0.486 7.58 1.7 9.36
11/11/2020 6:15:00 AM 11.39 52.502 0.486 7.58 2.71 9.37
11/11/2020 6:30:00 AM 11.42 52.556 0.486 7.58 1.84 9.39
11/11/2020 6:45:00 AM 11.44 52.592 0.486 7.58 1.63 9.35
11/11/2020 7:00:00 AM 11.47 52.646 0.486 7.58 1.57 9.38
11/11/2020 7:15:00 AM 11.51 52.718 0.486 7.58 1.22 9.41
11/11/2020 7:30:00 AM 11.55 52.79 0.486 7.58 2.01 9.46
11/11/2020 7:45:00 AM 11.59 52.862 0.486 7.58 1.14 9.53
11/11/2020 8:00:00 AM 11.62 52.916 0.487 7.59 0.97 9.58
11/11/2020 8:15:00 AM 11.65 52.97 0.487 7.59 0.94 9.65
11/11/2020 8:30:00 AM 11.69 53.042 0.487 7.59 0.97 9.7
11/11/2020 8:45:00 AM 11.73 53.114 0.486 7.59 1.05 9.74
11/11/2020 9:00:00 AM 11.77 53.186 0.485 7.6 0.85 9.85
11/11/2020 9:15:00 AM 11.81 53.258 0.485 7.61 0.76 9.92
11/11/2020 9:30:00 AM 11.85 53.33 0.485 7.62 0.89 9.99
11/11/2020 9:45:00 AM 11.88 53.384 0.484 7.62 0.92 10.07
11/11/2020 10:00:00 AM 11.93 53.474 0.484 7.63 0.81 10.15
11/11/2020 10:15:00 AM 11.98 53.564 0.483 7.64 0.74 10.24
11/11/2020 10:30:00 AM 12.04 53.672 0.483 7.65 0.72 10.42
11/11/2020 10:45:00 AM 12.1 53.78 0.482 7.66 0.69 10.56
11/11/2020 11:00:00 AM 12.16 53.888 0.482 7.68 0.94 10.74
11/11/2020 11:15:00 AM 12.22 53.996 0.481 7.69 0.69 10.95
11/11/2020 11:30:00 AM 12.28 54.104 0.48 7.71 0.72 11.03
11/11/2020 11:45:00 AM 12.34 54.212 0.479 7.72 0.68 11.15
11/11/2020 12:00:00 PM 12.38 54.284 0.479 7.74 0.87 11.26
11/11/2020 12:15:00 PM 12.42 54.356 0.479 7.75 0.77 11.24
11/11/2020 12:30:00 PM 12.47 54.446 0.478 7.75 2.28 11.23
11/11/2020 12:45:00 PM 12.54 54.572 0.477 7.76 0.74 11.3
11/11/2020 1:00:00 PM 12.59 54.662 0.476 7.78 0.69 11.37
11/11/2020 1:15:00 PM 12.65 54.77 0.476 7.79 0.82 11.5
11/11/2020 1:30:00 PM 12.7 54.86 0.476 7.8 0.76 11.58
11/11/2020 1:45:00 PM 12.73 54.914 0.476 7.8 0.75 11.47
11/11/2020 2:00:00 PM 12.78 55.004 0.475 7.81 0.7 11.39
11/11/2020 2:15:00 PM 12.86 55.148 0.472 7.81 1.01 11.3
11/11/2020 2:30:00 PM 12.9 55.22 0.471 7.81 0.83 11.29
11/11/2020 2:45:00 PM 12.93 55.274 0.471 7.81 0.89 11.21
11/11/2020 3:00:00 PM 12.97 55.346 0.469 7.81 0.9 11.11
11/11/2020 3:15:00 PM 12.97 55.346 0.47 7.8 1.09 11
11/11/2020 3:30:00 PM 12.98 55.364 0.471 7.8 1.12 10.88
11/11/2020 3:45:00 PM 13 55.4 0.47 7.79 1.15 10.74
11/11/2020 4:00:00 PM 13.02 55.436 0.468 7.78 1.18 10.55
11/11/2020 4:15:00 PM 13.02 55.436 0.468 7.77 1.21 10.39
11/11/2020 4:30:00 PM 13.03 55.454 0.467 7.76 1.22 10.27
11/11/2020 4:45:00 PM 13.02 55.436 0.466 7.75 1.43 10.13
11/11/2020 5:00:00 PM 13 55.4 0.467 7.74 1.23 9.99
11/11/2020 5:15:00 PM 12.99 55.382 0.468 7.72 1.58 9.84
11/11/2020 5:30:00 PM 12.98 55.364 0.468 7.71 2.18 9.73
11/11/2020 5:45:00 PM 12.96 55.328 0.469 7.69 3.69 9.64
11/11/2020 6:00:00 PM 12.96 55.328 0.469 7.68 3.63 9.55
11/11/2020 6:15:00 PM 12.94 55.292 0.47 7.67 4.52 9.48
11/11/2020 6:30:00 PM 12.94 55.292 0.47 7.66 6.06 9.4
11/11/2020 6:45:00 PM 12.93 55.274 0.471 7.65 5.42 9.35
11/11/2020 7:00:00 PM 12.93 55.274 0.472 7.64 7.28 9.33
11/11/2020 7:15:00 PM 12.93 55.274 0.472 7.63 4.62 9.27
11/11/2020 7:30:00 PM 12.94 55.292 0.472 7.63 5.64 9.2
11/11/2020 7:45:00 PM 12.93 55.274 0.473 7.62 6.32 9.21
11/11/2020 8:00:00 PM 12.94 55.292 0.473 7.61 3.62 9.2
11/11/2020 8:15:00 PM 12.93 55.274 0.474 7.6 4.16 9.19
11/11/2020 8:30:00 PM 12.91 55.238 0.475 7.6 5.16 9.18
11/11/2020 8:45:00 PM 12.9 55.22 0.476 7.59 4.81 9.15
11/11/2020 9:00:00 PM 12.89 55.202 0.477 7.58 5.95 9.15
11/11/2020 9:15:00 PM 12.88 55.184 0.478 7.58 3.27 9.11
11/11/2020 9:30:00 PM 12.87 55.166 0.479 7.58 4.35 9.12
11/11/2020 9:45:00 PM 12.86 55.148 0.479 7.58 4.11 9.13
11/11/2020 10:00:00 PM 12.85 55.13 0.48 7.57 4.52 9.11
11/11/2020 10:15:00 PM 12.84 55.112 0.481 7.57 5.05 9.09
11/11/2020 10:30:00 PM 12.82 55.076 0.482 7.57 2.88 9.13
11/11/2020 10:45:00 PM 12.81 55.058 0.482 7.57 2.82 9.09
11/11/2020 11:00:00 PM 12.81 55.058 0.483 7.57 3.18 9.12
11/11/2020 11:15:00 PM 12.82 55.076 0.483 7.57 3.69 9.08
11/11/2020 11:30:00 PM 12.81 55.058 0.483 7.57 3.58 9.09
11/11/2020 11:45:00 PM 12.79 55.022 0.484 7.56 4.87 9.07
11/12/2020 12:00:00 AM 12.77 54.986 0.484 7.56 4.47 9.07
11/12/2020 12:15:00 AM 12.75 54.95 0.485 7.56 3.82 9.06
11/12/2020 12:30:00 AM 12.73 54.914 0.485 7.56 4.22 9.02
11/12/2020 12:45:00 AM 12.73 54.914 0.485 7.55 4.17 9.05
11/12/2020 1:00:00 AM 12.73 54.914 0.486 7.55 7.01 9.01
11/12/2020 1:15:00 AM 12.72 54.896 0.486 7.55 4.52 9.03
11/12/2020 1:30:00 AM 12.73 54.914 0.487 7.55 7.88 9.01
11/12/2020 1:45:00 AM 12.71 54.878 0.487 7.55 4.21 9.01
11/12/2020 2:00:00 AM 12.71 54.878 0.487 7.55 6.43 8.98
11/12/2020 2:15:00 AM 12.69 54.842 0.488 7.55 4.71 9
11/12/2020 2:30:00 AM 12.67 54.806 0.488 7.55 4.96 8.99
11/12/2020 2:45:00 AM 12.65 54.77 0.488 7.55 5.04 9.01
11/12/2020 3:00:00 AM 12.63 54.734 0.488 7.54 4.31 8.98
11/12/2020 3:15:00 AM 12.62 54.716 0.488 7.54 5.05 8.98
11/12/2020 3:30:00 AM 12.63 54.734 0.489 7.54 3.77 8.99
11/12/2020 3:45:00 AM 12.61 54.698 0.489 7.54 5.2 9
11/12/2020 4:00:00 AM 12.61 54.698 0.489 7.54 2.83 9
11/12/2020 4:15:00 AM 12.59 54.662 0.489 7.54 4.48 9.03
11/12/2020 4:30:00 AM 12.59 54.662 0.489 7.54 3.48 9.02
11/12/2020 4:45:00 AM 12.58 54.644 0.489 7.54 7.04 9.05
11/12/2020 5:00:00 AM 12.57 54.626 0.489 7.54 5.3 9.07
11/12/2020 5:15:00 AM 12.56 54.608 0.488 7.54 5.96 9.09
11/12/2020 5:30:00 AM 12.55 54.59 0.487 7.55 3.25 9.1
11/12/2020 5:45:00 AM 12.55 54.59 0.487 7.55 3.18 9.13
11/12/2020 6:00:00 AM 12.53 54.554 0.487 7.55 5.05 9.12
11/12/2020 6:15:00 AM 12.51 54.518 0.487 7.55 4.65 9.17
11/12/2020 6:30:00 AM 12.49 54.482 0.487 7.55 2.63 9.18
11/12/2020 6:45:00 AM 12.47 54.446 0.488 7.56 4.08 9.2
11/12/2020 7:00:00 AM 12.46 54.428 0.488 7.56 2.49 9.23
11/12/2020 7:15:00 AM 12.45 54.41 0.487 7.57 2.51 9.24
11/12/2020 7:30:00 AM 12.44 54.392 0.488 7.56 1.98 9.27
11/12/2020 7:45:00 AM 12.43 54.374 0.488 7.56 1.66 9.31
11/12/2020 8:00:00 AM 12.44 54.392 0.487 7.57 2.34 9.35
11/12/2020 8:15:00 AM 12.44 54.392 0.487 7.57 2.16 9.42
11/12/2020 8:30:00 AM 12.46 54.428 0.487 7.58 1.66 9.47
11/12/2020 8:45:00 AM 12.48 54.464 0.487 7.58 1.54 9.58
11/12/2020 9:00:00 AM 12.49 54.482 0.487 7.59 1.64 9.67
11/12/2020 9:15:00 AM 12.51 54.518 0.486 7.6 1.89 9.79
11/12/2020 9:30:00 AM 12.53 54.554 0.485 7.61 1.83 9.82
11/12/2020 9:45:00 AM 12.55 54.59 0.484 7.61 1.73 9.86
11/12/2020 10:00:00 AM 12.59 54.662 0.484 7.62 1.76 9.93
11/12/2020 10:15:00 AM 12.62 54.716 0.483 7.63 1.93 10.01
11/12/2020 10:30:00 AM 12.65 54.77 0.483 7.64 2.63 10
11/12/2020 10:45:00 AM 12.69 54.842 0.482 7.64 1.65 10.05
11/12/2020 11:00:00 AM 12.74 54.932 0.481 7.65 3.84 10.11
11/12/2020 11:15:00 AM 12.78 55.004 0.48 7.65 2.32 10.15
11/12/2020 11:30:00 AM 12.82 55.076 0.48 7.65 2.87 10.18
11/12/2020 11:45:00 AM 12.85 55.13 0.478 7.65 2.89 10.18
11/12/2020 12:00:00 PM 12.87 55.166 0.477 7.65 2.9 10.14
11/12/2020 12:15:00 PM 12.88 55.184 0.476 7.65 2.61 10.14
11/12/2020 12:30:00 PM 12.89 55.202 0.475 7.64 3.15 10.12
11/12/2020 12:45:00 PM 12.89 55.202 0.475 7.64 2.27 10.05
11/12/2020 1:00:00 PM 12.9 55.22 0.474 7.63 2.95 10.03
11/12/2020 1:15:00 PM 12.92 55.256 0.474 7.63 4.13 10
11/12/2020 1:30:00 PM 12.93 55.274 0.474 7.62 6.59 9.99
11/12/2020 1:45:00 PM 12.94 55.292 0.474 7.61 2.98 9.98
11/12/2020 2:00:00 PM 12.94 55.292 0.473 7.61 4.54 9.98
11/12/2020 2:15:00 PM 12.94 55.292 0.474 7.61 3.53 9.96
11/12/2020 2:30:00 PM 12.93 55.274 0.474 7.6 3.29 9.89
11/12/2020 2:45:00 PM 12.91 55.238 0.474 7.6 6.08 9.84
11/12/2020 3:00:00 PM 12.9 55.22 0.474 7.59 2.79 9.79
11/12/2020 3:15:00 PM 12.89 55.202 0.474 7.59 3.06 9.78
11/12/2020 3:30:00 PM 12.87 55.166 0.474 7.59 3.1 9.72
11/12/2020 3:45:00 PM 12.85 55.13 0.474 7.58 3.06 9.71
11/12/2020 4:00:00 PM 12.84 55.112 0.474 7.58 5.06 9.69
11/12/2020 4:15:00 PM 12.81 55.058 0.474 7.57 3.57 9.66
11/12/2020 4:30:00 PM 12.78 55.004 0.474 7.57 3 9.62
11/12/2020 4:45:00 PM 12.75 54.95 0.473 7.56 3.23 9.59
11/12/2020 5:00:00 PM 12.71 54.878 0.473 7.56 3.26 9.57
11/12/2020 5:15:00 PM 12.68 54.824 0.473 7.56 3.35 9.5
11/12/2020 5:30:00 PM 12.64 54.752 0.473 7.56 6.08 9.49
11/12/2020 5:45:00 PM 12.6 54.68 0.472 7.56 4.09 9.47
11/12/2020 6:00:00 PM 12.56 54.608 0.472 7.56 5.54 9.46
11/12/2020 6:15:00 PM 12.54 54.572 0.471 7.56 7.19 9.44
11/12/2020 6:30:00 PM 12.52 54.536 0.47 7.57 4.64 9.48
11/12/2020 6:45:00 PM 12.5 54.5 0.469 7.57 5.93 9.48
11/12/2020 7:00:00 PM 12.49 54.482 0.468 7.57 6.73 9.51
11/12/2020 7:15:00 PM 12.46 54.428 0.468 7.58 4.24 9.52
11/12/2020 7:30:00 PM 12.46 54.428 0.467 7.58 4.69 9.53
11/12/2020 7:45:00 PM 12.44 54.392 0.466 7.59 4.44 9.56
11/12/2020 8:00:00 PM 12.41 54.338 0.465 7.59 6.87 9.55
11/12/2020 8:15:00 PM 12.37 54.266 0.464 7.59 5.29 9.6
11/12/2020 8:30:00 PM 12.35 54.23 0.463 7.59 6.6 9.61
11/12/2020 8:45:00 PM 12.3 54.14 0.463 7.59 5.51 9.64
11/12/2020 9:00:00 PM 12.26 54.068 0.462 7.59 6.99 9.66
11/12/2020 9:15:00 PM 12.23 54.014 0.461 7.59 5.18 9.67
11/12/2020 9:30:00 PM 12.18 53.924 0.461 7.59 4.93 9.68
11/12/2020 9:45:00 PM 12.16 53.888 0.459 7.58 9.22 9.7
11/12/2020 10:00:00 PM 12.12 53.816 0.459 7.58 5.25 9.7
11/12/2020 10:15:00 PM 12.09 53.762 0.458 7.59 5.7 9.73
11/12/2020 10:30:00 PM 12.06 53.708 0.457 7.59 6 9.74
11/12/2020 10:45:00 PM 12.02 53.636 0.456 7.59 9.76 9.74
11/12/2020 11:00:00 PM 11.99 53.582 0.455 7.59 5.91 9.77
11/12/2020 11:15:00 PM 11.96 53.528 0.454 7.59 5.8 9.78
11/12/2020 11:30:00 PM 11.93 53.474 0.453 7.59 5.83 9.76
11/12/2020 11:45:00 PM 11.9 53.42 0.452 7.58 4.23 9.77
11/13/2020 12:00:00 AM 11.85 53.33 0.451 7.58 7.08 9.76
11/13/2020 12:15:00 AM 11.82 53.276 0.45 7.58 11.48 9.77
11/13/2020 12:30:00 AM 11.78 53.204 0.449 7.59 8.99 9.79
11/13/2020 12:45:00 AM 11.75 53.15 0.448 7.59 9.51 9.78
11/13/2020 1:00:00 AM 11.72 53.096 0.447 7.59 5.57 9.8
11/13/2020 1:15:00 AM 11.69 53.042 0.446 7.59 9.13 9.8
11/13/2020 1:30:00 AM 11.67 53.006 0.444 7.59 4.44 9.82
11/13/2020 1:45:00 AM 11.63 52.934 0.444 7.58 5.76 9.8
11/13/2020 2:00:00 AM 11.6 52.88 0.442 7.58 5.74 9.81
11/13/2020 2:15:00 AM 11.56 52.808 0.441 7.58 6.24 9.79
11/13/2020 2:30:00 AM 11.54 52.772 0.439 7.57 4.46 9.8
11/13/2020 2:45:00 AM 11.51 52.718 0.438 7.57 8.71 9.79
11/13/2020 3:00:00 AM 11.49 52.682 0.437 7.57 6.1 9.79
11/13/2020 3:15:00 AM 11.47 52.646 0.435 7.56 7.36 9.8
11/13/2020 3:30:00 AM 11.47 52.646 0.434 7.56 8.23 9.81
11/13/2020 3:45:00 AM 11.45 52.61 0.433 7.55 7.9 9.79
11/13/2020 4:00:00 AM 11.43 52.574 0.431 7.55 6.72 9.8
11/13/2020 4:15:00 AM 11.42 52.556 0.43 7.55 6.37 9.78
11/13/2020 4:30:00 AM 11.4 52.52 0.429 7.55 6.47 9.77
11/13/2020 4:45:00 AM 11.38 52.484 0.428 7.54 7.71 9.78
11/13/2020 5:00:00 AM 11.35 52.43 0.427 7.54 5.41 9.77
11/13/2020 5:15:00 AM 11.34 52.412 0.426 7.54 8.56 9.78
11/13/2020 5:30:00 AM 11.31 52.358 0.425 7.53 7.38 9.78
11/13/2020 5:45:00 AM 11.29 52.322 0.424 7.53 4.68 9.77
11/13/2020 6:00:00 AM 11.26 52.268 0.423 7.53 7.91 9.78
11/13/2020 6:15:00 AM 11.24 52.232 0.423 7.52 7.92 9.78
11/13/2020 6:30:00 AM 11.22 52.196 0.422 7.52 12.06 9.81
11/13/2020 6:45:00 AM 11.19 52.142 0.421 7.52 8.84 9.78
11/13/2020 7:00:00 AM 11.16 52.088 0.42 7.52 7.38 9.8
11/13/2020 7:15:00 AM 11.14 52.052 0.419 7.52 13.62 9.79
11/13/2020 7:30:00 AM 11.12 52.016 0.419 7.52 7.36 9.8
11/13/2020 7:45:00 AM 11.11 51.998 0.417 7.51 11.43 9.83
11/13/2020 8:00:00 AM 11.09 51.962 0.417 7.51 5.35 9.83
11/13/2020 8:15:00 AM 11.07 51.926 0.416 7.51 5.15 9.85
11/13/2020 8:30:00 AM 11.07 51.926 0.415